<?xml version="1.0" encoding="UTF-8" standalone="no" ?>
<gpx xmlns="http://www.topografix.com/GPX/1/1" xmlns:xsi="http://www.w3.org/2001/XMLSchema-instance" xsi:schemaLocation="http://www.topografix.com/GPX/1/1 http://www.topografix.com/GPX/1/1/gpx.xsd" version="1.1" creator="VisuGPX - https://www.visugpx.com">
  <metadata>
    <name>13 - D+  Gémenos </name>
    <desc><![CDATA[13 - D+  Gémenos : Seignors St Clair 
2022-03-27]]></desc>
  </metadata>
  <trk>
    <name><![CDATA[Gemenos Seignors St Clair 2022-03-27-01]]></name>
    <trkseg>
      <trkpt lat="43.31341" lon="5.61489">
        <ele>211.9</ele>
        <time>2022-03-27T07:33:03Z</time>
      </trkpt>
      <trkpt lat="43.31341" lon="5.61489">
        <ele>211.9</ele>
        <time>2022-03-27T07:33:04Z</time>
      </trkpt>
      <trkpt lat="43.31338" lon="5.61476">
        <ele>211.6</ele>
        <time>2022-03-27T07:41:24Z</time>
      </trkpt>
      <trkpt lat="43.3133" lon="5.61471">
        <ele>210.6</ele>
        <time>2022-03-27T07:41:34Z</time>
      </trkpt>
      <trkpt lat="43.31337" lon="5.61463">
        <ele>208.3</ele>
        <time>2022-03-27T07:42:02Z</time>
      </trkpt>
      <trkpt lat="43.31346" lon="5.61459">
        <ele>207.6</ele>
        <time>2022-03-27T07:42:13Z</time>
      </trkpt>
      <trkpt lat="43.31353" lon="5.6145">
        <ele>207.7</ele>
        <time>2022-03-27T07:42:22Z</time>
      </trkpt>
      <trkpt lat="43.31357" lon="5.61437">
        <ele>207</ele>
        <time>2022-03-27T07:42:32Z</time>
      </trkpt>
      <trkpt lat="43.31361" lon="5.61425">
        <ele>206.1</ele>
        <time>2022-03-27T07:42:42Z</time>
      </trkpt>
      <trkpt lat="43.31367" lon="5.61415">
        <ele>205.4</ele>
        <time>2022-03-27T07:42:52Z</time>
      </trkpt>
      <trkpt lat="43.31376" lon="5.61408">
        <ele>205.2</ele>
        <time>2022-03-27T07:43:01Z</time>
      </trkpt>
      <trkpt lat="43.31383" lon="5.61399">
        <ele>204.7</ele>
        <time>2022-03-27T07:43:09Z</time>
      </trkpt>
      <trkpt lat="43.31388" lon="5.61389">
        <ele>204.8</ele>
        <time>2022-03-27T07:43:17Z</time>
      </trkpt>
      <trkpt lat="43.31396" lon="5.6138">
        <ele>204.1</ele>
        <time>2022-03-27T07:43:27Z</time>
      </trkpt>
      <trkpt lat="43.31405" lon="5.61378">
        <ele>204.7</ele>
        <time>2022-03-27T07:43:36Z</time>
      </trkpt>
      <trkpt lat="43.31414" lon="5.61376">
        <ele>205.6</ele>
        <time>2022-03-27T07:43:46Z</time>
      </trkpt>
      <trkpt lat="43.31424" lon="5.61375">
        <ele>206.7</ele>
        <time>2022-03-27T07:43:56Z</time>
      </trkpt>
      <trkpt lat="43.31434" lon="5.61376">
        <ele>207</ele>
        <time>2022-03-27T07:44:05Z</time>
      </trkpt>
      <trkpt lat="43.31443" lon="5.61379">
        <ele>206.5</ele>
        <time>2022-03-27T07:44:14Z</time>
      </trkpt>
      <trkpt lat="43.31451" lon="5.61386">
        <ele>207.3</ele>
        <time>2022-03-27T07:44:25Z</time>
      </trkpt>
      <trkpt lat="43.31459" lon="5.61392">
        <ele>208.5</ele>
        <time>2022-03-27T07:44:34Z</time>
      </trkpt>
      <trkpt lat="43.31469" lon="5.61395">
        <ele>207.8</ele>
        <time>2022-03-27T07:44:43Z</time>
      </trkpt>
      <trkpt lat="43.31479" lon="5.61397">
        <ele>206.8</ele>
        <time>2022-03-27T07:44:51Z</time>
      </trkpt>
      <trkpt lat="43.31488" lon="5.61401">
        <ele>205.8</ele>
        <time>2022-03-27T07:45:00Z</time>
      </trkpt>
      <trkpt lat="43.31497" lon="5.61405">
        <ele>205.9</ele>
        <time>2022-03-27T07:45:10Z</time>
      </trkpt>
      <trkpt lat="43.31506" lon="5.61408">
        <ele>205.9</ele>
        <time>2022-03-27T07:45:19Z</time>
      </trkpt>
      <trkpt lat="43.31515" lon="5.61414">
        <ele>206.8</ele>
        <time>2022-03-27T07:45:28Z</time>
      </trkpt>
      <trkpt lat="43.31523" lon="5.6142">
        <ele>207</ele>
        <time>2022-03-27T07:45:37Z</time>
      </trkpt>
      <trkpt lat="43.31531" lon="5.61426">
        <ele>207.7</ele>
        <time>2022-03-27T07:45:47Z</time>
      </trkpt>
      <trkpt lat="43.3154" lon="5.61432">
        <ele>207.8</ele>
        <time>2022-03-27T07:45:55Z</time>
      </trkpt>
      <trkpt lat="43.31548" lon="5.61439">
        <ele>207.4</ele>
        <time>2022-03-27T07:46:04Z</time>
      </trkpt>
      <trkpt lat="43.31556" lon="5.61443">
        <ele>207.4</ele>
        <time>2022-03-27T07:46:13Z</time>
      </trkpt>
      <trkpt lat="43.31565" lon="5.6145">
        <ele>207.9</ele>
        <time>2022-03-27T07:46:22Z</time>
      </trkpt>
      <trkpt lat="43.31573" lon="5.61457">
        <ele>209.1</ele>
        <time>2022-03-27T07:46:30Z</time>
      </trkpt>
      <trkpt lat="43.31581" lon="5.61465">
        <ele>210.2</ele>
        <time>2022-03-27T07:46:39Z</time>
      </trkpt>
      <trkpt lat="43.31589" lon="5.61472">
        <ele>210.8</ele>
        <time>2022-03-27T07:46:47Z</time>
      </trkpt>
      <trkpt lat="43.31597" lon="5.61478">
        <ele>212.1</ele>
        <time>2022-03-27T07:46:57Z</time>
      </trkpt>
      <trkpt lat="43.31606" lon="5.61485">
        <ele>214.7</ele>
        <time>2022-03-27T07:47:07Z</time>
      </trkpt>
      <trkpt lat="43.31615" lon="5.61488">
        <ele>216.5</ele>
        <time>2022-03-27T07:47:17Z</time>
      </trkpt>
      <trkpt lat="43.31625" lon="5.6149">
        <ele>217.6</ele>
        <time>2022-03-27T07:47:25Z</time>
      </trkpt>
      <trkpt lat="43.31634" lon="5.61494">
        <ele>218.2</ele>
        <time>2022-03-27T07:47:35Z</time>
      </trkpt>
      <trkpt lat="43.31643" lon="5.61498">
        <ele>218.7</ele>
        <time>2022-03-27T07:47:43Z</time>
      </trkpt>
      <trkpt lat="43.31651" lon="5.61504">
        <ele>218.6</ele>
        <time>2022-03-27T07:47:52Z</time>
      </trkpt>
      <trkpt lat="43.31659" lon="5.61512">
        <ele>218</ele>
        <time>2022-03-27T07:48:01Z</time>
      </trkpt>
      <trkpt lat="43.31666" lon="5.6152">
        <ele>218.2</ele>
        <time>2022-03-27T07:48:09Z</time>
      </trkpt>
      <trkpt lat="43.31673" lon="5.61528">
        <ele>219.3</ele>
        <time>2022-03-27T07:48:18Z</time>
      </trkpt>
      <trkpt lat="43.3168" lon="5.61536">
        <ele>220.1</ele>
        <time>2022-03-27T07:48:28Z</time>
      </trkpt>
      <trkpt lat="43.31689" lon="5.61541">
        <ele>220.5</ele>
        <time>2022-03-27T07:48:36Z</time>
      </trkpt>
      <trkpt lat="43.317" lon="5.61543">
        <ele>220.9</ele>
        <time>2022-03-27T07:48:46Z</time>
      </trkpt>
      <trkpt lat="43.31709" lon="5.61548">
        <ele>221</ele>
        <time>2022-03-27T07:48:54Z</time>
      </trkpt>
      <trkpt lat="43.31719" lon="5.61552">
        <ele>219.5</ele>
        <time>2022-03-27T07:49:04Z</time>
      </trkpt>
      <trkpt lat="43.31727" lon="5.61557">
        <ele>218.8</ele>
        <time>2022-03-27T07:49:12Z</time>
      </trkpt>
      <trkpt lat="43.31735" lon="5.61564">
        <ele>218.8</ele>
        <time>2022-03-27T07:49:21Z</time>
      </trkpt>
      <trkpt lat="43.31743" lon="5.61571">
        <ele>218.3</ele>
        <time>2022-03-27T07:49:33Z</time>
      </trkpt>
      <trkpt lat="43.31751" lon="5.61577">
        <ele>218.4</ele>
        <time>2022-03-27T07:49:44Z</time>
      </trkpt>
      <trkpt lat="43.3176" lon="5.61585">
        <ele>218</ele>
        <time>2022-03-27T07:50:04Z</time>
      </trkpt>
      <trkpt lat="43.31767" lon="5.61592">
        <ele>217.2</ele>
        <time>2022-03-27T07:50:17Z</time>
      </trkpt>
      <trkpt lat="43.31777" lon="5.61596">
        <ele>216.1</ele>
        <time>2022-03-27T07:50:46Z</time>
      </trkpt>
      <trkpt lat="43.31783" lon="5.61606">
        <ele>216.7</ele>
        <time>2022-03-27T07:50:57Z</time>
      </trkpt>
      <trkpt lat="43.3179" lon="5.61615">
        <ele>218.2</ele>
        <time>2022-03-27T07:51:07Z</time>
      </trkpt>
      <trkpt lat="43.31795" lon="5.61626">
        <ele>219.1</ele>
        <time>2022-03-27T07:51:17Z</time>
      </trkpt>
      <trkpt lat="43.31806" lon="5.61627">
        <ele>219.7</ele>
        <time>2022-03-27T07:51:25Z</time>
      </trkpt>
      <trkpt lat="43.31815" lon="5.61629">
        <ele>220.4</ele>
        <time>2022-03-27T07:51:34Z</time>
      </trkpt>
      <trkpt lat="43.31824" lon="5.61632">
        <ele>220</ele>
        <time>2022-03-27T07:52:09Z</time>
      </trkpt>
      <trkpt lat="43.31831" lon="5.61641">
        <ele>220.5</ele>
        <time>2022-03-27T07:52:37Z</time>
      </trkpt>
      <trkpt lat="43.31836" lon="5.61652">
        <ele>222.1</ele>
        <time>2022-03-27T07:53:05Z</time>
      </trkpt>
      <trkpt lat="43.31836" lon="5.61665">
        <ele>225.3</ele>
        <time>2022-03-27T07:53:30Z</time>
      </trkpt>
      <trkpt lat="43.31842" lon="5.61675">
        <ele>225.1</ele>
        <time>2022-03-27T07:53:40Z</time>
      </trkpt>
      <trkpt lat="43.31849" lon="5.61685">
        <ele>225.2</ele>
        <time>2022-03-27T07:53:48Z</time>
      </trkpt>
      <trkpt lat="43.31852" lon="5.61697">
        <ele>225.8</ele>
        <time>2022-03-27T07:54:04Z</time>
      </trkpt>
      <trkpt lat="43.31859" lon="5.61706">
        <ele>225.6</ele>
        <time>2022-03-27T07:54:19Z</time>
      </trkpt>
      <trkpt lat="43.31862" lon="5.61719">
        <ele>226.8</ele>
        <time>2022-03-27T07:54:35Z</time>
      </trkpt>
      <trkpt lat="43.31861" lon="5.61733">
        <ele>227.3</ele>
        <time>2022-03-27T07:54:44Z</time>
      </trkpt>
      <trkpt lat="43.31859" lon="5.61746">
        <ele>228.3</ele>
        <time>2022-03-27T07:54:52Z</time>
      </trkpt>
      <trkpt lat="43.31861" lon="5.61759">
        <ele>229.2</ele>
        <time>2022-03-27T07:55:00Z</time>
      </trkpt>
      <trkpt lat="43.3186" lon="5.61771">
        <ele>228.9</ele>
        <time>2022-03-27T07:55:08Z</time>
      </trkpt>
      <trkpt lat="43.3186" lon="5.61785">
        <ele>229.8</ele>
        <time>2022-03-27T07:55:17Z</time>
      </trkpt>
      <trkpt lat="43.31858" lon="5.61798">
        <ele>231.1</ele>
        <time>2022-03-27T07:55:26Z</time>
      </trkpt>
      <trkpt lat="43.3186" lon="5.61811">
        <ele>232.6</ele>
        <time>2022-03-27T07:55:37Z</time>
      </trkpt>
      <trkpt lat="43.31862" lon="5.61824">
        <ele>235.2</ele>
        <time>2022-03-27T07:55:49Z</time>
      </trkpt>
      <trkpt lat="43.3186" lon="5.61838">
        <ele>234.8</ele>
        <time>2022-03-27T07:55:59Z</time>
      </trkpt>
      <trkpt lat="43.31857" lon="5.6185">
        <ele>234.6</ele>
        <time>2022-03-27T07:56:07Z</time>
      </trkpt>
      <trkpt lat="43.31856" lon="5.61863">
        <ele>235</ele>
        <time>2022-03-27T07:56:17Z</time>
      </trkpt>
      <trkpt lat="43.31854" lon="5.61876">
        <ele>236.1</ele>
        <time>2022-03-27T07:56:27Z</time>
      </trkpt>
      <trkpt lat="43.31854" lon="5.6189">
        <ele>237.1</ele>
        <time>2022-03-27T07:56:37Z</time>
      </trkpt>
      <trkpt lat="43.31852" lon="5.61903">
        <ele>237.3</ele>
        <time>2022-03-27T07:56:47Z</time>
      </trkpt>
      <trkpt lat="43.31852" lon="5.61915">
        <ele>238</ele>
        <time>2022-03-27T07:56:57Z</time>
      </trkpt>
      <trkpt lat="43.31856" lon="5.61927">
        <ele>239</ele>
        <time>2022-03-27T07:57:07Z</time>
      </trkpt>
      <trkpt lat="43.3186" lon="5.61939">
        <ele>241.4</ele>
        <time>2022-03-27T07:57:22Z</time>
      </trkpt>
      <trkpt lat="43.31862" lon="5.61952">
        <ele>241.5</ele>
        <time>2022-03-27T07:57:31Z</time>
      </trkpt>
      <trkpt lat="43.3187" lon="5.61956">
        <ele>241.8</ele>
        <time>2022-03-27T07:57:40Z</time>
      </trkpt>
      <trkpt lat="43.31879" lon="5.61959">
        <ele>242.1</ele>
        <time>2022-03-27T07:57:49Z</time>
      </trkpt>
      <trkpt lat="43.31889" lon="5.6196">
        <ele>242.8</ele>
        <time>2022-03-27T07:57:58Z</time>
      </trkpt>
      <trkpt lat="43.31897" lon="5.61969">
        <ele>243.4</ele>
        <time>2022-03-27T07:58:08Z</time>
      </trkpt>
      <trkpt lat="43.31903" lon="5.61978">
        <ele>243.8</ele>
        <time>2022-03-27T07:58:17Z</time>
      </trkpt>
      <trkpt lat="43.31906" lon="5.6199">
        <ele>245.2</ele>
        <time>2022-03-27T07:58:28Z</time>
      </trkpt>
      <trkpt lat="43.3191" lon="5.62002">
        <ele>246</ele>
        <time>2022-03-27T07:58:37Z</time>
      </trkpt>
      <trkpt lat="43.31908" lon="5.62014">
        <ele>245.3</ele>
        <time>2022-03-27T07:58:49Z</time>
      </trkpt>
      <trkpt lat="43.31904" lon="5.62026">
        <ele>245.6</ele>
        <time>2022-03-27T07:59:00Z</time>
      </trkpt>
      <trkpt lat="43.31898" lon="5.62036">
        <ele>246.6</ele>
        <time>2022-03-27T07:59:12Z</time>
      </trkpt>
      <trkpt lat="43.3189" lon="5.62044">
        <ele>246.3</ele>
        <time>2022-03-27T07:59:22Z</time>
      </trkpt>
      <trkpt lat="43.31886" lon="5.62056">
        <ele>247.1</ele>
        <time>2022-03-27T07:59:30Z</time>
      </trkpt>
      <trkpt lat="43.31883" lon="5.62069">
        <ele>249.3</ele>
        <time>2022-03-27T07:59:39Z</time>
      </trkpt>
      <trkpt lat="43.31883" lon="5.62082">
        <ele>250.5</ele>
        <time>2022-03-27T07:59:48Z</time>
      </trkpt>
      <trkpt lat="43.31886" lon="5.62095">
        <ele>251.4</ele>
        <time>2022-03-27T07:59:58Z</time>
      </trkpt>
      <trkpt lat="43.31888" lon="5.62108">
        <ele>252.2</ele>
        <time>2022-03-27T08:00:07Z</time>
      </trkpt>
      <trkpt lat="43.31891" lon="5.62122">
        <ele>252.6</ele>
        <time>2022-03-27T08:00:16Z</time>
      </trkpt>
      <trkpt lat="43.31894" lon="5.62133">
        <ele>252.9</ele>
        <time>2022-03-27T08:00:24Z</time>
      </trkpt>
      <trkpt lat="43.31897" lon="5.62146">
        <ele>254</ele>
        <time>2022-03-27T08:00:33Z</time>
      </trkpt>
      <trkpt lat="43.319" lon="5.62158">
        <ele>255.1</ele>
        <time>2022-03-27T08:00:41Z</time>
      </trkpt>
      <trkpt lat="43.31904" lon="5.6217">
        <ele>255.5</ele>
        <time>2022-03-27T08:00:51Z</time>
      </trkpt>
      <trkpt lat="43.31908" lon="5.62182">
        <ele>255.2</ele>
        <time>2022-03-27T08:01:01Z</time>
      </trkpt>
      <trkpt lat="43.31909" lon="5.62194">
        <ele>256.4</ele>
        <time>2022-03-27T08:01:11Z</time>
      </trkpt>
      <trkpt lat="43.31912" lon="5.62207">
        <ele>257.1</ele>
        <time>2022-03-27T08:01:20Z</time>
      </trkpt>
      <trkpt lat="43.31912" lon="5.6222">
        <ele>257.1</ele>
        <time>2022-03-27T08:01:29Z</time>
      </trkpt>
      <trkpt lat="43.31912" lon="5.62233">
        <ele>258.1</ele>
        <time>2022-03-27T08:01:39Z</time>
      </trkpt>
      <trkpt lat="43.31913" lon="5.62247">
        <ele>259.4</ele>
        <time>2022-03-27T08:01:49Z</time>
      </trkpt>
      <trkpt lat="43.31914" lon="5.6226">
        <ele>260.6</ele>
        <time>2022-03-27T08:01:59Z</time>
      </trkpt>
      <trkpt lat="43.31915" lon="5.62272">
        <ele>261.3</ele>
        <time>2022-03-27T08:02:08Z</time>
      </trkpt>
      <trkpt lat="43.31919" lon="5.62284">
        <ele>261.9</ele>
        <time>2022-03-27T08:02:17Z</time>
      </trkpt>
      <trkpt lat="43.31924" lon="5.62295">
        <ele>262.3</ele>
        <time>2022-03-27T08:02:26Z</time>
      </trkpt>
      <trkpt lat="43.31932" lon="5.62304">
        <ele>262.8</ele>
        <time>2022-03-27T08:02:35Z</time>
      </trkpt>
      <trkpt lat="43.31937" lon="5.62316">
        <ele>264.1</ele>
        <time>2022-03-27T08:02:45Z</time>
      </trkpt>
      <trkpt lat="43.31943" lon="5.62326">
        <ele>265.3</ele>
        <time>2022-03-27T08:02:54Z</time>
      </trkpt>
      <trkpt lat="43.31948" lon="5.62337">
        <ele>266.2</ele>
        <time>2022-03-27T08:03:04Z</time>
      </trkpt>
      <trkpt lat="43.31953" lon="5.62348">
        <ele>266.6</ele>
        <time>2022-03-27T08:03:14Z</time>
      </trkpt>
      <trkpt lat="43.31953" lon="5.62361">
        <ele>267.3</ele>
        <time>2022-03-27T08:03:25Z</time>
      </trkpt>
      <trkpt lat="43.31948" lon="5.62372">
        <ele>268.8</ele>
        <time>2022-03-27T08:03:36Z</time>
      </trkpt>
      <trkpt lat="43.31943" lon="5.62383">
        <ele>269.4</ele>
        <time>2022-03-27T08:03:46Z</time>
      </trkpt>
      <trkpt lat="43.31939" lon="5.62395">
        <ele>269.8</ele>
        <time>2022-03-27T08:03:56Z</time>
      </trkpt>
      <trkpt lat="43.31932" lon="5.62404">
        <ele>271.3</ele>
        <time>2022-03-27T08:04:07Z</time>
      </trkpt>
      <trkpt lat="43.31924" lon="5.62411">
        <ele>272.9</ele>
        <time>2022-03-27T08:04:18Z</time>
      </trkpt>
      <trkpt lat="43.31918" lon="5.62421">
        <ele>273.3</ele>
        <time>2022-03-27T08:04:27Z</time>
      </trkpt>
      <trkpt lat="43.31913" lon="5.62432">
        <ele>274.4</ele>
        <time>2022-03-27T08:04:36Z</time>
      </trkpt>
      <trkpt lat="43.31907" lon="5.62443">
        <ele>274.8</ele>
        <time>2022-03-27T08:04:45Z</time>
      </trkpt>
      <trkpt lat="43.31903" lon="5.62455">
        <ele>276.2</ele>
        <time>2022-03-27T08:04:56Z</time>
      </trkpt>
      <trkpt lat="43.31898" lon="5.62467">
        <ele>276.2</ele>
        <time>2022-03-27T08:05:06Z</time>
      </trkpt>
      <trkpt lat="43.31893" lon="5.62479">
        <ele>276.6</ele>
        <time>2022-03-27T08:05:16Z</time>
      </trkpt>
      <trkpt lat="43.31889" lon="5.62491">
        <ele>276.8</ele>
        <time>2022-03-27T08:05:26Z</time>
      </trkpt>
      <trkpt lat="43.31884" lon="5.62503">
        <ele>277.5</ele>
        <time>2022-03-27T08:05:35Z</time>
      </trkpt>
      <trkpt lat="43.3188" lon="5.62513">
        <ele>277.4</ele>
        <time>2022-03-27T08:05:44Z</time>
      </trkpt>
      <trkpt lat="43.31875" lon="5.62526">
        <ele>278.6</ele>
        <time>2022-03-27T08:05:54Z</time>
      </trkpt>
      <trkpt lat="43.31871" lon="5.62537">
        <ele>280.3</ele>
        <time>2022-03-27T08:06:04Z</time>
      </trkpt>
      <trkpt lat="43.31863" lon="5.62547">
        <ele>280.7</ele>
        <time>2022-03-27T08:06:14Z</time>
      </trkpt>
      <trkpt lat="43.31858" lon="5.62556">
        <ele>281.8</ele>
        <time>2022-03-27T08:06:23Z</time>
      </trkpt>
      <trkpt lat="43.31851" lon="5.62565">
        <ele>282.4</ele>
        <time>2022-03-27T08:06:33Z</time>
      </trkpt>
      <trkpt lat="43.31842" lon="5.6257">
        <ele>282.4</ele>
        <time>2022-03-27T08:06:43Z</time>
      </trkpt>
      <trkpt lat="43.31837" lon="5.62581">
        <ele>283.4</ele>
        <time>2022-03-27T08:06:53Z</time>
      </trkpt>
      <trkpt lat="43.31831" lon="5.62593">
        <ele>284.4</ele>
        <time>2022-03-27T08:07:04Z</time>
      </trkpt>
      <trkpt lat="43.31828" lon="5.62604">
        <ele>284.6</ele>
        <time>2022-03-27T08:07:17Z</time>
      </trkpt>
      <trkpt lat="43.31828" lon="5.62618">
        <ele>285.7</ele>
        <time>2022-03-27T08:07:32Z</time>
      </trkpt>
      <trkpt lat="43.3183" lon="5.6263">
        <ele>287.8</ele>
        <time>2022-03-27T08:07:40Z</time>
      </trkpt>
      <trkpt lat="43.31834" lon="5.62642">
        <ele>288.6</ele>
        <time>2022-03-27T08:07:50Z</time>
      </trkpt>
      <trkpt lat="43.3184" lon="5.62652">
        <ele>289.3</ele>
        <time>2022-03-27T08:07:58Z</time>
      </trkpt>
      <trkpt lat="43.31847" lon="5.6266">
        <ele>289.5</ele>
        <time>2022-03-27T08:08:09Z</time>
      </trkpt>
      <trkpt lat="43.31855" lon="5.62668">
        <ele>290.9</ele>
        <time>2022-03-27T08:08:20Z</time>
      </trkpt>
      <trkpt lat="43.31861" lon="5.62677">
        <ele>291.8</ele>
        <time>2022-03-27T08:08:31Z</time>
      </trkpt>
      <trkpt lat="43.31871" lon="5.62683">
        <ele>292.9</ele>
        <time>2022-03-27T08:08:41Z</time>
      </trkpt>
      <trkpt lat="43.3188" lon="5.62686">
        <ele>293.4</ele>
        <time>2022-03-27T08:08:49Z</time>
      </trkpt>
      <trkpt lat="43.31889" lon="5.6269">
        <ele>294.1</ele>
        <time>2022-03-27T08:08:59Z</time>
      </trkpt>
      <trkpt lat="43.31898" lon="5.6269">
        <ele>295.8</ele>
        <time>2022-03-27T08:09:12Z</time>
      </trkpt>
      <trkpt lat="43.31906" lon="5.62696">
        <ele>295.5</ele>
        <time>2022-03-27T08:09:36Z</time>
      </trkpt>
      <trkpt lat="43.31913" lon="5.62705">
        <ele>297.4</ele>
        <time>2022-03-27T08:09:48Z</time>
      </trkpt>
      <trkpt lat="43.31913" lon="5.62718">
        <ele>298.1</ele>
        <time>2022-03-27T08:10:03Z</time>
      </trkpt>
      <trkpt lat="43.31913" lon="5.62731">
        <ele>299</ele>
        <time>2022-03-27T08:10:13Z</time>
      </trkpt>
      <trkpt lat="43.31909" lon="5.62743">
        <ele>300.3</ele>
        <time>2022-03-27T08:10:23Z</time>
      </trkpt>
      <trkpt lat="43.31906" lon="5.62756">
        <ele>300.6</ele>
        <time>2022-03-27T08:10:32Z</time>
      </trkpt>
      <trkpt lat="43.31902" lon="5.62768">
        <ele>301.6</ele>
        <time>2022-03-27T08:10:42Z</time>
      </trkpt>
      <trkpt lat="43.31898" lon="5.6278">
        <ele>302</ele>
        <time>2022-03-27T08:10:52Z</time>
      </trkpt>
      <trkpt lat="43.31896" lon="5.62793">
        <ele>303.4</ele>
        <time>2022-03-27T08:11:03Z</time>
      </trkpt>
      <trkpt lat="43.31891" lon="5.62805">
        <ele>303.9</ele>
        <time>2022-03-27T08:11:12Z</time>
      </trkpt>
      <trkpt lat="43.31888" lon="5.62818">
        <ele>304.8</ele>
        <time>2022-03-27T08:11:22Z</time>
      </trkpt>
      <trkpt lat="43.31886" lon="5.62831">
        <ele>304.9</ele>
        <time>2022-03-27T08:11:32Z</time>
      </trkpt>
      <trkpt lat="43.31883" lon="5.62843">
        <ele>306.2</ele>
        <time>2022-03-27T08:11:42Z</time>
      </trkpt>
      <trkpt lat="43.31884" lon="5.62857">
        <ele>307.2</ele>
        <time>2022-03-27T08:11:52Z</time>
      </trkpt>
      <trkpt lat="43.31887" lon="5.62869">
        <ele>307.8</ele>
        <time>2022-03-27T08:12:01Z</time>
      </trkpt>
      <trkpt lat="43.3189" lon="5.62881">
        <ele>308.6</ele>
        <time>2022-03-27T08:12:10Z</time>
      </trkpt>
      <trkpt lat="43.31892" lon="5.62893">
        <ele>309.6</ele>
        <time>2022-03-27T08:12:21Z</time>
      </trkpt>
      <trkpt lat="43.31897" lon="5.62905">
        <ele>310.9</ele>
        <time>2022-03-27T08:12:38Z</time>
      </trkpt>
      <trkpt lat="43.31898" lon="5.62918">
        <ele>312</ele>
        <time>2022-03-27T08:12:49Z</time>
      </trkpt>
      <trkpt lat="43.31901" lon="5.62931">
        <ele>313.8</ele>
        <time>2022-03-27T08:12:59Z</time>
      </trkpt>
      <trkpt lat="43.31901" lon="5.62944">
        <ele>315.1</ele>
        <time>2022-03-27T08:13:10Z</time>
      </trkpt>
      <trkpt lat="43.31898" lon="5.62957">
        <ele>315.8</ele>
        <time>2022-03-27T08:13:20Z</time>
      </trkpt>
      <trkpt lat="43.319" lon="5.62969">
        <ele>315.1</ele>
        <time>2022-03-27T08:13:27Z</time>
      </trkpt>
      <trkpt lat="43.31903" lon="5.62981">
        <ele>316.4</ele>
        <time>2022-03-27T08:13:36Z</time>
      </trkpt>
      <trkpt lat="43.31906" lon="5.62994">
        <ele>317.7</ele>
        <time>2022-03-27T08:13:45Z</time>
      </trkpt>
      <trkpt lat="43.31907" lon="5.63006">
        <ele>318.5</ele>
        <time>2022-03-27T08:14:09Z</time>
      </trkpt>
      <trkpt lat="43.31912" lon="5.63016">
        <ele>319.7</ele>
        <time>2022-03-27T08:14:40Z</time>
      </trkpt>
      <trkpt lat="43.31918" lon="5.63027">
        <ele>321</ele>
        <time>2022-03-27T08:14:51Z</time>
      </trkpt>
      <trkpt lat="43.31926" lon="5.63034">
        <ele>321.1</ele>
        <time>2022-03-27T08:15:00Z</time>
      </trkpt>
      <trkpt lat="43.31934" lon="5.63043">
        <ele>322.2</ele>
        <time>2022-03-27T08:15:25Z</time>
      </trkpt>
      <trkpt lat="43.31941" lon="5.63053">
        <ele>322.9</ele>
        <time>2022-03-27T08:15:34Z</time>
      </trkpt>
      <trkpt lat="43.31946" lon="5.63063">
        <ele>323.9</ele>
        <time>2022-03-27T08:15:45Z</time>
      </trkpt>
      <trkpt lat="43.3195" lon="5.63074">
        <ele>325.8</ele>
        <time>2022-03-27T08:15:55Z</time>
      </trkpt>
      <trkpt lat="43.31955" lon="5.63086">
        <ele>326.4</ele>
        <time>2022-03-27T08:16:04Z</time>
      </trkpt>
      <trkpt lat="43.31948" lon="5.63096">
        <ele>326.6</ele>
        <time>2022-03-27T08:16:15Z</time>
      </trkpt>
      <trkpt lat="43.31943" lon="5.63107">
        <ele>327.6</ele>
        <time>2022-03-27T08:16:32Z</time>
      </trkpt>
      <trkpt lat="43.31938" lon="5.63118">
        <ele>328.7</ele>
        <time>2022-03-27T08:17:27Z</time>
      </trkpt>
      <trkpt lat="43.31929" lon="5.63126">
        <ele>330.1</ele>
        <time>2022-03-27T08:17:36Z</time>
      </trkpt>
      <trkpt lat="43.31923" lon="5.63136">
        <ele>330.6</ele>
        <time>2022-03-27T08:17:45Z</time>
      </trkpt>
      <trkpt lat="43.31923" lon="5.63149">
        <ele>331.1</ele>
        <time>2022-03-27T08:17:53Z</time>
      </trkpt>
      <trkpt lat="43.3192" lon="5.63161">
        <ele>332.3</ele>
        <time>2022-03-27T08:18:00Z</time>
      </trkpt>
      <trkpt lat="43.31921" lon="5.63174">
        <ele>334.3</ele>
        <time>2022-03-27T08:18:08Z</time>
      </trkpt>
      <trkpt lat="43.31925" lon="5.63187">
        <ele>335</ele>
        <time>2022-03-27T08:18:16Z</time>
      </trkpt>
      <trkpt lat="43.31931" lon="5.63197">
        <ele>335.9</ele>
        <time>2022-03-27T08:18:27Z</time>
      </trkpt>
      <trkpt lat="43.31938" lon="5.63206">
        <ele>337.1</ele>
        <time>2022-03-27T08:18:37Z</time>
      </trkpt>
      <trkpt lat="43.31944" lon="5.63216">
        <ele>338.4</ele>
        <time>2022-03-27T08:18:49Z</time>
      </trkpt>
      <trkpt lat="43.31947" lon="5.63228">
        <ele>339.7</ele>
        <time>2022-03-27T08:20:23Z</time>
      </trkpt>
      <trkpt lat="43.31955" lon="5.63224">
        <ele>339.1</ele>
        <time>2022-03-27T08:21:34Z</time>
      </trkpt>
      <trkpt lat="43.31964" lon="5.6323">
        <ele>341</ele>
        <time>2022-03-27T08:23:22Z</time>
      </trkpt>
      <trkpt lat="43.31971" lon="5.63238">
        <ele>341.7</ele>
        <time>2022-03-27T08:23:32Z</time>
      </trkpt>
      <trkpt lat="43.3198" lon="5.63241">
        <ele>342.9</ele>
        <time>2022-03-27T08:23:44Z</time>
      </trkpt>
      <trkpt lat="43.3199" lon="5.63243">
        <ele>343.6</ele>
        <time>2022-03-27T08:23:54Z</time>
      </trkpt>
      <trkpt lat="43.32" lon="5.63244">
        <ele>345.6</ele>
        <time>2022-03-27T08:24:06Z</time>
      </trkpt>
      <trkpt lat="43.3201" lon="5.63243">
        <ele>346.1</ele>
        <time>2022-03-27T08:24:20Z</time>
      </trkpt>
      <trkpt lat="43.32019" lon="5.63241">
        <ele>347</ele>
        <time>2022-03-27T08:24:29Z</time>
      </trkpt>
      <trkpt lat="43.32028" lon="5.63245">
        <ele>347.8</ele>
        <time>2022-03-27T08:24:37Z</time>
      </trkpt>
      <trkpt lat="43.32037" lon="5.63249">
        <ele>349.2</ele>
        <time>2022-03-27T08:24:47Z</time>
      </trkpt>
      <trkpt lat="43.32045" lon="5.63255">
        <ele>349.9</ele>
        <time>2022-03-27T08:25:03Z</time>
      </trkpt>
      <trkpt lat="43.32054" lon="5.63258">
        <ele>350.6</ele>
        <time>2022-03-27T08:25:59Z</time>
      </trkpt>
      <trkpt lat="43.32049" lon="5.6327">
        <ele>351.5</ele>
        <time>2022-03-27T08:26:40Z</time>
      </trkpt>
      <trkpt lat="43.32045" lon="5.63282">
        <ele>352.5</ele>
        <time>2022-03-27T08:26:47Z</time>
      </trkpt>
      <trkpt lat="43.32039" lon="5.63292">
        <ele>353.1</ele>
        <time>2022-03-27T08:26:55Z</time>
      </trkpt>
      <trkpt lat="43.32032" lon="5.63302">
        <ele>354.5</ele>
        <time>2022-03-27T08:27:06Z</time>
      </trkpt>
      <trkpt lat="43.32025" lon="5.63311">
        <ele>354.7</ele>
        <time>2022-03-27T08:27:12Z</time>
      </trkpt>
      <trkpt lat="43.32021" lon="5.63323">
        <ele>355.2</ele>
        <time>2022-03-27T08:27:19Z</time>
      </trkpt>
      <trkpt lat="43.32023" lon="5.63337">
        <ele>356</ele>
        <time>2022-03-27T08:27:26Z</time>
      </trkpt>
      <trkpt lat="43.32028" lon="5.63349">
        <ele>357.2</ele>
        <time>2022-03-27T08:27:35Z</time>
      </trkpt>
      <trkpt lat="43.32034" lon="5.63358">
        <ele>358</ele>
        <time>2022-03-27T08:27:42Z</time>
      </trkpt>
      <trkpt lat="43.32041" lon="5.63368">
        <ele>358.3</ele>
        <time>2022-03-27T08:27:49Z</time>
      </trkpt>
      <trkpt lat="43.32048" lon="5.63376">
        <ele>359</ele>
        <time>2022-03-27T08:27:56Z</time>
      </trkpt>
      <trkpt lat="43.32056" lon="5.63383">
        <ele>360.4</ele>
        <time>2022-03-27T08:28:04Z</time>
      </trkpt>
      <trkpt lat="43.32064" lon="5.6339">
        <ele>361.8</ele>
        <time>2022-03-27T08:28:12Z</time>
      </trkpt>
      <trkpt lat="43.32071" lon="5.63399">
        <ele>362.9</ele>
        <time>2022-03-27T08:28:20Z</time>
      </trkpt>
      <trkpt lat="43.32079" lon="5.63405">
        <ele>363.9</ele>
        <time>2022-03-27T08:28:28Z</time>
      </trkpt>
      <trkpt lat="43.32087" lon="5.63412">
        <ele>365.2</ele>
        <time>2022-03-27T08:28:36Z</time>
      </trkpt>
      <trkpt lat="43.32093" lon="5.63423">
        <ele>366.4</ele>
        <time>2022-03-27T08:28:46Z</time>
      </trkpt>
      <trkpt lat="43.3209" lon="5.63435">
        <ele>367.5</ele>
        <time>2022-03-27T08:28:56Z</time>
      </trkpt>
      <trkpt lat="43.32087" lon="5.63447">
        <ele>368.3</ele>
        <time>2022-03-27T08:29:06Z</time>
      </trkpt>
      <trkpt lat="43.32086" lon="5.6346">
        <ele>370</ele>
        <time>2022-03-27T08:29:17Z</time>
      </trkpt>
      <trkpt lat="43.32094" lon="5.63469">
        <ele>371.4</ele>
        <time>2022-03-27T08:29:26Z</time>
      </trkpt>
      <trkpt lat="43.32102" lon="5.63472">
        <ele>373.3</ele>
        <time>2022-03-27T08:29:34Z</time>
      </trkpt>
      <trkpt lat="43.3211" lon="5.63478">
        <ele>375.4</ele>
        <time>2022-03-27T08:29:43Z</time>
      </trkpt>
      <trkpt lat="43.32119" lon="5.63486">
        <ele>376.9</ele>
        <time>2022-03-27T08:29:52Z</time>
      </trkpt>
      <trkpt lat="43.32127" lon="5.63492">
        <ele>378.8</ele>
        <time>2022-03-27T08:30:01Z</time>
      </trkpt>
      <trkpt lat="43.32134" lon="5.63501">
        <ele>380.8</ele>
        <time>2022-03-27T08:30:10Z</time>
      </trkpt>
      <trkpt lat="43.3214" lon="5.63511">
        <ele>383</ele>
        <time>2022-03-27T08:30:21Z</time>
      </trkpt>
      <trkpt lat="43.32147" lon="5.63521">
        <ele>385.4</ele>
        <time>2022-03-27T08:30:33Z</time>
      </trkpt>
      <trkpt lat="43.32154" lon="5.63529">
        <ele>386.9</ele>
        <time>2022-03-27T08:30:43Z</time>
      </trkpt>
      <trkpt lat="43.3216" lon="5.63538">
        <ele>388.7</ele>
        <time>2022-03-27T08:30:57Z</time>
      </trkpt>
      <trkpt lat="43.32165" lon="5.6355">
        <ele>391.6</ele>
        <time>2022-03-27T08:31:16Z</time>
      </trkpt>
      <trkpt lat="43.32168" lon="5.63562">
        <ele>393.5</ele>
        <time>2022-03-27T08:31:28Z</time>
      </trkpt>
      <trkpt lat="43.32174" lon="5.63571">
        <ele>394.7</ele>
        <time>2022-03-27T08:31:39Z</time>
      </trkpt>
      <trkpt lat="43.32174" lon="5.63584">
        <ele>396.9</ele>
        <time>2022-03-27T08:31:49Z</time>
      </trkpt>
      <trkpt lat="43.32176" lon="5.63597">
        <ele>398.2</ele>
        <time>2022-03-27T08:31:59Z</time>
      </trkpt>
      <trkpt lat="43.32178" lon="5.6361">
        <ele>399.5</ele>
        <time>2022-03-27T08:32:09Z</time>
      </trkpt>
      <trkpt lat="43.32184" lon="5.6362">
        <ele>401.4</ele>
        <time>2022-03-27T08:32:20Z</time>
      </trkpt>
      <trkpt lat="43.32191" lon="5.63629">
        <ele>402.1</ele>
        <time>2022-03-27T08:32:29Z</time>
      </trkpt>
      <trkpt lat="43.32198" lon="5.63638">
        <ele>403.1</ele>
        <time>2022-03-27T08:32:38Z</time>
      </trkpt>
      <trkpt lat="43.32203" lon="5.63649">
        <ele>404.1</ele>
        <time>2022-03-27T08:32:47Z</time>
      </trkpt>
      <trkpt lat="43.32209" lon="5.6366">
        <ele>405.1</ele>
        <time>2022-03-27T08:32:56Z</time>
      </trkpt>
      <trkpt lat="43.32215" lon="5.6367">
        <ele>406.4</ele>
        <time>2022-03-27T08:33:05Z</time>
      </trkpt>
      <trkpt lat="43.32221" lon="5.63681">
        <ele>408.2</ele>
        <time>2022-03-27T08:33:15Z</time>
      </trkpt>
      <trkpt lat="43.32226" lon="5.63693">
        <ele>408.5</ele>
        <time>2022-03-27T08:33:26Z</time>
      </trkpt>
      <trkpt lat="43.32231" lon="5.63704">
        <ele>410.3</ele>
        <time>2022-03-27T08:33:36Z</time>
      </trkpt>
      <trkpt lat="43.32239" lon="5.63712">
        <ele>411.8</ele>
        <time>2022-03-27T08:33:46Z</time>
      </trkpt>
      <trkpt lat="43.32247" lon="5.6372">
        <ele>413.7</ele>
        <time>2022-03-27T08:33:56Z</time>
      </trkpt>
      <trkpt lat="43.32252" lon="5.63731">
        <ele>415.8</ele>
        <time>2022-03-27T08:34:06Z</time>
      </trkpt>
      <trkpt lat="43.32258" lon="5.6374">
        <ele>419.1</ele>
        <time>2022-03-27T08:34:22Z</time>
      </trkpt>
      <trkpt lat="43.32267" lon="5.63742">
        <ele>421.7</ele>
        <time>2022-03-27T08:34:36Z</time>
      </trkpt>
      <trkpt lat="43.3227" lon="5.63754">
        <ele>423.4</ele>
        <time>2022-03-27T08:34:51Z</time>
      </trkpt>
      <trkpt lat="43.32279" lon="5.63759">
        <ele>426.7</ele>
        <time>2022-03-27T08:35:07Z</time>
      </trkpt>
      <trkpt lat="43.32287" lon="5.63752">
        <ele>427.3</ele>
        <time>2022-03-27T08:35:09Z</time>
      </trkpt>
      <trkpt lat="43.32296" lon="5.63747">
        <ele>428</ele>
        <time>2022-03-27T08:35:15Z</time>
      </trkpt>
      <trkpt lat="43.32304" lon="5.63742">
        <ele>429.9</ele>
        <time>2022-03-27T08:35:21Z</time>
      </trkpt>
      <trkpt lat="43.32314" lon="5.63739">
        <ele>430.6</ele>
        <time>2022-03-27T08:35:30Z</time>
      </trkpt>
      <trkpt lat="43.32319" lon="5.63749">
        <ele>431.5</ele>
        <time>2022-03-27T08:35:43Z</time>
      </trkpt>
      <trkpt lat="43.32326" lon="5.63759">
        <ele>433.7</ele>
        <time>2022-03-27T08:35:54Z</time>
      </trkpt>
      <trkpt lat="43.32335" lon="5.63763">
        <ele>435.3</ele>
        <time>2022-03-27T08:36:03Z</time>
      </trkpt>
      <trkpt lat="43.32342" lon="5.6377">
        <ele>436.9</ele>
        <time>2022-03-27T08:36:12Z</time>
      </trkpt>
      <trkpt lat="43.32351" lon="5.63777">
        <ele>438.4</ele>
        <time>2022-03-27T08:36:22Z</time>
      </trkpt>
      <trkpt lat="43.32358" lon="5.63785">
        <ele>439</ele>
        <time>2022-03-27T08:36:31Z</time>
      </trkpt>
      <trkpt lat="43.32365" lon="5.63793">
        <ele>439.3</ele>
        <time>2022-03-27T08:36:40Z</time>
      </trkpt>
      <trkpt lat="43.32375" lon="5.63796">
        <ele>439.5</ele>
        <time>2022-03-27T08:36:49Z</time>
      </trkpt>
      <trkpt lat="43.32384" lon="5.638">
        <ele>439.5</ele>
        <time>2022-03-27T08:37:01Z</time>
      </trkpt>
      <trkpt lat="43.32392" lon="5.63807">
        <ele>439.8</ele>
        <time>2022-03-27T08:37:10Z</time>
      </trkpt>
      <trkpt lat="43.32402" lon="5.63806">
        <ele>441.4</ele>
        <time>2022-03-27T08:37:18Z</time>
      </trkpt>
      <trkpt lat="43.32411" lon="5.63808">
        <ele>442</ele>
        <time>2022-03-27T08:37:26Z</time>
      </trkpt>
      <trkpt lat="43.32421" lon="5.63808">
        <ele>443.3</ele>
        <time>2022-03-27T08:37:34Z</time>
      </trkpt>
      <trkpt lat="43.3243" lon="5.63805">
        <ele>443.8</ele>
        <time>2022-03-27T08:37:43Z</time>
      </trkpt>
      <trkpt lat="43.3244" lon="5.63806">
        <ele>445.3</ele>
        <time>2022-03-27T08:37:55Z</time>
      </trkpt>
      <trkpt lat="43.32448" lon="5.63813">
        <ele>446.7</ele>
        <time>2022-03-27T08:38:06Z</time>
      </trkpt>
      <trkpt lat="43.32455" lon="5.63823">
        <ele>447</ele>
        <time>2022-03-27T08:38:17Z</time>
      </trkpt>
      <trkpt lat="43.32461" lon="5.63832">
        <ele>447.1</ele>
        <time>2022-03-27T08:38:25Z</time>
      </trkpt>
      <trkpt lat="43.32468" lon="5.6384">
        <ele>447.9</ele>
        <time>2022-03-27T08:38:33Z</time>
      </trkpt>
      <trkpt lat="43.32474" lon="5.63851">
        <ele>449</ele>
        <time>2022-03-27T08:38:42Z</time>
      </trkpt>
      <trkpt lat="43.32482" lon="5.63857">
        <ele>449.8</ele>
        <time>2022-03-27T08:39:08Z</time>
      </trkpt>
      <trkpt lat="43.32487" lon="5.63867">
        <ele>450.1</ele>
        <time>2022-03-27T08:39:29Z</time>
      </trkpt>
      <trkpt lat="43.32494" lon="5.63877">
        <ele>451.6</ele>
        <time>2022-03-27T08:39:38Z</time>
      </trkpt>
      <trkpt lat="43.325" lon="5.63887">
        <ele>452.7</ele>
        <time>2022-03-27T08:39:48Z</time>
      </trkpt>
      <trkpt lat="43.32508" lon="5.63896">
        <ele>454.5</ele>
        <time>2022-03-27T08:39:56Z</time>
      </trkpt>
      <trkpt lat="43.32515" lon="5.63905">
        <ele>454.5</ele>
        <time>2022-03-27T08:40:04Z</time>
      </trkpt>
      <trkpt lat="43.32523" lon="5.63911">
        <ele>455.7</ele>
        <time>2022-03-27T08:40:13Z</time>
      </trkpt>
      <trkpt lat="43.3253" lon="5.6392">
        <ele>456.5</ele>
        <time>2022-03-27T08:40:20Z</time>
      </trkpt>
      <trkpt lat="43.32538" lon="5.63927">
        <ele>456.7</ele>
        <time>2022-03-27T08:40:27Z</time>
      </trkpt>
      <trkpt lat="43.32546" lon="5.63932">
        <ele>457.8</ele>
        <time>2022-03-27T08:40:35Z</time>
      </trkpt>
      <trkpt lat="43.32555" lon="5.63935">
        <ele>458.5</ele>
        <time>2022-03-27T08:40:43Z</time>
      </trkpt>
      <trkpt lat="43.32564" lon="5.63939">
        <ele>460.3</ele>
        <time>2022-03-27T08:40:51Z</time>
      </trkpt>
      <trkpt lat="43.32573" lon="5.6394">
        <ele>462.7</ele>
        <time>2022-03-27T08:41:00Z</time>
      </trkpt>
      <trkpt lat="43.32582" lon="5.63935">
        <ele>463.4</ele>
        <time>2022-03-27T08:41:10Z</time>
      </trkpt>
      <trkpt lat="43.32591" lon="5.63932">
        <ele>463.2</ele>
        <time>2022-03-27T08:41:25Z</time>
      </trkpt>
      <trkpt lat="43.32597" lon="5.63941">
        <ele>464</ele>
        <time>2022-03-27T08:41:34Z</time>
      </trkpt>
      <trkpt lat="43.32604" lon="5.63951">
        <ele>465</ele>
        <time>2022-03-27T08:41:44Z</time>
      </trkpt>
      <trkpt lat="43.32611" lon="5.63961">
        <ele>466.9</ele>
        <time>2022-03-27T08:41:53Z</time>
      </trkpt>
      <trkpt lat="43.3262" lon="5.63967">
        <ele>468.4</ele>
        <time>2022-03-27T08:42:02Z</time>
      </trkpt>
      <trkpt lat="43.32627" lon="5.63976">
        <ele>469.9</ele>
        <time>2022-03-27T08:42:12Z</time>
      </trkpt>
      <trkpt lat="43.32635" lon="5.63985">
        <ele>470.6</ele>
        <time>2022-03-27T08:42:21Z</time>
      </trkpt>
      <trkpt lat="43.32641" lon="5.63994">
        <ele>472.7</ele>
        <time>2022-03-27T08:42:29Z</time>
      </trkpt>
      <trkpt lat="43.32648" lon="5.64003">
        <ele>474.1</ele>
        <time>2022-03-27T08:42:38Z</time>
      </trkpt>
      <trkpt lat="43.32655" lon="5.64011">
        <ele>475.9</ele>
        <time>2022-03-27T08:42:47Z</time>
      </trkpt>
      <trkpt lat="43.32662" lon="5.6402">
        <ele>478.5</ele>
        <time>2022-03-27T08:42:57Z</time>
      </trkpt>
      <trkpt lat="43.32669" lon="5.64029">
        <ele>479.8</ele>
        <time>2022-03-27T08:43:07Z</time>
      </trkpt>
      <trkpt lat="43.32676" lon="5.64038">
        <ele>481.1</ele>
        <time>2022-03-27T08:43:52Z</time>
      </trkpt>
      <trkpt lat="43.32678" lon="5.6405">
        <ele>479.9</ele>
        <time>2022-03-27T08:45:47Z</time>
      </trkpt>
      <trkpt lat="43.32687" lon="5.64046">
        <ele>482.1</ele>
        <time>2022-03-27T08:46:16Z</time>
      </trkpt>
      <trkpt lat="43.32696" lon="5.64044">
        <ele>475.6</ele>
        <time>2022-03-27T08:47:23Z</time>
      </trkpt>
      <trkpt lat="43.32704" lon="5.6404">
        <ele>471.7</ele>
        <time>2022-03-27T08:47:50Z</time>
      </trkpt>
      <trkpt lat="43.32714" lon="5.64035">
        <ele>470.8</ele>
        <time>2022-03-27T08:47:59Z</time>
      </trkpt>
      <trkpt lat="43.32721" lon="5.64027">
        <ele>470.6</ele>
        <time>2022-03-27T08:48:11Z</time>
      </trkpt>
      <trkpt lat="43.32725" lon="5.64015">
        <ele>470.2</ele>
        <time>2022-03-27T08:48:21Z</time>
      </trkpt>
      <trkpt lat="43.32734" lon="5.64011">
        <ele>469.7</ele>
        <time>2022-03-27T08:48:32Z</time>
      </trkpt>
      <trkpt lat="43.32743" lon="5.64009">
        <ele>470.1</ele>
        <time>2022-03-27T08:48:44Z</time>
      </trkpt>
      <trkpt lat="43.32751" lon="5.64003">
        <ele>470.7</ele>
        <time>2022-03-27T08:48:53Z</time>
      </trkpt>
      <trkpt lat="43.3276" lon="5.64004">
        <ele>472.5</ele>
        <time>2022-03-27T08:49:03Z</time>
      </trkpt>
      <trkpt lat="43.32768" lon="5.63996">
        <ele>473.7</ele>
        <time>2022-03-27T08:49:18Z</time>
      </trkpt>
      <trkpt lat="43.32778" lon="5.63997">
        <ele>474.2</ele>
        <time>2022-03-27T08:49:30Z</time>
      </trkpt>
      <trkpt lat="43.3279" lon="5.63994">
        <ele>475</ele>
        <time>2022-03-27T08:49:46Z</time>
      </trkpt>
      <trkpt lat="43.32799" lon="5.63998">
        <ele>478.9</ele>
        <time>2022-03-27T08:50:01Z</time>
      </trkpt>
      <trkpt lat="43.32807" lon="5.63992">
        <ele>480.6</ele>
        <time>2022-03-27T08:50:09Z</time>
      </trkpt>
      <trkpt lat="43.32817" lon="5.63992">
        <ele>482.9</ele>
        <time>2022-03-27T08:50:23Z</time>
      </trkpt>
      <trkpt lat="43.32827" lon="5.63991">
        <ele>483.9</ele>
        <time>2022-03-27T08:50:32Z</time>
      </trkpt>
      <trkpt lat="43.32836" lon="5.63989">
        <ele>484.5</ele>
        <time>2022-03-27T08:50:40Z</time>
      </trkpt>
      <trkpt lat="43.32845" lon="5.63989">
        <ele>485.4</ele>
        <time>2022-03-27T08:50:48Z</time>
      </trkpt>
      <trkpt lat="43.32854" lon="5.63988">
        <ele>485.9</ele>
        <time>2022-03-27T08:50:57Z</time>
      </trkpt>
      <trkpt lat="43.32864" lon="5.63986">
        <ele>487.1</ele>
        <time>2022-03-27T08:51:06Z</time>
      </trkpt>
      <trkpt lat="43.32873" lon="5.63988">
        <ele>487.8</ele>
        <time>2022-03-27T08:51:14Z</time>
      </trkpt>
      <trkpt lat="43.32882" lon="5.63991">
        <ele>489</ele>
        <time>2022-03-27T08:51:24Z</time>
      </trkpt>
      <trkpt lat="43.32891" lon="5.63992">
        <ele>489.8</ele>
        <time>2022-03-27T08:51:39Z</time>
      </trkpt>
      <trkpt lat="43.32901" lon="5.63993">
        <ele>490.7</ele>
        <time>2022-03-27T08:51:54Z</time>
      </trkpt>
      <trkpt lat="43.32908" lon="5.64002">
        <ele>491.1</ele>
        <time>2022-03-27T08:52:08Z</time>
      </trkpt>
      <trkpt lat="43.32915" lon="5.64009">
        <ele>492.3</ele>
        <time>2022-03-27T08:52:30Z</time>
      </trkpt>
      <trkpt lat="43.32921" lon="5.63999">
        <ele>492.7</ele>
        <time>2022-03-27T08:52:51Z</time>
      </trkpt>
      <trkpt lat="43.32925" lon="5.63988">
        <ele>495.2</ele>
        <time>2022-03-27T08:53:05Z</time>
      </trkpt>
      <trkpt lat="43.3293" lon="5.63977">
        <ele>497.6</ele>
        <time>2022-03-27T08:53:26Z</time>
      </trkpt>
      <trkpt lat="43.32932" lon="5.63964">
        <ele>499.9</ele>
        <time>2022-03-27T08:53:46Z</time>
      </trkpt>
      <trkpt lat="43.32928" lon="5.63952">
        <ele>498.3</ele>
        <time>2022-03-27T08:54:18Z</time>
      </trkpt>
      <trkpt lat="43.32924" lon="5.63941">
        <ele>495.8</ele>
        <time>2022-03-27T08:54:32Z</time>
      </trkpt>
      <trkpt lat="43.32923" lon="5.63928">
        <ele>497.1</ele>
        <time>2022-03-27T08:54:52Z</time>
      </trkpt>
      <trkpt lat="43.32929" lon="5.63918">
        <ele>498.6</ele>
        <time>2022-03-27T08:55:04Z</time>
      </trkpt>
      <trkpt lat="43.32938" lon="5.63914">
        <ele>499.2</ele>
        <time>2022-03-27T08:55:26Z</time>
      </trkpt>
      <trkpt lat="43.32947" lon="5.6391">
        <ele>501.2</ele>
        <time>2022-03-27T08:55:59Z</time>
      </trkpt>
      <trkpt lat="43.32955" lon="5.63904">
        <ele>503.3</ele>
        <time>2022-03-27T08:56:15Z</time>
      </trkpt>
      <trkpt lat="43.32963" lon="5.63896">
        <ele>507.8</ele>
        <time>2022-03-27T08:56:32Z</time>
      </trkpt>
      <trkpt lat="43.32969" lon="5.63887">
        <ele>513</ele>
        <time>2022-03-27T08:57:05Z</time>
      </trkpt>
      <trkpt lat="43.32974" lon="5.63876">
        <ele>515</ele>
        <time>2022-03-27T08:57:13Z</time>
      </trkpt>
      <trkpt lat="43.32976" lon="5.63863">
        <ele>517.4</ele>
        <time>2022-03-27T08:57:26Z</time>
      </trkpt>
      <trkpt lat="43.32968" lon="5.63856">
        <ele>517.3</ele>
        <time>2022-03-27T08:57:38Z</time>
      </trkpt>
      <trkpt lat="43.32961" lon="5.63847">
        <ele>519.4</ele>
        <time>2022-03-27T08:57:53Z</time>
      </trkpt>
      <trkpt lat="43.32955" lon="5.63838">
        <ele>521.8</ele>
        <time>2022-03-27T08:58:05Z</time>
      </trkpt>
      <trkpt lat="43.32948" lon="5.63828">
        <ele>524.8</ele>
        <time>2022-03-27T08:58:20Z</time>
      </trkpt>
      <trkpt lat="43.32942" lon="5.63818">
        <ele>527.4</ele>
        <time>2022-03-27T08:58:33Z</time>
      </trkpt>
      <trkpt lat="43.32939" lon="5.63806">
        <ele>529.4</ele>
        <time>2022-03-27T08:58:49Z</time>
      </trkpt>
      <trkpt lat="43.32939" lon="5.63792">
        <ele>532</ele>
        <time>2022-03-27T08:59:03Z</time>
      </trkpt>
      <trkpt lat="43.32937" lon="5.63779">
        <ele>532.8</ele>
        <time>2022-03-27T08:59:16Z</time>
      </trkpt>
      <trkpt lat="43.32933" lon="5.63768">
        <ele>533.7</ele>
        <time>2022-03-27T08:59:32Z</time>
      </trkpt>
      <trkpt lat="43.32931" lon="5.63755">
        <ele>536.5</ele>
        <time>2022-03-27T08:59:52Z</time>
      </trkpt>
      <trkpt lat="43.32937" lon="5.63745">
        <ele>538.1</ele>
        <time>2022-03-27T09:00:02Z</time>
      </trkpt>
      <trkpt lat="43.32929" lon="5.63738">
        <ele>543.6</ele>
        <time>2022-03-27T09:00:41Z</time>
      </trkpt>
      <trkpt lat="43.32934" lon="5.63728">
        <ele>548.9</ele>
        <time>2022-03-27T09:01:29Z</time>
      </trkpt>
      <trkpt lat="43.32938" lon="5.63717">
        <ele>551.5</ele>
        <time>2022-03-27T09:01:51Z</time>
      </trkpt>
      <trkpt lat="43.32945" lon="5.63709">
        <ele>551.8</ele>
        <time>2022-03-27T09:02:10Z</time>
      </trkpt>
      <trkpt lat="43.32954" lon="5.63707">
        <ele>560.1</ele>
        <time>2022-03-27T09:02:35Z</time>
      </trkpt>
      <trkpt lat="43.32961" lon="5.63699">
        <ele>562.3</ele>
        <time>2022-03-27T09:02:48Z</time>
      </trkpt>
      <trkpt lat="43.32959" lon="5.63686">
        <ele>564.6</ele>
        <time>2022-03-27T09:03:07Z</time>
      </trkpt>
      <trkpt lat="43.32957" lon="5.63673">
        <ele>564.6</ele>
        <time>2022-03-27T09:03:22Z</time>
      </trkpt>
      <trkpt lat="43.32951" lon="5.63664">
        <ele>564.3</ele>
        <time>2022-03-27T09:03:45Z</time>
      </trkpt>
      <trkpt lat="43.32948" lon="5.63653">
        <ele>572.1</ele>
        <time>2022-03-27T09:04:27Z</time>
      </trkpt>
      <trkpt lat="43.32957" lon="5.63652">
        <ele>573.3</ele>
        <time>2022-03-27T09:05:06Z</time>
      </trkpt>
      <trkpt lat="43.32966" lon="5.63654">
        <ele>574.1</ele>
        <time>2022-03-27T09:05:18Z</time>
      </trkpt>
      <trkpt lat="43.32976" lon="5.63656">
        <ele>576.4</ele>
        <time>2022-03-27T09:05:45Z</time>
      </trkpt>
      <trkpt lat="43.32984" lon="5.63664">
        <ele>578.4</ele>
        <time>2022-03-27T09:06:07Z</time>
      </trkpt>
      <trkpt lat="43.32992" lon="5.6367">
        <ele>580.5</ele>
        <time>2022-03-27T09:06:48Z</time>
      </trkpt>
      <trkpt lat="43.32994" lon="5.63657">
        <ele>582.2</ele>
        <time>2022-03-27T09:07:05Z</time>
      </trkpt>
      <trkpt lat="43.32996" lon="5.63644">
        <ele>584.3</ele>
        <time>2022-03-27T09:07:18Z</time>
      </trkpt>
      <trkpt lat="43.32993" lon="5.63632">
        <ele>587.3</ele>
        <time>2022-03-27T09:07:32Z</time>
      </trkpt>
      <trkpt lat="43.32987" lon="5.63622">
        <ele>591.5</ele>
        <time>2022-03-27T09:07:45Z</time>
      </trkpt>
      <trkpt lat="43.32981" lon="5.63612">
        <ele>591.8</ele>
        <time>2022-03-27T09:07:58Z</time>
      </trkpt>
      <trkpt lat="43.32976" lon="5.63602">
        <ele>595</ele>
        <time>2022-03-27T09:08:11Z</time>
      </trkpt>
      <trkpt lat="43.32971" lon="5.63591">
        <ele>597.4</ele>
        <time>2022-03-27T09:08:24Z</time>
      </trkpt>
      <trkpt lat="43.32965" lon="5.63581">
        <ele>598.1</ele>
        <time>2022-03-27T09:08:37Z</time>
      </trkpt>
      <trkpt lat="43.32957" lon="5.63574">
        <ele>599.1</ele>
        <time>2022-03-27T09:08:48Z</time>
      </trkpt>
      <trkpt lat="43.32967" lon="5.63573">
        <ele>608</ele>
        <time>2022-03-27T09:10:08Z</time>
      </trkpt>
      <trkpt lat="43.32976" lon="5.63574">
        <ele>607</ele>
        <time>2022-03-27T09:10:26Z</time>
      </trkpt>
      <trkpt lat="43.32986" lon="5.63575">
        <ele>610.6</ele>
        <time>2022-03-27T09:10:44Z</time>
      </trkpt>
      <trkpt lat="43.32995" lon="5.63577">
        <ele>612.7</ele>
        <time>2022-03-27T09:10:57Z</time>
      </trkpt>
      <trkpt lat="43.33004" lon="5.63579">
        <ele>613</ele>
        <time>2022-03-27T09:11:08Z</time>
      </trkpt>
      <trkpt lat="43.33011" lon="5.63588">
        <ele>612.1</ele>
        <time>2022-03-27T09:11:18Z</time>
      </trkpt>
      <trkpt lat="43.33019" lon="5.63595">
        <ele>613</ele>
        <time>2022-03-27T09:11:31Z</time>
      </trkpt>
      <trkpt lat="43.33028" lon="5.63601">
        <ele>615.6</ele>
        <time>2022-03-27T09:11:45Z</time>
      </trkpt>
      <trkpt lat="43.33036" lon="5.63607">
        <ele>619.8</ele>
        <time>2022-03-27T09:11:59Z</time>
      </trkpt>
      <trkpt lat="43.3304" lon="5.63595">
        <ele>625.1</ele>
        <time>2022-03-27T09:12:42Z</time>
      </trkpt>
      <trkpt lat="43.33039" lon="5.63583">
        <ele>627.7</ele>
        <time>2022-03-27T09:13:15Z</time>
      </trkpt>
      <trkpt lat="43.33037" lon="5.6357">
        <ele>630</ele>
        <time>2022-03-27T09:13:29Z</time>
      </trkpt>
      <trkpt lat="43.33033" lon="5.63559">
        <ele>631.2</ele>
        <time>2022-03-27T09:13:39Z</time>
      </trkpt>
      <trkpt lat="43.33028" lon="5.63547">
        <ele>632</ele>
        <time>2022-03-27T09:13:48Z</time>
      </trkpt>
      <trkpt lat="43.33022" lon="5.63538">
        <ele>634.4</ele>
        <time>2022-03-27T09:13:58Z</time>
      </trkpt>
      <trkpt lat="43.33016" lon="5.63528">
        <ele>634.2</ele>
        <time>2022-03-27T09:14:15Z</time>
      </trkpt>
      <trkpt lat="43.3301" lon="5.63518">
        <ele>639.8</ele>
        <time>2022-03-27T09:14:35Z</time>
      </trkpt>
      <trkpt lat="43.33015" lon="5.63506">
        <ele>644.8</ele>
        <time>2022-03-27T09:15:05Z</time>
      </trkpt>
      <trkpt lat="43.33019" lon="5.63494">
        <ele>649.6</ele>
        <time>2022-03-27T09:15:27Z</time>
      </trkpt>
      <trkpt lat="43.33023" lon="5.63483">
        <ele>651.2</ele>
        <time>2022-03-27T09:16:02Z</time>
      </trkpt>
      <trkpt lat="43.33021" lon="5.63471">
        <ele>653.1</ele>
        <time>2022-03-27T09:19:11Z</time>
      </trkpt>
      <trkpt lat="43.33013" lon="5.63463">
        <ele>653.4</ele>
        <time>2022-03-27T09:19:29Z</time>
      </trkpt>
      <trkpt lat="43.33004" lon="5.63458">
        <ele>651.6</ele>
        <time>2022-03-27T09:19:41Z</time>
      </trkpt>
      <trkpt lat="43.32996" lon="5.63453">
        <ele>652.3</ele>
        <time>2022-03-27T09:19:59Z</time>
      </trkpt>
      <trkpt lat="43.32988" lon="5.63447">
        <ele>651.6</ele>
        <time>2022-03-27T09:20:13Z</time>
      </trkpt>
      <trkpt lat="43.32982" lon="5.63438">
        <ele>650.9</ele>
        <time>2022-03-27T09:20:22Z</time>
      </trkpt>
      <trkpt lat="43.32976" lon="5.63428">
        <ele>652.6</ele>
        <time>2022-03-27T09:20:36Z</time>
      </trkpt>
      <trkpt lat="43.32971" lon="5.63418">
        <ele>650.9</ele>
        <time>2022-03-27T09:20:55Z</time>
      </trkpt>
      <trkpt lat="43.32965" lon="5.63408">
        <ele>653.3</ele>
        <time>2022-03-27T09:21:07Z</time>
      </trkpt>
      <trkpt lat="43.32957" lon="5.63401">
        <ele>652.2</ele>
        <time>2022-03-27T09:21:22Z</time>
      </trkpt>
      <trkpt lat="43.3295" lon="5.63393">
        <ele>651.4</ele>
        <time>2022-03-27T09:21:36Z</time>
      </trkpt>
      <trkpt lat="43.32943" lon="5.63385">
        <ele>650.7</ele>
        <time>2022-03-27T09:21:51Z</time>
      </trkpt>
      <trkpt lat="43.32946" lon="5.63372">
        <ele>650.1</ele>
        <time>2022-03-27T09:22:24Z</time>
      </trkpt>
      <trkpt lat="43.32949" lon="5.63361">
        <ele>650</ele>
        <time>2022-03-27T09:22:35Z</time>
      </trkpt>
      <trkpt lat="43.32951" lon="5.63348">
        <ele>649.8</ele>
        <time>2022-03-27T09:22:47Z</time>
      </trkpt>
      <trkpt lat="43.32956" lon="5.63337">
        <ele>649.4</ele>
        <time>2022-03-27T09:23:26Z</time>
      </trkpt>
      <trkpt lat="43.32958" lon="5.63325">
        <ele>649.5</ele>
        <time>2022-03-27T09:23:54Z</time>
      </trkpt>
      <trkpt lat="43.32965" lon="5.63315">
        <ele>647.8</ele>
        <time>2022-03-27T09:24:09Z</time>
      </trkpt>
      <trkpt lat="43.32963" lon="5.63302">
        <ele>649.6</ele>
        <time>2022-03-27T09:24:24Z</time>
      </trkpt>
      <trkpt lat="43.32967" lon="5.63291">
        <ele>649.9</ele>
        <time>2022-03-27T09:24:36Z</time>
      </trkpt>
      <trkpt lat="43.32972" lon="5.6328">
        <ele>651.5</ele>
        <time>2022-03-27T09:24:50Z</time>
      </trkpt>
      <trkpt lat="43.32976" lon="5.63268">
        <ele>650.2</ele>
        <time>2022-03-27T09:25:01Z</time>
      </trkpt>
      <trkpt lat="43.32983" lon="5.6326">
        <ele>650.5</ele>
        <time>2022-03-27T09:25:29Z</time>
      </trkpt>
      <trkpt lat="43.32981" lon="5.63247">
        <ele>648.5</ele>
        <time>2022-03-27T09:26:41Z</time>
      </trkpt>
      <trkpt lat="43.32979" lon="5.63235">
        <ele>645.7</ele>
        <time>2022-03-27T09:26:55Z</time>
      </trkpt>
      <trkpt lat="43.32979" lon="5.63222">
        <ele>644.7</ele>
        <time>2022-03-27T09:27:07Z</time>
      </trkpt>
      <trkpt lat="43.32981" lon="5.63209">
        <ele>643.5</ele>
        <time>2022-03-27T09:27:18Z</time>
      </trkpt>
      <trkpt lat="43.32984" lon="5.63196">
        <ele>644.2</ele>
        <time>2022-03-27T09:27:31Z</time>
      </trkpt>
      <trkpt lat="43.32989" lon="5.63186">
        <ele>646.3</ele>
        <time>2022-03-27T09:28:39Z</time>
      </trkpt>
      <trkpt lat="43.32984" lon="5.63196">
        <ele>645</ele>
        <time>2022-03-27T09:31:22Z</time>
      </trkpt>
      <trkpt lat="43.32981" lon="5.63208">
        <ele>642.4</ele>
        <time>2022-03-27T09:31:40Z</time>
      </trkpt>
      <trkpt lat="43.32979" lon="5.63221">
        <ele>642.7</ele>
        <time>2022-03-27T09:31:56Z</time>
      </trkpt>
      <trkpt lat="43.3298" lon="5.63234">
        <ele>644.9</ele>
        <time>2022-03-27T09:32:37Z</time>
      </trkpt>
      <trkpt lat="43.3298" lon="5.63246">
        <ele>652.6</ele>
        <time>2022-03-27T09:32:56Z</time>
      </trkpt>
      <trkpt lat="43.32977" lon="5.63259">
        <ele>651.5</ele>
        <time>2022-03-27T09:33:13Z</time>
      </trkpt>
      <trkpt lat="43.32977" lon="5.63272">
        <ele>651.7</ele>
        <time>2022-03-27T09:33:41Z</time>
      </trkpt>
      <trkpt lat="43.32972" lon="5.63283">
        <ele>655.5</ele>
        <time>2022-03-27T09:34:02Z</time>
      </trkpt>
      <trkpt lat="43.32965" lon="5.63291">
        <ele>650</ele>
        <time>2022-03-27T09:34:14Z</time>
      </trkpt>
      <trkpt lat="43.32965" lon="5.63303">
        <ele>647.6</ele>
        <time>2022-03-27T09:34:27Z</time>
      </trkpt>
      <trkpt lat="43.3296" lon="5.63315">
        <ele>649.1</ele>
        <time>2022-03-27T09:34:45Z</time>
      </trkpt>
      <trkpt lat="43.32957" lon="5.63328">
        <ele>650</ele>
        <time>2022-03-27T09:34:56Z</time>
      </trkpt>
      <trkpt lat="43.32954" lon="5.6334">
        <ele>651.3</ele>
        <time>2022-03-27T09:35:07Z</time>
      </trkpt>
      <trkpt lat="43.32949" lon="5.63351">
        <ele>650.9</ele>
        <time>2022-03-27T09:35:18Z</time>
      </trkpt>
      <trkpt lat="43.32946" lon="5.63364">
        <ele>650.5</ele>
        <time>2022-03-27T09:35:32Z</time>
      </trkpt>
      <trkpt lat="43.32941" lon="5.63375">
        <ele>649.6</ele>
        <time>2022-03-27T09:35:45Z</time>
      </trkpt>
      <trkpt lat="43.32947" lon="5.63386">
        <ele>652.6</ele>
        <time>2022-03-27T09:36:21Z</time>
      </trkpt>
      <trkpt lat="43.32954" lon="5.63394">
        <ele>652.8</ele>
        <time>2022-03-27T09:36:34Z</time>
      </trkpt>
      <trkpt lat="43.32962" lon="5.63401">
        <ele>651.6</ele>
        <time>2022-03-27T09:36:46Z</time>
      </trkpt>
      <trkpt lat="43.32967" lon="5.6341">
        <ele>653.1</ele>
        <time>2022-03-27T09:36:58Z</time>
      </trkpt>
      <trkpt lat="43.32973" lon="5.6342">
        <ele>652.2</ele>
        <time>2022-03-27T09:37:09Z</time>
      </trkpt>
      <trkpt lat="43.32978" lon="5.6343">
        <ele>651.4</ele>
        <time>2022-03-27T09:37:20Z</time>
      </trkpt>
      <trkpt lat="43.32984" lon="5.63439">
        <ele>650.6</ele>
        <time>2022-03-27T09:37:30Z</time>
      </trkpt>
      <trkpt lat="43.32991" lon="5.63448">
        <ele>651.1</ele>
        <time>2022-03-27T09:37:43Z</time>
      </trkpt>
      <trkpt lat="43.33" lon="5.63455">
        <ele>650.4</ele>
        <time>2022-03-27T09:37:57Z</time>
      </trkpt>
      <trkpt lat="43.33008" lon="5.63461">
        <ele>650.5</ele>
        <time>2022-03-27T09:38:10Z</time>
      </trkpt>
      <trkpt lat="43.33015" lon="5.63468">
        <ele>651.1</ele>
        <time>2022-03-27T09:38:24Z</time>
      </trkpt>
      <trkpt lat="43.3302" lon="5.63479">
        <ele>651.9</ele>
        <time>2022-03-27T09:40:02Z</time>
      </trkpt>
      <trkpt lat="43.33028" lon="5.63485">
        <ele>648.2</ele>
        <time>2022-03-27T09:40:24Z</time>
      </trkpt>
      <trkpt lat="43.33036" lon="5.63494">
        <ele>646.5</ele>
        <time>2022-03-27T09:40:50Z</time>
      </trkpt>
      <trkpt lat="43.33043" lon="5.63502">
        <ele>645.6</ele>
        <time>2022-03-27T09:41:04Z</time>
      </trkpt>
      <trkpt lat="43.33051" lon="5.63509">
        <ele>644.6</ele>
        <time>2022-03-27T09:41:21Z</time>
      </trkpt>
      <trkpt lat="43.33052" lon="5.63522">
        <ele>645.4</ele>
        <time>2022-03-27T09:41:46Z</time>
      </trkpt>
      <trkpt lat="43.33056" lon="5.63534">
        <ele>646.9</ele>
        <time>2022-03-27T09:42:01Z</time>
      </trkpt>
      <trkpt lat="43.33062" lon="5.63544">
        <ele>649.4</ele>
        <time>2022-03-27T09:42:20Z</time>
      </trkpt>
      <trkpt lat="43.33066" lon="5.63554">
        <ele>650.7</ele>
        <time>2022-03-27T09:42:40Z</time>
      </trkpt>
      <trkpt lat="43.33073" lon="5.63563">
        <ele>652.5</ele>
        <time>2022-03-27T09:42:55Z</time>
      </trkpt>
      <trkpt lat="43.3308" lon="5.63572">
        <ele>652.9</ele>
        <time>2022-03-27T09:43:17Z</time>
      </trkpt>
      <trkpt lat="43.33087" lon="5.63581">
        <ele>652.7</ele>
        <time>2022-03-27T09:43:33Z</time>
      </trkpt>
      <trkpt lat="43.33093" lon="5.63592">
        <ele>655.9</ele>
        <time>2022-03-27T09:44:08Z</time>
      </trkpt>
      <trkpt lat="43.331" lon="5.636">
        <ele>655.2</ele>
        <time>2022-03-27T09:44:28Z</time>
      </trkpt>
      <trkpt lat="43.33109" lon="5.63601">
        <ele>659.1</ele>
        <time>2022-03-27T09:44:45Z</time>
      </trkpt>
      <trkpt lat="43.33118" lon="5.63601">
        <ele>659</ele>
        <time>2022-03-27T09:45:04Z</time>
      </trkpt>
      <trkpt lat="43.33125" lon="5.63609">
        <ele>658.2</ele>
        <time>2022-03-27T09:45:49Z</time>
      </trkpt>
      <trkpt lat="43.33133" lon="5.63603">
        <ele>656</ele>
        <time>2022-03-27T09:51:16Z</time>
      </trkpt>
      <trkpt lat="43.3313" lon="5.63615">
        <ele>655.2</ele>
        <time>2022-03-27T10:08:30Z</time>
      </trkpt>
      <trkpt lat="43.33135" lon="5.63604">
        <ele>653.5</ele>
        <time>2022-03-27T10:23:40Z</time>
      </trkpt>
      <trkpt lat="43.33129" lon="5.63614">
        <ele>654.5</ele>
        <time>2022-03-27T10:26:48Z</time>
      </trkpt>
      <trkpt lat="43.33139" lon="5.63616">
        <ele>654.5</ele>
        <time>2022-03-27T10:28:29Z</time>
      </trkpt>
      <trkpt lat="43.33149" lon="5.63619">
        <ele>655.6</ele>
        <time>2022-03-27T10:28:39Z</time>
      </trkpt>
      <trkpt lat="43.33157" lon="5.63624">
        <ele>654.4</ele>
        <time>2022-03-27T10:28:47Z</time>
      </trkpt>
      <trkpt lat="43.33167" lon="5.63629">
        <ele>654.5</ele>
        <time>2022-03-27T10:28:56Z</time>
      </trkpt>
      <trkpt lat="43.33175" lon="5.63635">
        <ele>655.3</ele>
        <time>2022-03-27T10:29:05Z</time>
      </trkpt>
      <trkpt lat="43.33183" lon="5.63642">
        <ele>657.3</ele>
        <time>2022-03-27T10:29:19Z</time>
      </trkpt>
      <trkpt lat="43.33191" lon="5.63649">
        <ele>658.9</ele>
        <time>2022-03-27T10:29:29Z</time>
      </trkpt>
      <trkpt lat="43.33201" lon="5.63652">
        <ele>660.5</ele>
        <time>2022-03-27T10:29:41Z</time>
      </trkpt>
      <trkpt lat="43.3321" lon="5.63655">
        <ele>662.9</ele>
        <time>2022-03-27T10:29:52Z</time>
      </trkpt>
      <trkpt lat="43.33219" lon="5.63657">
        <ele>664.1</ele>
        <time>2022-03-27T10:30:03Z</time>
      </trkpt>
      <trkpt lat="43.33228" lon="5.6366">
        <ele>664.6</ele>
        <time>2022-03-27T10:30:14Z</time>
      </trkpt>
      <trkpt lat="43.33238" lon="5.63661">
        <ele>667</ele>
        <time>2022-03-27T10:30:27Z</time>
      </trkpt>
      <trkpt lat="43.33246" lon="5.63666">
        <ele>665.5</ele>
        <time>2022-03-27T10:30:36Z</time>
      </trkpt>
      <trkpt lat="43.33256" lon="5.63669">
        <ele>666.8</ele>
        <time>2022-03-27T10:30:47Z</time>
      </trkpt>
      <trkpt lat="43.33264" lon="5.63674">
        <ele>669.1</ele>
        <time>2022-03-27T10:30:58Z</time>
      </trkpt>
      <trkpt lat="43.33271" lon="5.63682">
        <ele>670.1</ele>
        <time>2022-03-27T10:31:12Z</time>
      </trkpt>
      <trkpt lat="43.33279" lon="5.63689">
        <ele>674.2</ele>
        <time>2022-03-27T10:31:32Z</time>
      </trkpt>
      <trkpt lat="43.33287" lon="5.63695">
        <ele>675.5</ele>
        <time>2022-03-27T10:31:50Z</time>
      </trkpt>
      <trkpt lat="43.33296" lon="5.63693">
        <ele>677.2</ele>
        <time>2022-03-27T10:32:05Z</time>
      </trkpt>
      <trkpt lat="43.33305" lon="5.63696">
        <ele>680.5</ele>
        <time>2022-03-27T10:32:23Z</time>
      </trkpt>
      <trkpt lat="43.33312" lon="5.63705">
        <ele>681.2</ele>
        <time>2022-03-27T10:32:42Z</time>
      </trkpt>
      <trkpt lat="43.33321" lon="5.63709">
        <ele>681.9</ele>
        <time>2022-03-27T10:33:01Z</time>
      </trkpt>
      <trkpt lat="43.33329" lon="5.63716">
        <ele>683.3</ele>
        <time>2022-03-27T10:33:17Z</time>
      </trkpt>
      <trkpt lat="43.33337" lon="5.63722">
        <ele>685</ele>
        <time>2022-03-27T10:33:34Z</time>
      </trkpt>
      <trkpt lat="43.33344" lon="5.6373">
        <ele>688</ele>
        <time>2022-03-27T10:33:55Z</time>
      </trkpt>
      <trkpt lat="43.33353" lon="5.6373">
        <ele>690.9</ele>
        <time>2022-03-27T10:34:24Z</time>
      </trkpt>
      <trkpt lat="43.33362" lon="5.63728">
        <ele>695.1</ele>
        <time>2022-03-27T10:34:47Z</time>
      </trkpt>
      <trkpt lat="43.33367" lon="5.63739">
        <ele>698.2</ele>
        <time>2022-03-27T10:35:14Z</time>
      </trkpt>
      <trkpt lat="43.33374" lon="5.63747">
        <ele>698.7</ele>
        <time>2022-03-27T10:35:35Z</time>
      </trkpt>
      <trkpt lat="43.3338" lon="5.63756">
        <ele>701.1</ele>
        <time>2022-03-27T10:35:52Z</time>
      </trkpt>
      <trkpt lat="43.33383" lon="5.63768">
        <ele>702.1</ele>
        <time>2022-03-27T10:36:05Z</time>
      </trkpt>
      <trkpt lat="43.33389" lon="5.63777">
        <ele>704.5</ele>
        <time>2022-03-27T10:36:23Z</time>
      </trkpt>
      <trkpt lat="43.33394" lon="5.63788">
        <ele>706.6</ele>
        <time>2022-03-27T10:36:38Z</time>
      </trkpt>
      <trkpt lat="43.33396" lon="5.638">
        <ele>707.6</ele>
        <time>2022-03-27T10:36:59Z</time>
      </trkpt>
      <trkpt lat="43.33401" lon="5.6381">
        <ele>708.6</ele>
        <time>2022-03-27T10:38:00Z</time>
      </trkpt>
      <trkpt lat="43.33399" lon="5.63822">
        <ele>709.6</ele>
        <time>2022-03-27T10:38:37Z</time>
      </trkpt>
      <trkpt lat="43.33399" lon="5.63835">
        <ele>709.5</ele>
        <time>2022-03-27T10:38:53Z</time>
      </trkpt>
      <trkpt lat="43.33402" lon="5.63847">
        <ele>710.3</ele>
        <time>2022-03-27T10:39:02Z</time>
      </trkpt>
      <trkpt lat="43.33406" lon="5.6386">
        <ele>710.9</ele>
        <time>2022-03-27T10:39:11Z</time>
      </trkpt>
      <trkpt lat="43.33412" lon="5.6387">
        <ele>712</ele>
        <time>2022-03-27T10:39:21Z</time>
      </trkpt>
      <trkpt lat="43.33418" lon="5.63878">
        <ele>711.6</ele>
        <time>2022-03-27T10:39:30Z</time>
      </trkpt>
      <trkpt lat="43.33426" lon="5.63887">
        <ele>711.3</ele>
        <time>2022-03-27T10:39:40Z</time>
      </trkpt>
      <trkpt lat="43.33432" lon="5.63896">
        <ele>711.3</ele>
        <time>2022-03-27T10:39:50Z</time>
      </trkpt>
      <trkpt lat="43.33436" lon="5.63908">
        <ele>711.4</ele>
        <time>2022-03-27T10:39:59Z</time>
      </trkpt>
      <trkpt lat="43.33439" lon="5.63921">
        <ele>710.8</ele>
        <time>2022-03-27T10:40:10Z</time>
      </trkpt>
      <trkpt lat="43.3344" lon="5.63934">
        <ele>710</ele>
        <time>2022-03-27T10:40:20Z</time>
      </trkpt>
      <trkpt lat="43.33442" lon="5.63948">
        <ele>708.7</ele>
        <time>2022-03-27T10:40:30Z</time>
      </trkpt>
      <trkpt lat="43.33443" lon="5.63961">
        <ele>708.2</ele>
        <time>2022-03-27T10:40:40Z</time>
      </trkpt>
      <trkpt lat="43.33444" lon="5.63974">
        <ele>707.4</ele>
        <time>2022-03-27T10:40:50Z</time>
      </trkpt>
      <trkpt lat="43.33446" lon="5.63987">
        <ele>705.7</ele>
        <time>2022-03-27T10:41:00Z</time>
      </trkpt>
      <trkpt lat="43.3345" lon="5.63999">
        <ele>704.3</ele>
        <time>2022-03-27T10:41:10Z</time>
      </trkpt>
      <trkpt lat="43.33458" lon="5.64005">
        <ele>701.8</ele>
        <time>2022-03-27T10:41:21Z</time>
      </trkpt>
      <trkpt lat="43.33467" lon="5.64002">
        <ele>700.2</ele>
        <time>2022-03-27T10:41:32Z</time>
      </trkpt>
      <trkpt lat="43.33475" lon="5.63995">
        <ele>698.5</ele>
        <time>2022-03-27T10:41:43Z</time>
      </trkpt>
      <trkpt lat="43.33483" lon="5.63988">
        <ele>697</ele>
        <time>2022-03-27T10:41:53Z</time>
      </trkpt>
      <trkpt lat="43.33491" lon="5.6398">
        <ele>696.3</ele>
        <time>2022-03-27T10:42:03Z</time>
      </trkpt>
      <trkpt lat="43.33499" lon="5.63973">
        <ele>695.9</ele>
        <time>2022-03-27T10:42:13Z</time>
      </trkpt>
      <trkpt lat="43.33506" lon="5.63981">
        <ele>694.9</ele>
        <time>2022-03-27T10:42:25Z</time>
      </trkpt>
      <trkpt lat="43.33502" lon="5.63992">
        <ele>692.2</ele>
        <time>2022-03-27T10:42:36Z</time>
      </trkpt>
      <trkpt lat="43.33498" lon="5.64004">
        <ele>689.3</ele>
        <time>2022-03-27T10:42:46Z</time>
      </trkpt>
      <trkpt lat="43.33496" lon="5.64017">
        <ele>687.6</ele>
        <time>2022-03-27T10:42:56Z</time>
      </trkpt>
      <trkpt lat="43.33496" lon="5.6403">
        <ele>685.6</ele>
        <time>2022-03-27T10:43:06Z</time>
      </trkpt>
      <trkpt lat="43.33496" lon="5.64042">
        <ele>684.6</ele>
        <time>2022-03-27T10:43:15Z</time>
      </trkpt>
      <trkpt lat="43.33497" lon="5.64055">
        <ele>683.2</ele>
        <time>2022-03-27T10:43:24Z</time>
      </trkpt>
      <trkpt lat="43.33498" lon="5.64068">
        <ele>682</ele>
        <time>2022-03-27T10:43:34Z</time>
      </trkpt>
      <trkpt lat="43.335" lon="5.64082">
        <ele>680.2</ele>
        <time>2022-03-27T10:43:43Z</time>
      </trkpt>
      <trkpt lat="43.33502" lon="5.64094">
        <ele>677.9</ele>
        <time>2022-03-27T10:43:52Z</time>
      </trkpt>
      <trkpt lat="43.33504" lon="5.64107">
        <ele>676.2</ele>
        <time>2022-03-27T10:44:01Z</time>
      </trkpt>
      <trkpt lat="43.33506" lon="5.6412">
        <ele>673.9</ele>
        <time>2022-03-27T10:44:11Z</time>
      </trkpt>
      <trkpt lat="43.33508" lon="5.64132">
        <ele>672.8</ele>
        <time>2022-03-27T10:44:20Z</time>
      </trkpt>
      <trkpt lat="43.33508" lon="5.64146">
        <ele>672.4</ele>
        <time>2022-03-27T10:44:30Z</time>
      </trkpt>
      <trkpt lat="43.33503" lon="5.64157">
        <ele>670.9</ele>
        <time>2022-03-27T10:44:40Z</time>
      </trkpt>
      <trkpt lat="43.33495" lon="5.64166">
        <ele>669.1</ele>
        <time>2022-03-27T10:44:51Z</time>
      </trkpt>
      <trkpt lat="43.33488" lon="5.64174">
        <ele>667.1</ele>
        <time>2022-03-27T10:45:01Z</time>
      </trkpt>
      <trkpt lat="43.33481" lon="5.64182">
        <ele>665.9</ele>
        <time>2022-03-27T10:45:11Z</time>
      </trkpt>
      <trkpt lat="43.33473" lon="5.64189">
        <ele>664.1</ele>
        <time>2022-03-27T10:45:22Z</time>
      </trkpt>
      <trkpt lat="43.33465" lon="5.64197">
        <ele>661.3</ele>
        <time>2022-03-27T10:45:33Z</time>
      </trkpt>
      <trkpt lat="43.33456" lon="5.64202">
        <ele>659.3</ele>
        <time>2022-03-27T10:45:44Z</time>
      </trkpt>
      <trkpt lat="43.33447" lon="5.64207">
        <ele>657.3</ele>
        <time>2022-03-27T10:45:54Z</time>
      </trkpt>
      <trkpt lat="43.33438" lon="5.64211">
        <ele>655.3</ele>
        <time>2022-03-27T10:46:05Z</time>
      </trkpt>
      <trkpt lat="43.33429" lon="5.64214">
        <ele>653.8</ele>
        <time>2022-03-27T10:46:15Z</time>
      </trkpt>
      <trkpt lat="43.33419" lon="5.64217">
        <ele>651.6</ele>
        <time>2022-03-27T10:46:25Z</time>
      </trkpt>
      <trkpt lat="43.3341" lon="5.64218">
        <ele>649.3</ele>
        <time>2022-03-27T10:46:35Z</time>
      </trkpt>
      <trkpt lat="43.334" lon="5.64218">
        <ele>648.4</ele>
        <time>2022-03-27T10:46:45Z</time>
      </trkpt>
      <trkpt lat="43.33391" lon="5.6422">
        <ele>647.7</ele>
        <time>2022-03-27T10:46:55Z</time>
      </trkpt>
      <trkpt lat="43.33396" lon="5.64231">
        <ele>646.1</ele>
        <time>2022-03-27T10:47:08Z</time>
      </trkpt>
      <trkpt lat="43.33403" lon="5.64239">
        <ele>644.2</ele>
        <time>2022-03-27T10:47:19Z</time>
      </trkpt>
      <trkpt lat="43.33411" lon="5.64247">
        <ele>642.4</ele>
        <time>2022-03-27T10:47:29Z</time>
      </trkpt>
      <trkpt lat="43.33418" lon="5.64257">
        <ele>639.9</ele>
        <time>2022-03-27T10:47:39Z</time>
      </trkpt>
      <trkpt lat="43.33425" lon="5.64266">
        <ele>638.1</ele>
        <time>2022-03-27T10:48:10Z</time>
      </trkpt>
      <trkpt lat="43.33433" lon="5.64273">
        <ele>637.5</ele>
        <time>2022-03-27T10:48:19Z</time>
      </trkpt>
      <trkpt lat="43.33441" lon="5.6428">
        <ele>636.8</ele>
        <time>2022-03-27T10:48:27Z</time>
      </trkpt>
      <trkpt lat="43.33448" lon="5.64289">
        <ele>636</ele>
        <time>2022-03-27T10:48:35Z</time>
      </trkpt>
      <trkpt lat="43.33456" lon="5.64297">
        <ele>634.7</ele>
        <time>2022-03-27T10:48:43Z</time>
      </trkpt>
      <trkpt lat="43.33465" lon="5.64302">
        <ele>633.8</ele>
        <time>2022-03-27T10:48:52Z</time>
      </trkpt>
      <trkpt lat="43.33474" lon="5.64305">
        <ele>632.9</ele>
        <time>2022-03-27T10:49:01Z</time>
      </trkpt>
      <trkpt lat="43.33484" lon="5.64306">
        <ele>631.2</ele>
        <time>2022-03-27T10:49:10Z</time>
      </trkpt>
      <trkpt lat="43.33492" lon="5.64312">
        <ele>629.6</ele>
        <time>2022-03-27T10:49:18Z</time>
      </trkpt>
      <trkpt lat="43.33495" lon="5.64323">
        <ele>628.8</ele>
        <time>2022-03-27T10:49:26Z</time>
      </trkpt>
      <trkpt lat="43.33492" lon="5.64336">
        <ele>627</ele>
        <time>2022-03-27T10:49:36Z</time>
      </trkpt>
      <trkpt lat="43.33488" lon="5.64348">
        <ele>624.5</ele>
        <time>2022-03-27T10:49:46Z</time>
      </trkpt>
      <trkpt lat="43.33482" lon="5.64359">
        <ele>622.3</ele>
        <time>2022-03-27T10:49:56Z</time>
      </trkpt>
      <trkpt lat="43.33474" lon="5.64365">
        <ele>620.8</ele>
        <time>2022-03-27T10:50:04Z</time>
      </trkpt>
      <trkpt lat="43.33466" lon="5.64371">
        <ele>618.5</ele>
        <time>2022-03-27T10:50:14Z</time>
      </trkpt>
      <trkpt lat="43.33456" lon="5.64375">
        <ele>616.1</ele>
        <time>2022-03-27T10:50:24Z</time>
      </trkpt>
      <trkpt lat="43.33447" lon="5.64379">
        <ele>614</ele>
        <time>2022-03-27T10:50:33Z</time>
      </trkpt>
      <trkpt lat="43.33439" lon="5.64387">
        <ele>611.7</ele>
        <time>2022-03-27T10:50:42Z</time>
      </trkpt>
      <trkpt lat="43.3343" lon="5.64391">
        <ele>610.1</ele>
        <time>2022-03-27T10:50:51Z</time>
      </trkpt>
      <trkpt lat="43.33421" lon="5.64396">
        <ele>608.5</ele>
        <time>2022-03-27T10:51:00Z</time>
      </trkpt>
      <trkpt lat="43.33412" lon="5.644">
        <ele>607.3</ele>
        <time>2022-03-27T10:51:08Z</time>
      </trkpt>
      <trkpt lat="43.33403" lon="5.64402">
        <ele>605.6</ele>
        <time>2022-03-27T10:51:16Z</time>
      </trkpt>
      <trkpt lat="43.33394" lon="5.64406">
        <ele>604.8</ele>
        <time>2022-03-27T10:51:25Z</time>
      </trkpt>
      <trkpt lat="43.33385" lon="5.64412">
        <ele>604.2</ele>
        <time>2022-03-27T10:51:34Z</time>
      </trkpt>
      <trkpt lat="43.33378" lon="5.64419">
        <ele>604.4</ele>
        <time>2022-03-27T10:57:53Z</time>
      </trkpt>
      <trkpt lat="43.33375" lon="5.64407">
        <ele>601.5</ele>
        <time>2022-03-27T10:58:10Z</time>
      </trkpt>
      <trkpt lat="43.33366" lon="5.64406">
        <ele>599.9</ele>
        <time>2022-03-27T10:58:20Z</time>
      </trkpt>
      <trkpt lat="43.33357" lon="5.64407">
        <ele>598.4</ele>
        <time>2022-03-27T10:58:32Z</time>
      </trkpt>
      <trkpt lat="43.33347" lon="5.64409">
        <ele>596.9</ele>
        <time>2022-03-27T10:58:42Z</time>
      </trkpt>
      <trkpt lat="43.33338" lon="5.64405">
        <ele>595.8</ele>
        <time>2022-03-27T10:58:53Z</time>
      </trkpt>
      <trkpt lat="43.33329" lon="5.644">
        <ele>594.9</ele>
        <time>2022-03-27T10:59:02Z</time>
      </trkpt>
      <trkpt lat="43.3332" lon="5.64398">
        <ele>593.6</ele>
        <time>2022-03-27T10:59:11Z</time>
      </trkpt>
      <trkpt lat="43.3331" lon="5.64394">
        <ele>592.8</ele>
        <time>2022-03-27T10:59:20Z</time>
      </trkpt>
      <trkpt lat="43.33301" lon="5.64387">
        <ele>592.2</ele>
        <time>2022-03-27T10:59:29Z</time>
      </trkpt>
      <trkpt lat="43.33293" lon="5.6438">
        <ele>591.6</ele>
        <time>2022-03-27T10:59:38Z</time>
      </trkpt>
      <trkpt lat="43.33286" lon="5.64369">
        <ele>591.2</ele>
        <time>2022-03-27T10:59:47Z</time>
      </trkpt>
      <trkpt lat="43.33283" lon="5.64357">
        <ele>591.7</ele>
        <time>2022-03-27T10:59:56Z</time>
      </trkpt>
      <trkpt lat="43.33277" lon="5.64347">
        <ele>592.2</ele>
        <time>2022-03-27T11:00:04Z</time>
      </trkpt>
      <trkpt lat="43.33273" lon="5.64334">
        <ele>592.4</ele>
        <time>2022-03-27T11:00:14Z</time>
      </trkpt>
      <trkpt lat="43.33266" lon="5.64323">
        <ele>592.4</ele>
        <time>2022-03-27T11:00:23Z</time>
      </trkpt>
      <trkpt lat="43.33258" lon="5.64317">
        <ele>591.7</ele>
        <time>2022-03-27T11:00:33Z</time>
      </trkpt>
      <trkpt lat="43.33251" lon="5.64308">
        <ele>590.7</ele>
        <time>2022-03-27T11:00:43Z</time>
      </trkpt>
      <trkpt lat="43.33251" lon="5.64295">
        <ele>588</ele>
        <time>2022-03-27T11:03:31Z</time>
      </trkpt>
      <trkpt lat="43.33255" lon="5.64283">
        <ele>586.6</ele>
        <time>2022-03-27T11:03:40Z</time>
      </trkpt>
      <trkpt lat="43.33259" lon="5.64271">
        <ele>586</ele>
        <time>2022-03-27T11:03:48Z</time>
      </trkpt>
      <trkpt lat="43.33266" lon="5.64263">
        <ele>584.2</ele>
        <time>2022-03-27T11:03:56Z</time>
      </trkpt>
      <trkpt lat="43.33269" lon="5.64252">
        <ele>581.7</ele>
        <time>2022-03-27T11:04:05Z</time>
      </trkpt>
      <trkpt lat="43.33269" lon="5.64238">
        <ele>580</ele>
        <time>2022-03-27T11:04:14Z</time>
      </trkpt>
      <trkpt lat="43.33265" lon="5.64226">
        <ele>579.3</ele>
        <time>2022-03-27T11:04:21Z</time>
      </trkpt>
      <trkpt lat="43.33261" lon="5.64214">
        <ele>579.1</ele>
        <time>2022-03-27T11:04:28Z</time>
      </trkpt>
      <trkpt lat="43.33257" lon="5.64202">
        <ele>579.3</ele>
        <time>2022-03-27T11:04:36Z</time>
      </trkpt>
      <trkpt lat="43.33251" lon="5.64192">
        <ele>578.3</ele>
        <time>2022-03-27T11:04:45Z</time>
      </trkpt>
      <trkpt lat="43.33247" lon="5.64181">
        <ele>576.1</ele>
        <time>2022-03-27T11:04:54Z</time>
      </trkpt>
      <trkpt lat="43.33243" lon="5.64168">
        <ele>573.8</ele>
        <time>2022-03-27T11:05:03Z</time>
      </trkpt>
      <trkpt lat="43.33243" lon="5.64154">
        <ele>570.9</ele>
        <time>2022-03-27T11:05:13Z</time>
      </trkpt>
      <trkpt lat="43.33243" lon="5.64141">
        <ele>568.6</ele>
        <time>2022-03-27T11:05:24Z</time>
      </trkpt>
      <trkpt lat="43.33241" lon="5.64129">
        <ele>566.5</ele>
        <time>2022-03-27T11:05:45Z</time>
      </trkpt>
      <trkpt lat="43.33234" lon="5.6412">
        <ele>565.3</ele>
        <time>2022-03-27T11:05:55Z</time>
      </trkpt>
      <trkpt lat="43.33226" lon="5.64112">
        <ele>563</ele>
        <time>2022-03-27T11:06:05Z</time>
      </trkpt>
      <trkpt lat="43.3322" lon="5.64121">
        <ele>560.9</ele>
        <time>2022-03-27T11:06:14Z</time>
      </trkpt>
      <trkpt lat="43.33216" lon="5.64134">
        <ele>559.8</ele>
        <time>2022-03-27T11:06:24Z</time>
      </trkpt>
      <trkpt lat="43.33213" lon="5.64146">
        <ele>559.4</ele>
        <time>2022-03-27T11:06:32Z</time>
      </trkpt>
      <trkpt lat="43.3321" lon="5.64157">
        <ele>558.4</ele>
        <time>2022-03-27T11:06:41Z</time>
      </trkpt>
      <trkpt lat="43.33209" lon="5.6417">
        <ele>556.3</ele>
        <time>2022-03-27T11:06:52Z</time>
      </trkpt>
      <trkpt lat="43.33206" lon="5.64182">
        <ele>554.5</ele>
        <time>2022-03-27T11:07:02Z</time>
      </trkpt>
      <trkpt lat="43.33205" lon="5.64195">
        <ele>552.6</ele>
        <time>2022-03-27T11:07:15Z</time>
      </trkpt>
      <trkpt lat="43.33206" lon="5.64209">
        <ele>549.7</ele>
        <time>2022-03-27T11:07:27Z</time>
      </trkpt>
      <trkpt lat="43.33209" lon="5.64221">
        <ele>547.7</ele>
        <time>2022-03-27T11:07:38Z</time>
      </trkpt>
      <trkpt lat="43.33206" lon="5.64233">
        <ele>546.1</ele>
        <time>2022-03-27T11:07:49Z</time>
      </trkpt>
      <trkpt lat="43.33197" lon="5.64236">
        <ele>543.7</ele>
        <time>2022-03-27T11:08:06Z</time>
      </trkpt>
      <trkpt lat="43.33188" lon="5.64233">
        <ele>541.2</ele>
        <time>2022-03-27T11:08:19Z</time>
      </trkpt>
      <trkpt lat="43.33179" lon="5.6423">
        <ele>538.7</ele>
        <time>2022-03-27T11:08:32Z</time>
      </trkpt>
      <trkpt lat="43.3317" lon="5.64226">
        <ele>536</ele>
        <time>2022-03-27T11:08:47Z</time>
      </trkpt>
      <trkpt lat="43.3316" lon="5.64222">
        <ele>533.4</ele>
        <time>2022-03-27T11:09:03Z</time>
      </trkpt>
      <trkpt lat="43.33151" lon="5.6422">
        <ele>531.5</ele>
        <time>2022-03-27T11:09:15Z</time>
      </trkpt>
      <trkpt lat="43.33142" lon="5.64216">
        <ele>528.8</ele>
        <time>2022-03-27T11:09:28Z</time>
      </trkpt>
      <trkpt lat="43.33134" lon="5.64208">
        <ele>526.2</ele>
        <time>2022-03-27T11:09:42Z</time>
      </trkpt>
      <trkpt lat="43.33129" lon="5.64198">
        <ele>524.4</ele>
        <time>2022-03-27T11:09:53Z</time>
      </trkpt>
      <trkpt lat="43.33124" lon="5.64187">
        <ele>522.7</ele>
        <time>2022-03-27T11:10:06Z</time>
      </trkpt>
      <trkpt lat="43.33119" lon="5.64176">
        <ele>521.7</ele>
        <time>2022-03-27T11:10:18Z</time>
      </trkpt>
      <trkpt lat="43.33116" lon="5.64164">
        <ele>520.2</ele>
        <time>2022-03-27T11:10:31Z</time>
      </trkpt>
      <trkpt lat="43.3311" lon="5.64154">
        <ele>518.7</ele>
        <time>2022-03-27T11:10:43Z</time>
      </trkpt>
      <trkpt lat="43.33103" lon="5.64147">
        <ele>517.8</ele>
        <time>2022-03-27T11:10:59Z</time>
      </trkpt>
      <trkpt lat="43.33096" lon="5.64138">
        <ele>516.7</ele>
        <time>2022-03-27T11:11:09Z</time>
      </trkpt>
      <trkpt lat="43.33094" lon="5.64126">
        <ele>515.4</ele>
        <time>2022-03-27T11:11:24Z</time>
      </trkpt>
      <trkpt lat="43.33086" lon="5.64118">
        <ele>514.4</ele>
        <time>2022-03-27T11:11:35Z</time>
      </trkpt>
      <trkpt lat="43.33077" lon="5.64119">
        <ele>512.9</ele>
        <time>2022-03-27T11:11:45Z</time>
      </trkpt>
      <trkpt lat="43.33067" lon="5.64122">
        <ele>512.2</ele>
        <time>2022-03-27T11:11:56Z</time>
      </trkpt>
      <trkpt lat="43.33058" lon="5.64121">
        <ele>511.9</ele>
        <time>2022-03-27T11:12:08Z</time>
      </trkpt>
      <trkpt lat="43.33048" lon="5.64125">
        <ele>511.2</ele>
        <time>2022-03-27T11:12:18Z</time>
      </trkpt>
      <trkpt lat="43.33038" lon="5.64126">
        <ele>510.2</ele>
        <time>2022-03-27T11:12:27Z</time>
      </trkpt>
      <trkpt lat="43.33029" lon="5.64122">
        <ele>509.5</ele>
        <time>2022-03-27T11:12:38Z</time>
      </trkpt>
      <trkpt lat="43.3302" lon="5.64125">
        <ele>508.2</ele>
        <time>2022-03-27T11:12:50Z</time>
      </trkpt>
      <trkpt lat="43.3301" lon="5.64127">
        <ele>509.2</ele>
        <time>2022-03-27T11:13:03Z</time>
      </trkpt>
      <trkpt lat="43.33001" lon="5.64127">
        <ele>509.5</ele>
        <time>2022-03-27T11:13:14Z</time>
      </trkpt>
      <trkpt lat="43.32992" lon="5.64124">
        <ele>508</ele>
        <time>2022-03-27T11:15:53Z</time>
      </trkpt>
      <trkpt lat="43.32984" lon="5.6412">
        <ele>506.7</ele>
        <time>2022-03-27T11:16:05Z</time>
      </trkpt>
      <trkpt lat="43.32975" lon="5.64116">
        <ele>504.8</ele>
        <time>2022-03-27T11:16:14Z</time>
      </trkpt>
      <trkpt lat="43.32965" lon="5.64113">
        <ele>504.4</ele>
        <time>2022-03-27T11:16:28Z</time>
      </trkpt>
      <trkpt lat="43.32967" lon="5.64101">
        <ele>502.8</ele>
        <time>2022-03-27T11:16:40Z</time>
      </trkpt>
      <trkpt lat="43.32967" lon="5.64088">
        <ele>500.6</ele>
        <time>2022-03-27T11:16:51Z</time>
      </trkpt>
      <trkpt lat="43.32967" lon="5.64074">
        <ele>499.3</ele>
        <time>2022-03-27T11:17:00Z</time>
      </trkpt>
      <trkpt lat="43.32965" lon="5.64062">
        <ele>498.5</ele>
        <time>2022-03-27T11:17:07Z</time>
      </trkpt>
      <trkpt lat="43.32964" lon="5.64049">
        <ele>497</ele>
        <time>2022-03-27T11:17:16Z</time>
      </trkpt>
      <trkpt lat="43.32959" lon="5.64038">
        <ele>495.6</ele>
        <time>2022-03-27T11:17:25Z</time>
      </trkpt>
      <trkpt lat="43.32953" lon="5.64028">
        <ele>494.7</ele>
        <time>2022-03-27T11:17:33Z</time>
      </trkpt>
      <trkpt lat="43.32945" lon="5.64021">
        <ele>493.9</ele>
        <time>2022-03-27T11:17:42Z</time>
      </trkpt>
      <trkpt lat="43.32936" lon="5.64017">
        <ele>493</ele>
        <time>2022-03-27T11:17:50Z</time>
      </trkpt>
      <trkpt lat="43.32926" lon="5.64012">
        <ele>491.3</ele>
        <time>2022-03-27T11:18:00Z</time>
      </trkpt>
      <trkpt lat="43.32919" lon="5.64005">
        <ele>489.4</ele>
        <time>2022-03-27T11:18:11Z</time>
      </trkpt>
      <trkpt lat="43.32912" lon="5.63998">
        <ele>488.1</ele>
        <time>2022-03-27T11:18:21Z</time>
      </trkpt>
      <trkpt lat="43.32905" lon="5.63988">
        <ele>487.4</ele>
        <time>2022-03-27T11:18:31Z</time>
      </trkpt>
      <trkpt lat="43.32896" lon="5.63983">
        <ele>485.8</ele>
        <time>2022-03-27T11:18:42Z</time>
      </trkpt>
      <trkpt lat="43.32887" lon="5.63979">
        <ele>484.6</ele>
        <time>2022-03-27T11:18:52Z</time>
      </trkpt>
      <trkpt lat="43.32877" lon="5.63977">
        <ele>484.1</ele>
        <time>2022-03-27T11:19:01Z</time>
      </trkpt>
      <trkpt lat="43.32867" lon="5.63977">
        <ele>483.3</ele>
        <time>2022-03-27T11:19:11Z</time>
      </trkpt>
      <trkpt lat="43.32858" lon="5.63975">
        <ele>482.4</ele>
        <time>2022-03-27T11:19:20Z</time>
      </trkpt>
      <trkpt lat="43.32849" lon="5.63971">
        <ele>481.4</ele>
        <time>2022-03-27T11:19:30Z</time>
      </trkpt>
      <trkpt lat="43.32839" lon="5.6397">
        <ele>480.5</ele>
        <time>2022-03-27T11:19:40Z</time>
      </trkpt>
      <trkpt lat="43.32829" lon="5.6397">
        <ele>479.5</ele>
        <time>2022-03-27T11:19:52Z</time>
      </trkpt>
      <trkpt lat="43.3282" lon="5.63971">
        <ele>477.6</ele>
        <time>2022-03-27T11:20:06Z</time>
      </trkpt>
      <trkpt lat="43.3281" lon="5.63972">
        <ele>475.5</ele>
        <time>2022-03-27T11:20:21Z</time>
      </trkpt>
      <trkpt lat="43.32801" lon="5.63975">
        <ele>472.9</ele>
        <time>2022-03-27T11:20:34Z</time>
      </trkpt>
      <trkpt lat="43.32792" lon="5.6398">
        <ele>471.7</ele>
        <time>2022-03-27T11:20:47Z</time>
      </trkpt>
      <trkpt lat="43.32783" lon="5.63985">
        <ele>470.7</ele>
        <time>2022-03-27T11:21:00Z</time>
      </trkpt>
      <trkpt lat="43.32774" lon="5.63986">
        <ele>469.7</ele>
        <time>2022-03-27T11:21:10Z</time>
      </trkpt>
      <trkpt lat="43.32767" lon="5.63995">
        <ele>469.1</ele>
        <time>2022-03-27T11:21:19Z</time>
      </trkpt>
      <trkpt lat="43.32758" lon="5.63999">
        <ele>468.6</ele>
        <time>2022-03-27T11:21:30Z</time>
      </trkpt>
      <trkpt lat="43.32748" lon="5.64">
        <ele>467.9</ele>
        <time>2022-03-27T11:21:41Z</time>
      </trkpt>
      <trkpt lat="43.3274" lon="5.64003">
        <ele>467.8</ele>
        <time>2022-03-27T11:21:54Z</time>
      </trkpt>
      <trkpt lat="43.32731" lon="5.64007">
        <ele>467.6</ele>
        <time>2022-03-27T11:22:05Z</time>
      </trkpt>
      <trkpt lat="43.32725" lon="5.64018">
        <ele>467.5</ele>
        <time>2022-03-27T11:22:18Z</time>
      </trkpt>
      <trkpt lat="43.32721" lon="5.64029">
        <ele>468</ele>
        <time>2022-03-27T11:22:29Z</time>
      </trkpt>
      <trkpt lat="43.32712" lon="5.64029">
        <ele>468.5</ele>
        <time>2022-03-27T11:22:42Z</time>
      </trkpt>
      <trkpt lat="43.32705" lon="5.64038">
        <ele>469.9</ele>
        <time>2022-03-27T11:23:27Z</time>
      </trkpt>
      <trkpt lat="43.32696" lon="5.64036">
        <ele>474.7</ele>
        <time>2022-03-27T11:23:59Z</time>
      </trkpt>
      <trkpt lat="43.32688" lon="5.64043">
        <ele>478.7</ele>
        <time>2022-03-27T11:24:31Z</time>
      </trkpt>
      <trkpt lat="43.32691" lon="5.64055">
        <ele>480</ele>
        <time>2022-03-27T11:25:45Z</time>
      </trkpt>
      <trkpt lat="43.32696" lon="5.64067">
        <ele>480.5</ele>
        <time>2022-03-27T11:25:55Z</time>
      </trkpt>
      <trkpt lat="43.32699" lon="5.64078">
        <ele>481.3</ele>
        <time>2022-03-27T11:26:04Z</time>
      </trkpt>
      <trkpt lat="43.32704" lon="5.6409">
        <ele>481.9</ele>
        <time>2022-03-27T11:26:14Z</time>
      </trkpt>
      <trkpt lat="43.32707" lon="5.64102">
        <ele>483.3</ele>
        <time>2022-03-27T11:26:24Z</time>
      </trkpt>
      <trkpt lat="43.32709" lon="5.64115">
        <ele>484</ele>
        <time>2022-03-27T11:26:32Z</time>
      </trkpt>
      <trkpt lat="43.32711" lon="5.64127">
        <ele>485</ele>
        <time>2022-03-27T11:26:41Z</time>
      </trkpt>
      <trkpt lat="43.32713" lon="5.6414">
        <ele>485.9</ele>
        <time>2022-03-27T11:26:50Z</time>
      </trkpt>
      <trkpt lat="43.32715" lon="5.64152">
        <ele>486.7</ele>
        <time>2022-03-27T11:26:59Z</time>
      </trkpt>
      <trkpt lat="43.32719" lon="5.64164">
        <ele>487.7</ele>
        <time>2022-03-27T11:27:08Z</time>
      </trkpt>
      <trkpt lat="43.32723" lon="5.64175">
        <ele>488.3</ele>
        <time>2022-03-27T11:27:16Z</time>
      </trkpt>
      <trkpt lat="43.32726" lon="5.64188">
        <ele>489.1</ele>
        <time>2022-03-27T11:27:25Z</time>
      </trkpt>
      <trkpt lat="43.32726" lon="5.64201">
        <ele>489.6</ele>
        <time>2022-03-27T11:27:35Z</time>
      </trkpt>
      <trkpt lat="43.32727" lon="5.64214">
        <ele>490.1</ele>
        <time>2022-03-27T11:27:47Z</time>
      </trkpt>
      <trkpt lat="43.32728" lon="5.64228">
        <ele>491</ele>
        <time>2022-03-27T11:27:57Z</time>
      </trkpt>
      <trkpt lat="43.32725" lon="5.64239">
        <ele>492.1</ele>
        <time>2022-03-27T11:28:56Z</time>
      </trkpt>
      <trkpt lat="43.3272" lon="5.64249">
        <ele>495</ele>
        <time>2022-03-27T11:33:04Z</time>
      </trkpt>
      <trkpt lat="43.32712" lon="5.64256">
        <ele>497.5</ele>
        <time>2022-03-27T11:33:21Z</time>
      </trkpt>
      <trkpt lat="43.32703" lon="5.64261">
        <ele>500.3</ele>
        <time>2022-03-27T11:33:36Z</time>
      </trkpt>
      <trkpt lat="43.32699" lon="5.64273">
        <ele>503.6</ele>
        <time>2022-03-27T11:33:51Z</time>
      </trkpt>
      <trkpt lat="43.32691" lon="5.64279">
        <ele>506.1</ele>
        <time>2022-03-27T11:34:29Z</time>
      </trkpt>
      <trkpt lat="43.32682" lon="5.6428">
        <ele>509.8</ele>
        <time>2022-03-27T11:34:45Z</time>
      </trkpt>
      <trkpt lat="43.32673" lon="5.64284">
        <ele>512.3</ele>
        <time>2022-03-27T11:34:59Z</time>
      </trkpt>
      <trkpt lat="43.3267" lon="5.64297">
        <ele>513.2</ele>
        <time>2022-03-27T11:35:08Z</time>
      </trkpt>
      <trkpt lat="43.32669" lon="5.6431">
        <ele>514.1</ele>
        <time>2022-03-27T11:35:18Z</time>
      </trkpt>
      <trkpt lat="43.32662" lon="5.64319">
        <ele>517.2</ele>
        <time>2022-03-27T11:35:34Z</time>
      </trkpt>
      <trkpt lat="43.32653" lon="5.64321">
        <ele>522.9</ele>
        <time>2022-03-27T11:35:56Z</time>
      </trkpt>
      <trkpt lat="43.32644" lon="5.64317">
        <ele>527.6</ele>
        <time>2022-03-27T11:36:16Z</time>
      </trkpt>
      <trkpt lat="43.32635" lon="5.64312">
        <ele>533.3</ele>
        <time>2022-03-27T11:37:30Z</time>
      </trkpt>
      <trkpt lat="43.32629" lon="5.64301">
        <ele>534.9</ele>
        <time>2022-03-27T11:37:41Z</time>
      </trkpt>
      <trkpt lat="43.32625" lon="5.6429">
        <ele>536.5</ele>
        <time>2022-03-27T11:37:51Z</time>
      </trkpt>
      <trkpt lat="43.32619" lon="5.6428">
        <ele>538.1</ele>
        <time>2022-03-27T11:38:03Z</time>
      </trkpt>
      <trkpt lat="43.32614" lon="5.6427">
        <ele>540.4</ele>
        <time>2022-03-27T11:38:14Z</time>
      </trkpt>
      <trkpt lat="43.32608" lon="5.64261">
        <ele>541.4</ele>
        <time>2022-03-27T11:38:24Z</time>
      </trkpt>
      <trkpt lat="43.32602" lon="5.6425">
        <ele>544.1</ele>
        <time>2022-03-27T11:38:37Z</time>
      </trkpt>
      <trkpt lat="43.32596" lon="5.6424">
        <ele>546.7</ele>
        <time>2022-03-27T11:38:52Z</time>
      </trkpt>
      <trkpt lat="43.3259" lon="5.64231">
        <ele>549.2</ele>
        <time>2022-03-27T11:39:05Z</time>
      </trkpt>
      <trkpt lat="43.32584" lon="5.64221">
        <ele>551.8</ele>
        <time>2022-03-27T11:39:21Z</time>
      </trkpt>
      <trkpt lat="43.32578" lon="5.64211">
        <ele>552.9</ele>
        <time>2022-03-27T11:39:35Z</time>
      </trkpt>
      <trkpt lat="43.32571" lon="5.64204">
        <ele>555.1</ele>
        <time>2022-03-27T11:39:49Z</time>
      </trkpt>
      <trkpt lat="43.32563" lon="5.64195">
        <ele>557.2</ele>
        <time>2022-03-27T11:40:04Z</time>
      </trkpt>
      <trkpt lat="43.32556" lon="5.64189">
        <ele>559.3</ele>
        <time>2022-03-27T11:40:18Z</time>
      </trkpt>
      <trkpt lat="43.32547" lon="5.64186">
        <ele>561.1</ele>
        <time>2022-03-27T11:40:30Z</time>
      </trkpt>
      <trkpt lat="43.32537" lon="5.64185">
        <ele>562.1</ele>
        <time>2022-03-27T11:40:43Z</time>
      </trkpt>
      <trkpt lat="43.32528" lon="5.64182">
        <ele>562</ele>
        <time>2022-03-27T11:41:50Z</time>
      </trkpt>
      <trkpt lat="43.32519" lon="5.64183">
        <ele>563.4</ele>
        <time>2022-03-27T11:42:03Z</time>
      </trkpt>
      <trkpt lat="43.32508" lon="5.6418">
        <ele>565.1</ele>
        <time>2022-03-27T11:42:16Z</time>
      </trkpt>
      <trkpt lat="43.32497" lon="5.64179">
        <ele>566.6</ele>
        <time>2022-03-27T11:43:01Z</time>
      </trkpt>
      <trkpt lat="43.32488" lon="5.6418">
        <ele>567.8</ele>
        <time>2022-03-27T11:43:10Z</time>
      </trkpt>
      <trkpt lat="43.32479" lon="5.64179">
        <ele>569.3</ele>
        <time>2022-03-27T11:43:20Z</time>
      </trkpt>
      <trkpt lat="43.32469" lon="5.64178">
        <ele>572</ele>
        <time>2022-03-27T11:43:32Z</time>
      </trkpt>
      <trkpt lat="43.3246" lon="5.64177">
        <ele>575</ele>
        <time>2022-03-27T11:43:43Z</time>
      </trkpt>
      <trkpt lat="43.32452" lon="5.64171">
        <ele>575.9</ele>
        <time>2022-03-27T11:43:53Z</time>
      </trkpt>
      <trkpt lat="43.32444" lon="5.64164">
        <ele>577</ele>
        <time>2022-03-27T11:44:03Z</time>
      </trkpt>
      <trkpt lat="43.32435" lon="5.6416">
        <ele>577.5</ele>
        <time>2022-03-27T11:44:13Z</time>
      </trkpt>
      <trkpt lat="43.32426" lon="5.64154">
        <ele>578.6</ele>
        <time>2022-03-27T11:44:22Z</time>
      </trkpt>
      <trkpt lat="43.3242" lon="5.64144">
        <ele>579.6</ele>
        <time>2022-03-27T11:44:31Z</time>
      </trkpt>
      <trkpt lat="43.32412" lon="5.64139">
        <ele>582</ele>
        <time>2022-03-27T11:45:08Z</time>
      </trkpt>
      <trkpt lat="43.32407" lon="5.64127">
        <ele>581.4</ele>
        <time>2022-03-27T11:45:34Z</time>
      </trkpt>
      <trkpt lat="43.32402" lon="5.64117">
        <ele>580.6</ele>
        <time>2022-03-27T11:45:43Z</time>
      </trkpt>
      <trkpt lat="43.32397" lon="5.64106">
        <ele>580.2</ele>
        <time>2022-03-27T11:45:51Z</time>
      </trkpt>
      <trkpt lat="43.3239" lon="5.64097">
        <ele>580.3</ele>
        <time>2022-03-27T11:46:02Z</time>
      </trkpt>
      <trkpt lat="43.32385" lon="5.64107">
        <ele>583.3</ele>
        <time>2022-03-27T11:49:24Z</time>
      </trkpt>
      <trkpt lat="43.32384" lon="5.6412">
        <ele>585.9</ele>
        <time>2022-03-27T11:49:47Z</time>
      </trkpt>
      <trkpt lat="43.32384" lon="5.64132">
        <ele>589.2</ele>
        <time>2022-03-27T11:50:04Z</time>
      </trkpt>
      <trkpt lat="43.32386" lon="5.64145">
        <ele>591.6</ele>
        <time>2022-03-27T11:50:25Z</time>
      </trkpt>
      <trkpt lat="43.32387" lon="5.64158">
        <ele>594.6</ele>
        <time>2022-03-27T11:50:45Z</time>
      </trkpt>
      <trkpt lat="43.32388" lon="5.6417">
        <ele>597.2</ele>
        <time>2022-03-27T11:51:09Z</time>
      </trkpt>
      <trkpt lat="43.32391" lon="5.64182">
        <ele>600.1</ele>
        <time>2022-03-27T11:51:25Z</time>
      </trkpt>
      <trkpt lat="43.32396" lon="5.64193">
        <ele>602.2</ele>
        <time>2022-03-27T11:51:39Z</time>
      </trkpt>
      <trkpt lat="43.32403" lon="5.64202">
        <ele>603.3</ele>
        <time>2022-03-27T11:51:50Z</time>
      </trkpt>
      <trkpt lat="43.3241" lon="5.64211">
        <ele>604.4</ele>
        <time>2022-03-27T11:52:02Z</time>
      </trkpt>
      <trkpt lat="43.32418" lon="5.64219">
        <ele>605.5</ele>
        <time>2022-03-27T11:52:12Z</time>
      </trkpt>
      <trkpt lat="43.32423" lon="5.6423">
        <ele>607.2</ele>
        <time>2022-03-27T11:52:26Z</time>
      </trkpt>
      <trkpt lat="43.32429" lon="5.64239">
        <ele>608.8</ele>
        <time>2022-03-27T11:52:37Z</time>
      </trkpt>
      <trkpt lat="43.32435" lon="5.64249">
        <ele>610.3</ele>
        <time>2022-03-27T11:52:50Z</time>
      </trkpt>
      <trkpt lat="43.32444" lon="5.64255">
        <ele>612</ele>
        <time>2022-03-27T11:53:02Z</time>
      </trkpt>
      <trkpt lat="43.32452" lon="5.64262">
        <ele>614</ele>
        <time>2022-03-27T11:53:15Z</time>
      </trkpt>
      <trkpt lat="43.3246" lon="5.6427">
        <ele>616.2</ele>
        <time>2022-03-27T11:53:30Z</time>
      </trkpt>
      <trkpt lat="43.32467" lon="5.64279">
        <ele>618.4</ele>
        <time>2022-03-27T11:53:45Z</time>
      </trkpt>
      <trkpt lat="43.32474" lon="5.64287">
        <ele>620.8</ele>
        <time>2022-03-27T11:53:58Z</time>
      </trkpt>
      <trkpt lat="43.3248" lon="5.64296">
        <ele>622.7</ele>
        <time>2022-03-27T11:54:11Z</time>
      </trkpt>
      <trkpt lat="43.32484" lon="5.64307">
        <ele>624.3</ele>
        <time>2022-03-27T11:54:24Z</time>
      </trkpt>
      <trkpt lat="43.32484" lon="5.64321">
        <ele>626.5</ele>
        <time>2022-03-27T11:54:40Z</time>
      </trkpt>
      <trkpt lat="43.32481" lon="5.64332">
        <ele>628.9</ele>
        <time>2022-03-27T11:54:54Z</time>
      </trkpt>
      <trkpt lat="43.32479" lon="5.64345">
        <ele>631.5</ele>
        <time>2022-03-27T11:55:09Z</time>
      </trkpt>
      <trkpt lat="43.32475" lon="5.64356">
        <ele>633.7</ele>
        <time>2022-03-27T11:55:21Z</time>
      </trkpt>
      <trkpt lat="43.32472" lon="5.64368">
        <ele>634.6</ele>
        <time>2022-03-27T11:55:34Z</time>
      </trkpt>
      <trkpt lat="43.3247" lon="5.64381">
        <ele>636.6</ele>
        <time>2022-03-27T11:55:47Z</time>
      </trkpt>
      <trkpt lat="43.32465" lon="5.64393">
        <ele>638.3</ele>
        <time>2022-03-27T11:55:59Z</time>
      </trkpt>
      <trkpt lat="43.32462" lon="5.64405">
        <ele>639.5</ele>
        <time>2022-03-27T11:56:10Z</time>
      </trkpt>
      <trkpt lat="43.3246" lon="5.64418">
        <ele>640.8</ele>
        <time>2022-03-27T11:56:20Z</time>
      </trkpt>
      <trkpt lat="43.32457" lon="5.6443">
        <ele>641.9</ele>
        <time>2022-03-27T11:56:29Z</time>
      </trkpt>
      <trkpt lat="43.32454" lon="5.64442">
        <ele>643.2</ele>
        <time>2022-03-27T11:56:39Z</time>
      </trkpt>
      <trkpt lat="43.32452" lon="5.64454">
        <ele>644.4</ele>
        <time>2022-03-27T11:56:51Z</time>
      </trkpt>
      <trkpt lat="43.3245" lon="5.64467">
        <ele>646.2</ele>
        <time>2022-03-27T11:57:03Z</time>
      </trkpt>
      <trkpt lat="43.32448" lon="5.6448">
        <ele>647.4</ele>
        <time>2022-03-27T11:57:14Z</time>
      </trkpt>
      <trkpt lat="43.32442" lon="5.6447">
        <ele>650.5</ele>
        <time>2022-03-27T11:57:34Z</time>
      </trkpt>
      <trkpt lat="43.32439" lon="5.64458">
        <ele>652</ele>
        <time>2022-03-27T11:57:45Z</time>
      </trkpt>
      <trkpt lat="43.32435" lon="5.64445">
        <ele>653.4</ele>
        <time>2022-03-27T11:57:56Z</time>
      </trkpt>
      <trkpt lat="43.32433" lon="5.64433">
        <ele>654.6</ele>
        <time>2022-03-27T11:58:07Z</time>
      </trkpt>
      <trkpt lat="43.32431" lon="5.64421">
        <ele>655.1</ele>
        <time>2022-03-27T11:58:17Z</time>
      </trkpt>
      <trkpt lat="43.32429" lon="5.64408">
        <ele>656.1</ele>
        <time>2022-03-27T11:58:28Z</time>
      </trkpt>
      <trkpt lat="43.32425" lon="5.64396">
        <ele>657.1</ele>
        <time>2022-03-27T11:58:39Z</time>
      </trkpt>
      <trkpt lat="43.32431" lon="5.64387">
        <ele>658.5</ele>
        <time>2022-03-27T12:02:00Z</time>
      </trkpt>
      <trkpt lat="43.32423" lon="5.64394">
        <ele>658.9</ele>
        <time>2022-03-27T12:02:24Z</time>
      </trkpt>
      <trkpt lat="43.3242" lon="5.64405">
        <ele>658.7</ele>
        <time>2022-03-27T12:03:47Z</time>
      </trkpt>
      <trkpt lat="43.32412" lon="5.64412">
        <ele>658.7</ele>
        <time>2022-03-27T12:05:27Z</time>
      </trkpt>
      <trkpt lat="43.32404" lon="5.64417">
        <ele>658.6</ele>
        <time>2022-03-27T12:05:37Z</time>
      </trkpt>
      <trkpt lat="43.32394" lon="5.64421">
        <ele>658.1</ele>
        <time>2022-03-27T12:05:46Z</time>
      </trkpt>
      <trkpt lat="43.32386" lon="5.64425">
        <ele>657.5</ele>
        <time>2022-03-27T12:05:55Z</time>
      </trkpt>
      <trkpt lat="43.32377" lon="5.6443">
        <ele>656.6</ele>
        <time>2022-03-27T12:06:05Z</time>
      </trkpt>
      <trkpt lat="43.32369" lon="5.64436">
        <ele>656</ele>
        <time>2022-03-27T12:06:14Z</time>
      </trkpt>
      <trkpt lat="43.32361" lon="5.64443">
        <ele>655</ele>
        <time>2022-03-27T12:06:23Z</time>
      </trkpt>
      <trkpt lat="43.32352" lon="5.64446">
        <ele>654.4</ele>
        <time>2022-03-27T12:06:31Z</time>
      </trkpt>
      <trkpt lat="43.32342" lon="5.6445">
        <ele>653.8</ele>
        <time>2022-03-27T12:06:41Z</time>
      </trkpt>
      <trkpt lat="43.32333" lon="5.64453">
        <ele>652.9</ele>
        <time>2022-03-27T12:06:50Z</time>
      </trkpt>
      <trkpt lat="43.32324" lon="5.64455">
        <ele>652.4</ele>
        <time>2022-03-27T12:06:58Z</time>
      </trkpt>
      <trkpt lat="43.32315" lon="5.64457">
        <ele>651.4</ele>
        <time>2022-03-27T12:07:06Z</time>
      </trkpt>
      <trkpt lat="43.32306" lon="5.64461">
        <ele>650.7</ele>
        <time>2022-03-27T12:07:15Z</time>
      </trkpt>
      <trkpt lat="43.32297" lon="5.64466">
        <ele>650.2</ele>
        <time>2022-03-27T12:07:23Z</time>
      </trkpt>
      <trkpt lat="43.32288" lon="5.64469">
        <ele>649.6</ele>
        <time>2022-03-27T12:07:31Z</time>
      </trkpt>
      <trkpt lat="43.32279" lon="5.6447">
        <ele>648.8</ele>
        <time>2022-03-27T12:07:40Z</time>
      </trkpt>
      <trkpt lat="43.3227" lon="5.64473">
        <ele>648.3</ele>
        <time>2022-03-27T12:07:48Z</time>
      </trkpt>
      <trkpt lat="43.3226" lon="5.64473">
        <ele>647.5</ele>
        <time>2022-03-27T12:07:56Z</time>
      </trkpt>
      <trkpt lat="43.32251" lon="5.64471">
        <ele>646.9</ele>
        <time>2022-03-27T12:08:04Z</time>
      </trkpt>
      <trkpt lat="43.32243" lon="5.64466">
        <ele>646.1</ele>
        <time>2022-03-27T12:08:13Z</time>
      </trkpt>
      <trkpt lat="43.32234" lon="5.64459">
        <ele>645</ele>
        <time>2022-03-27T12:08:22Z</time>
      </trkpt>
      <trkpt lat="43.32226" lon="5.64452">
        <ele>644.5</ele>
        <time>2022-03-27T12:08:31Z</time>
      </trkpt>
      <trkpt lat="43.32218" lon="5.64445">
        <ele>643.8</ele>
        <time>2022-03-27T12:08:40Z</time>
      </trkpt>
      <trkpt lat="43.3221" lon="5.64438">
        <ele>642.7</ele>
        <time>2022-03-27T12:08:49Z</time>
      </trkpt>
      <trkpt lat="43.32202" lon="5.64431">
        <ele>642</ele>
        <time>2022-03-27T12:08:58Z</time>
      </trkpt>
      <trkpt lat="43.32194" lon="5.64424">
        <ele>641.6</ele>
        <time>2022-03-27T12:09:07Z</time>
      </trkpt>
      <trkpt lat="43.32187" lon="5.64414">
        <ele>640.8</ele>
        <time>2022-03-27T12:09:15Z</time>
      </trkpt>
      <trkpt lat="43.32181" lon="5.64405">
        <ele>639.8</ele>
        <time>2022-03-27T12:09:23Z</time>
      </trkpt>
      <trkpt lat="43.32175" lon="5.64395">
        <ele>639.1</ele>
        <time>2022-03-27T12:09:31Z</time>
      </trkpt>
      <trkpt lat="43.32169" lon="5.64385">
        <ele>638.5</ele>
        <time>2022-03-27T12:09:39Z</time>
      </trkpt>
      <trkpt lat="43.32163" lon="5.64375">
        <ele>637.6</ele>
        <time>2022-03-27T12:09:48Z</time>
      </trkpt>
      <trkpt lat="43.32157" lon="5.64364">
        <ele>636.7</ele>
        <time>2022-03-27T12:09:58Z</time>
      </trkpt>
      <trkpt lat="43.3215" lon="5.64355">
        <ele>636.1</ele>
        <time>2022-03-27T12:10:07Z</time>
      </trkpt>
      <trkpt lat="43.32145" lon="5.64345">
        <ele>635</ele>
        <time>2022-03-27T12:10:15Z</time>
      </trkpt>
      <trkpt lat="43.32139" lon="5.64335">
        <ele>634.5</ele>
        <time>2022-03-27T12:10:24Z</time>
      </trkpt>
      <trkpt lat="43.32133" lon="5.64326">
        <ele>633.9</ele>
        <time>2022-03-27T12:10:33Z</time>
      </trkpt>
      <trkpt lat="43.32127" lon="5.64315">
        <ele>633.7</ele>
        <time>2022-03-27T12:10:42Z</time>
      </trkpt>
      <trkpt lat="43.32121" lon="5.64304">
        <ele>633.2</ele>
        <time>2022-03-27T12:10:51Z</time>
      </trkpt>
      <trkpt lat="43.32115" lon="5.64292">
        <ele>632.6</ele>
        <time>2022-03-27T12:10:59Z</time>
      </trkpt>
      <trkpt lat="43.32111" lon="5.6428">
        <ele>632.3</ele>
        <time>2022-03-27T12:11:08Z</time>
      </trkpt>
      <trkpt lat="43.32107" lon="5.64267">
        <ele>631.9</ele>
        <time>2022-03-27T12:11:17Z</time>
      </trkpt>
      <trkpt lat="43.32103" lon="5.64256">
        <ele>631.4</ele>
        <time>2022-03-27T12:11:25Z</time>
      </trkpt>
      <trkpt lat="43.32098" lon="5.64244">
        <ele>630.5</ele>
        <time>2022-03-27T12:11:34Z</time>
      </trkpt>
      <trkpt lat="43.32094" lon="5.64233">
        <ele>629.9</ele>
        <time>2022-03-27T12:11:43Z</time>
      </trkpt>
      <trkpt lat="43.3209" lon="5.6422">
        <ele>629</ele>
        <time>2022-03-27T12:11:51Z</time>
      </trkpt>
      <trkpt lat="43.32092" lon="5.64208">
        <ele>628.4</ele>
        <time>2022-03-27T12:12:09Z</time>
      </trkpt>
      <trkpt lat="43.32101" lon="5.64206">
        <ele>623.2</ele>
        <time>2022-03-27T12:13:11Z</time>
      </trkpt>
      <trkpt lat="43.32092" lon="5.64204">
        <ele>627.5</ele>
        <time>2022-03-27T12:14:18Z</time>
      </trkpt>
      <trkpt lat="43.32084" lon="5.64195">
        <ele>628.3</ele>
        <time>2022-03-27T12:14:32Z</time>
      </trkpt>
      <trkpt lat="43.32083" lon="5.64182">
        <ele>627.2</ele>
        <time>2022-03-27T12:14:43Z</time>
      </trkpt>
      <trkpt lat="43.32081" lon="5.64169">
        <ele>625.7</ele>
        <time>2022-03-27T12:14:52Z</time>
      </trkpt>
      <trkpt lat="43.32076" lon="5.64158">
        <ele>624.4</ele>
        <time>2022-03-27T12:15:00Z</time>
      </trkpt>
      <trkpt lat="43.32072" lon="5.64147">
        <ele>622.7</ele>
        <time>2022-03-27T12:15:09Z</time>
      </trkpt>
      <trkpt lat="43.32067" lon="5.64135">
        <ele>621.2</ele>
        <time>2022-03-27T12:15:18Z</time>
      </trkpt>
      <trkpt lat="43.32063" lon="5.64123">
        <ele>619.9</ele>
        <time>2022-03-27T12:15:26Z</time>
      </trkpt>
      <trkpt lat="43.32061" lon="5.6411">
        <ele>618.4</ele>
        <time>2022-03-27T12:15:35Z</time>
      </trkpt>
      <trkpt lat="43.32057" lon="5.64098">
        <ele>616.8</ele>
        <time>2022-03-27T12:15:43Z</time>
      </trkpt>
      <trkpt lat="43.32052" lon="5.64088">
        <ele>614.5</ele>
        <time>2022-03-27T12:15:52Z</time>
      </trkpt>
      <trkpt lat="43.32046" lon="5.64078">
        <ele>611.8</ele>
        <time>2022-03-27T12:16:01Z</time>
      </trkpt>
      <trkpt lat="43.3204" lon="5.64067">
        <ele>609.1</ele>
        <time>2022-03-27T12:16:11Z</time>
      </trkpt>
      <trkpt lat="43.32033" lon="5.64059">
        <ele>606.9</ele>
        <time>2022-03-27T12:16:20Z</time>
      </trkpt>
      <trkpt lat="43.32026" lon="5.64051">
        <ele>605.3</ele>
        <time>2022-03-27T12:16:28Z</time>
      </trkpt>
      <trkpt lat="43.32019" lon="5.64042">
        <ele>603.9</ele>
        <time>2022-03-27T12:16:36Z</time>
      </trkpt>
      <trkpt lat="43.32012" lon="5.64033">
        <ele>602.3</ele>
        <time>2022-03-27T12:16:46Z</time>
      </trkpt>
      <trkpt lat="43.32005" lon="5.64025">
        <ele>600.7</ele>
        <time>2022-03-27T12:16:55Z</time>
      </trkpt>
      <trkpt lat="43.31997" lon="5.64017">
        <ele>599</ele>
        <time>2022-03-27T12:17:04Z</time>
      </trkpt>
      <trkpt lat="43.31989" lon="5.64009">
        <ele>597.7</ele>
        <time>2022-03-27T12:17:14Z</time>
      </trkpt>
      <trkpt lat="43.31982" lon="5.64">
        <ele>595.6</ele>
        <time>2022-03-27T12:17:23Z</time>
      </trkpt>
      <trkpt lat="43.31976" lon="5.6399">
        <ele>594</ele>
        <time>2022-03-27T12:17:32Z</time>
      </trkpt>
      <trkpt lat="43.31969" lon="5.63981">
        <ele>592.2</ele>
        <time>2022-03-27T12:17:42Z</time>
      </trkpt>
      <trkpt lat="43.31961" lon="5.63972">
        <ele>590.3</ele>
        <time>2022-03-27T12:17:52Z</time>
      </trkpt>
      <trkpt lat="43.31954" lon="5.63963">
        <ele>588.7</ele>
        <time>2022-03-27T12:18:02Z</time>
      </trkpt>
      <trkpt lat="43.31948" lon="5.63953">
        <ele>587</ele>
        <time>2022-03-27T12:18:12Z</time>
      </trkpt>
      <trkpt lat="43.31942" lon="5.63943">
        <ele>585.2</ele>
        <time>2022-03-27T12:18:21Z</time>
      </trkpt>
      <trkpt lat="43.31934" lon="5.63936">
        <ele>584</ele>
        <time>2022-03-27T12:18:30Z</time>
      </trkpt>
      <trkpt lat="43.31925" lon="5.63934">
        <ele>581.6</ele>
        <time>2022-03-27T12:18:40Z</time>
      </trkpt>
      <trkpt lat="43.31917" lon="5.63926">
        <ele>579.1</ele>
        <time>2022-03-27T12:18:50Z</time>
      </trkpt>
      <trkpt lat="43.3191" lon="5.63916">
        <ele>576.8</ele>
        <time>2022-03-27T12:19:00Z</time>
      </trkpt>
      <trkpt lat="43.31903" lon="5.63908">
        <ele>574.7</ele>
        <time>2022-03-27T12:19:11Z</time>
      </trkpt>
      <trkpt lat="43.31897" lon="5.63899">
        <ele>572.3</ele>
        <time>2022-03-27T12:19:53Z</time>
      </trkpt>
      <trkpt lat="43.31892" lon="5.63887">
        <ele>571.8</ele>
        <time>2022-03-27T12:20:13Z</time>
      </trkpt>
      <trkpt lat="43.31887" lon="5.63877">
        <ele>570.4</ele>
        <time>2022-03-27T12:20:22Z</time>
      </trkpt>
      <trkpt lat="43.31882" lon="5.63866">
        <ele>568.9</ele>
        <time>2022-03-27T12:20:31Z</time>
      </trkpt>
      <trkpt lat="43.31876" lon="5.63855">
        <ele>567.4</ele>
        <time>2022-03-27T12:20:40Z</time>
      </trkpt>
      <trkpt lat="43.3187" lon="5.63845">
        <ele>566.1</ele>
        <time>2022-03-27T12:20:48Z</time>
      </trkpt>
      <trkpt lat="43.31863" lon="5.63837">
        <ele>564.2</ele>
        <time>2022-03-27T12:20:57Z</time>
      </trkpt>
      <trkpt lat="43.31857" lon="5.63826">
        <ele>562.2</ele>
        <time>2022-03-27T12:21:07Z</time>
      </trkpt>
      <trkpt lat="43.31856" lon="5.63814">
        <ele>560.7</ele>
        <time>2022-03-27T12:21:15Z</time>
      </trkpt>
      <trkpt lat="43.31854" lon="5.638">
        <ele>558.2</ele>
        <time>2022-03-27T12:21:26Z</time>
      </trkpt>
      <trkpt lat="43.31851" lon="5.63788">
        <ele>555.6</ele>
        <time>2022-03-27T12:21:39Z</time>
      </trkpt>
      <trkpt lat="43.31849" lon="5.63775">
        <ele>553</ele>
        <time>2022-03-27T12:22:05Z</time>
      </trkpt>
      <trkpt lat="43.31845" lon="5.63764">
        <ele>550.2</ele>
        <time>2022-03-27T12:22:24Z</time>
      </trkpt>
      <trkpt lat="43.31841" lon="5.63752">
        <ele>547.6</ele>
        <time>2022-03-27T12:23:04Z</time>
      </trkpt>
      <trkpt lat="43.31835" lon="5.63742">
        <ele>544.8</ele>
        <time>2022-03-27T12:23:15Z</time>
      </trkpt>
      <trkpt lat="43.31829" lon="5.63732">
        <ele>541.6</ele>
        <time>2022-03-27T12:23:26Z</time>
      </trkpt>
      <trkpt lat="43.31822" lon="5.63723">
        <ele>538.8</ele>
        <time>2022-03-27T12:23:38Z</time>
      </trkpt>
      <trkpt lat="43.31815" lon="5.63715">
        <ele>537.1</ele>
        <time>2022-03-27T12:23:49Z</time>
      </trkpt>
      <trkpt lat="43.31809" lon="5.63704">
        <ele>535.3</ele>
        <time>2022-03-27T12:23:59Z</time>
      </trkpt>
      <trkpt lat="43.31801" lon="5.63697">
        <ele>533.5</ele>
        <time>2022-03-27T12:24:09Z</time>
      </trkpt>
      <trkpt lat="43.31794" lon="5.63689">
        <ele>531.7</ele>
        <time>2022-03-27T12:24:19Z</time>
      </trkpt>
      <trkpt lat="43.31788" lon="5.6368">
        <ele>529.6</ele>
        <time>2022-03-27T12:24:31Z</time>
      </trkpt>
      <trkpt lat="43.3178" lon="5.63671">
        <ele>527</ele>
        <time>2022-03-27T12:24:43Z</time>
      </trkpt>
      <trkpt lat="43.31773" lon="5.63664">
        <ele>525.2</ele>
        <time>2022-03-27T12:24:57Z</time>
      </trkpt>
      <trkpt lat="43.31764" lon="5.63657">
        <ele>523.7</ele>
        <time>2022-03-27T12:25:10Z</time>
      </trkpt>
      <trkpt lat="43.31755" lon="5.63655">
        <ele>521.7</ele>
        <time>2022-03-27T12:26:00Z</time>
      </trkpt>
      <trkpt lat="43.31747" lon="5.6365">
        <ele>520.1</ele>
        <time>2022-03-27T12:26:15Z</time>
      </trkpt>
      <trkpt lat="43.31738" lon="5.63646">
        <ele>518.1</ele>
        <time>2022-03-27T12:26:27Z</time>
      </trkpt>
      <trkpt lat="43.31729" lon="5.63643">
        <ele>515.2</ele>
        <time>2022-03-27T12:26:40Z</time>
      </trkpt>
      <trkpt lat="43.31721" lon="5.63636">
        <ele>511.7</ele>
        <time>2022-03-27T12:26:59Z</time>
      </trkpt>
      <trkpt lat="43.31715" lon="5.63627">
        <ele>508.2</ele>
        <time>2022-03-27T12:27:15Z</time>
      </trkpt>
      <trkpt lat="43.31713" lon="5.63614">
        <ele>505.3</ele>
        <time>2022-03-27T12:27:27Z</time>
      </trkpt>
      <trkpt lat="43.31712" lon="5.63601">
        <ele>502.8</ele>
        <time>2022-03-27T12:27:40Z</time>
      </trkpt>
      <trkpt lat="43.31712" lon="5.63589">
        <ele>501.1</ele>
        <time>2022-03-27T12:27:53Z</time>
      </trkpt>
      <trkpt lat="43.31713" lon="5.63576">
        <ele>499.7</ele>
        <time>2022-03-27T12:28:08Z</time>
      </trkpt>
      <trkpt lat="43.31714" lon="5.63563">
        <ele>498.2</ele>
        <time>2022-03-27T12:28:19Z</time>
      </trkpt>
      <trkpt lat="43.31718" lon="5.63552">
        <ele>496.8</ele>
        <time>2022-03-27T12:28:29Z</time>
      </trkpt>
      <trkpt lat="43.31723" lon="5.6354">
        <ele>495.6</ele>
        <time>2022-03-27T12:28:39Z</time>
      </trkpt>
      <trkpt lat="43.31728" lon="5.63529">
        <ele>494.5</ele>
        <time>2022-03-27T12:28:51Z</time>
      </trkpt>
      <trkpt lat="43.31734" lon="5.63519">
        <ele>493.6</ele>
        <time>2022-03-27T12:29:02Z</time>
      </trkpt>
      <trkpt lat="43.31741" lon="5.63511">
        <ele>492.5</ele>
        <time>2022-03-27T12:29:11Z</time>
      </trkpt>
      <trkpt lat="43.31747" lon="5.63501">
        <ele>490.7</ele>
        <time>2022-03-27T12:29:22Z</time>
      </trkpt>
      <trkpt lat="43.31748" lon="5.63488">
        <ele>488.5</ele>
        <time>2022-03-27T12:29:35Z</time>
      </trkpt>
      <trkpt lat="43.31749" lon="5.63474">
        <ele>487</ele>
        <time>2022-03-27T12:29:47Z</time>
      </trkpt>
      <trkpt lat="43.31749" lon="5.63461">
        <ele>485.4</ele>
        <time>2022-03-27T12:29:57Z</time>
      </trkpt>
      <trkpt lat="43.31747" lon="5.63449">
        <ele>483.9</ele>
        <time>2022-03-27T12:30:07Z</time>
      </trkpt>
      <trkpt lat="43.31744" lon="5.63437">
        <ele>482.7</ele>
        <time>2022-03-27T12:30:17Z</time>
      </trkpt>
      <trkpt lat="43.31741" lon="5.63425">
        <ele>481.6</ele>
        <time>2022-03-27T12:30:28Z</time>
      </trkpt>
      <trkpt lat="43.31734" lon="5.63417">
        <ele>480.1</ele>
        <time>2022-03-27T12:30:41Z</time>
      </trkpt>
      <trkpt lat="43.31725" lon="5.63418">
        <ele>478.6</ele>
        <time>2022-03-27T12:36:35Z</time>
      </trkpt>
      <trkpt lat="43.31723" lon="5.63431">
        <ele>476.9</ele>
        <time>2022-03-27T12:36:46Z</time>
      </trkpt>
      <trkpt lat="43.31721" lon="5.63443">
        <ele>474.8</ele>
        <time>2022-03-27T12:36:57Z</time>
      </trkpt>
      <trkpt lat="43.31716" lon="5.63454">
        <ele>471.8</ele>
        <time>2022-03-27T12:37:13Z</time>
      </trkpt>
      <trkpt lat="43.3171" lon="5.63465">
        <ele>468.8</ele>
        <time>2022-03-27T12:37:30Z</time>
      </trkpt>
      <trkpt lat="43.31702" lon="5.6347">
        <ele>466.7</ele>
        <time>2022-03-27T12:37:49Z</time>
      </trkpt>
      <trkpt lat="43.31693" lon="5.63473">
        <ele>464</ele>
        <time>2022-03-27T12:38:04Z</time>
      </trkpt>
      <trkpt lat="43.31684" lon="5.63472">
        <ele>462.1</ele>
        <time>2022-03-27T12:38:18Z</time>
      </trkpt>
      <trkpt lat="43.31674" lon="5.6347">
        <ele>460.8</ele>
        <time>2022-03-27T12:38:29Z</time>
      </trkpt>
      <trkpt lat="43.31665" lon="5.63471">
        <ele>460</ele>
        <time>2022-03-27T12:38:42Z</time>
      </trkpt>
      <trkpt lat="43.31658" lon="5.63479">
        <ele>457.7</ele>
        <time>2022-03-27T12:39:30Z</time>
      </trkpt>
      <trkpt lat="43.31651" lon="5.63487">
        <ele>455.8</ele>
        <time>2022-03-27T12:39:46Z</time>
      </trkpt>
      <trkpt lat="43.31643" lon="5.63494">
        <ele>453.9</ele>
        <time>2022-03-27T12:40:00Z</time>
      </trkpt>
      <trkpt lat="43.31635" lon="5.63501">
        <ele>451.2</ele>
        <time>2022-03-27T12:40:23Z</time>
      </trkpt>
      <trkpt lat="43.31629" lon="5.63511">
        <ele>449.1</ele>
        <time>2022-03-27T12:40:37Z</time>
      </trkpt>
      <trkpt lat="43.31626" lon="5.63523">
        <ele>447</ele>
        <time>2022-03-27T12:40:48Z</time>
      </trkpt>
      <trkpt lat="43.31623" lon="5.63535">
        <ele>444.8</ele>
        <time>2022-03-27T12:41:02Z</time>
      </trkpt>
      <trkpt lat="43.31621" lon="5.63547">
        <ele>443.1</ele>
        <time>2022-03-27T12:41:11Z</time>
      </trkpt>
      <trkpt lat="43.31617" lon="5.63559">
        <ele>440.6</ele>
        <time>2022-03-27T12:41:22Z</time>
      </trkpt>
      <trkpt lat="43.31608" lon="5.63553">
        <ele>438.5</ele>
        <time>2022-03-27T12:41:39Z</time>
      </trkpt>
      <trkpt lat="43.31604" lon="5.63542">
        <ele>437.7</ele>
        <time>2022-03-27T12:41:49Z</time>
      </trkpt>
      <trkpt lat="43.316" lon="5.63529">
        <ele>436.6</ele>
        <time>2022-03-27T12:41:59Z</time>
      </trkpt>
      <trkpt lat="43.31602" lon="5.63515">
        <ele>435.6</ele>
        <time>2022-03-27T12:42:10Z</time>
      </trkpt>
      <trkpt lat="43.31601" lon="5.63503">
        <ele>434.2</ele>
        <time>2022-03-27T12:42:19Z</time>
      </trkpt>
      <trkpt lat="43.31606" lon="5.6349">
        <ele>432</ele>
        <time>2022-03-27T12:42:36Z</time>
      </trkpt>
      <trkpt lat="43.31617" lon="5.63487">
        <ele>432.3</ele>
        <time>2022-03-27T12:42:42Z</time>
      </trkpt>
      <trkpt lat="43.31624" lon="5.63478">
        <ele>431</ele>
        <time>2022-03-27T12:42:51Z</time>
      </trkpt>
      <trkpt lat="43.31624" lon="5.63465">
        <ele>429.1</ele>
        <time>2022-03-27T12:43:06Z</time>
      </trkpt>
      <trkpt lat="43.31624" lon="5.63453">
        <ele>426.2</ele>
        <time>2022-03-27T12:43:31Z</time>
      </trkpt>
      <trkpt lat="43.31623" lon="5.63439">
        <ele>424.3</ele>
        <time>2022-03-27T12:43:44Z</time>
      </trkpt>
      <trkpt lat="43.31624" lon="5.63426">
        <ele>422.1</ele>
        <time>2022-03-27T12:44:19Z</time>
      </trkpt>
      <trkpt lat="43.31631" lon="5.63419">
        <ele>419</ele>
        <time>2022-03-27T12:44:43Z</time>
      </trkpt>
      <trkpt lat="43.31638" lon="5.63411">
        <ele>417.9</ele>
        <time>2022-03-27T12:44:56Z</time>
      </trkpt>
      <trkpt lat="43.31639" lon="5.63399">
        <ele>415.6</ele>
        <time>2022-03-27T12:45:11Z</time>
      </trkpt>
      <trkpt lat="43.31635" lon="5.63387">
        <ele>413.2</ele>
        <time>2022-03-27T12:45:24Z</time>
      </trkpt>
      <trkpt lat="43.31629" lon="5.63377">
        <ele>411.2</ele>
        <time>2022-03-27T12:45:41Z</time>
      </trkpt>
      <trkpt lat="43.31624" lon="5.63366">
        <ele>410.2</ele>
        <time>2022-03-27T12:45:54Z</time>
      </trkpt>
      <trkpt lat="43.3162" lon="5.63355">
        <ele>408.6</ele>
        <time>2022-03-27T12:46:11Z</time>
      </trkpt>
      <trkpt lat="43.31615" lon="5.63344">
        <ele>406.6</ele>
        <time>2022-03-27T12:46:25Z</time>
      </trkpt>
      <trkpt lat="43.31615" lon="5.63331">
        <ele>405</ele>
        <time>2022-03-27T12:46:35Z</time>
      </trkpt>
      <trkpt lat="43.31612" lon="5.6332">
        <ele>402.2</ele>
        <time>2022-03-27T12:46:56Z</time>
      </trkpt>
      <trkpt lat="43.31607" lon="5.63309">
        <ele>399.4</ele>
        <time>2022-03-27T12:47:11Z</time>
      </trkpt>
      <trkpt lat="43.31606" lon="5.63296">
        <ele>396.7</ele>
        <time>2022-03-27T12:47:33Z</time>
      </trkpt>
      <trkpt lat="43.31604" lon="5.63284">
        <ele>394.1</ele>
        <time>2022-03-27T12:47:52Z</time>
      </trkpt>
      <trkpt lat="43.31601" lon="5.63272">
        <ele>392</ele>
        <time>2022-03-27T12:48:07Z</time>
      </trkpt>
      <trkpt lat="43.31595" lon="5.63262">
        <ele>389.7</ele>
        <time>2022-03-27T12:48:25Z</time>
      </trkpt>
      <trkpt lat="43.31593" lon="5.63249">
        <ele>387.1</ele>
        <time>2022-03-27T12:48:42Z</time>
      </trkpt>
      <trkpt lat="43.31585" lon="5.63239">
        <ele>385.8</ele>
        <time>2022-03-27T12:48:52Z</time>
      </trkpt>
      <trkpt lat="43.31578" lon="5.63231">
        <ele>384.5</ele>
        <time>2022-03-27T12:49:05Z</time>
      </trkpt>
      <trkpt lat="43.31576" lon="5.63219">
        <ele>383.2</ele>
        <time>2022-03-27T12:49:28Z</time>
      </trkpt>
      <trkpt lat="43.31577" lon="5.63206">
        <ele>381.3</ele>
        <time>2022-03-27T12:49:40Z</time>
      </trkpt>
      <trkpt lat="43.31584" lon="5.63197">
        <ele>379.1</ele>
        <time>2022-03-27T12:49:54Z</time>
      </trkpt>
      <trkpt lat="43.31592" lon="5.63192">
        <ele>377.6</ele>
        <time>2022-03-27T12:50:04Z</time>
      </trkpt>
      <trkpt lat="43.31601" lon="5.63185">
        <ele>376.2</ele>
        <time>2022-03-27T12:50:11Z</time>
      </trkpt>
      <trkpt lat="43.31605" lon="5.63174">
        <ele>374.7</ele>
        <time>2022-03-27T12:50:23Z</time>
      </trkpt>
      <trkpt lat="43.316" lon="5.63163">
        <ele>373.1</ele>
        <time>2022-03-27T12:50:31Z</time>
      </trkpt>
      <trkpt lat="43.31594" lon="5.63153">
        <ele>371.8</ele>
        <time>2022-03-27T12:50:39Z</time>
      </trkpt>
      <trkpt lat="43.31596" lon="5.6314">
        <ele>369.5</ele>
        <time>2022-03-27T12:50:56Z</time>
      </trkpt>
      <trkpt lat="43.31596" lon="5.63127">
        <ele>366.9</ele>
        <time>2022-03-27T12:51:09Z</time>
      </trkpt>
      <trkpt lat="43.31597" lon="5.63115">
        <ele>364.9</ele>
        <time>2022-03-27T12:51:20Z</time>
      </trkpt>
      <trkpt lat="43.31596" lon="5.63102">
        <ele>362.8</ele>
        <time>2022-03-27T12:51:31Z</time>
      </trkpt>
      <trkpt lat="43.31594" lon="5.6309">
        <ele>361</ele>
        <time>2022-03-27T12:51:42Z</time>
      </trkpt>
      <trkpt lat="43.31591" lon="5.63078">
        <ele>359.5</ele>
        <time>2022-03-27T12:51:52Z</time>
      </trkpt>
      <trkpt lat="43.3159" lon="5.63065">
        <ele>358.1</ele>
        <time>2022-03-27T12:52:01Z</time>
      </trkpt>
      <trkpt lat="43.31592" lon="5.63051">
        <ele>356.6</ele>
        <time>2022-03-27T12:52:11Z</time>
      </trkpt>
      <trkpt lat="43.31587" lon="5.63041">
        <ele>355</ele>
        <time>2022-03-27T12:52:21Z</time>
      </trkpt>
      <trkpt lat="43.31583" lon="5.63029">
        <ele>353.3</ele>
        <time>2022-03-27T12:52:32Z</time>
      </trkpt>
      <trkpt lat="43.31577" lon="5.6302">
        <ele>351.5</ele>
        <time>2022-03-27T12:52:43Z</time>
      </trkpt>
      <trkpt lat="43.31569" lon="5.63012">
        <ele>350.2</ele>
        <time>2022-03-27T12:52:53Z</time>
      </trkpt>
      <trkpt lat="43.3156" lon="5.63006">
        <ele>348.9</ele>
        <time>2022-03-27T12:53:02Z</time>
      </trkpt>
      <trkpt lat="43.31553" lon="5.62996">
        <ele>347.8</ele>
        <time>2022-03-27T12:53:11Z</time>
      </trkpt>
      <trkpt lat="43.31545" lon="5.62987">
        <ele>347.5</ele>
        <time>2022-03-27T12:53:22Z</time>
      </trkpt>
      <trkpt lat="43.3154" lon="5.62977">
        <ele>346.2</ele>
        <time>2022-03-27T12:53:43Z</time>
      </trkpt>
      <trkpt lat="43.31538" lon="5.62964">
        <ele>344.7</ele>
        <time>2022-03-27T12:54:25Z</time>
      </trkpt>
      <trkpt lat="43.31536" lon="5.62951">
        <ele>343.3</ele>
        <time>2022-03-27T12:54:37Z</time>
      </trkpt>
      <trkpt lat="43.31533" lon="5.62939">
        <ele>341.7</ele>
        <time>2022-03-27T12:54:45Z</time>
      </trkpt>
      <trkpt lat="43.3153" lon="5.62927">
        <ele>339.9</ele>
        <time>2022-03-27T12:54:54Z</time>
      </trkpt>
      <trkpt lat="43.31525" lon="5.62916">
        <ele>338.4</ele>
        <time>2022-03-27T12:55:02Z</time>
      </trkpt>
      <trkpt lat="43.31516" lon="5.62909">
        <ele>336.9</ele>
        <time>2022-03-27T12:55:10Z</time>
      </trkpt>
      <trkpt lat="43.31511" lon="5.62898">
        <ele>335</ele>
        <time>2022-03-27T12:55:21Z</time>
      </trkpt>
      <trkpt lat="43.31518" lon="5.62889">
        <ele>333.4</ele>
        <time>2022-03-27T12:55:29Z</time>
      </trkpt>
      <trkpt lat="43.31518" lon="5.62876">
        <ele>330.6</ele>
        <time>2022-03-27T12:55:39Z</time>
      </trkpt>
      <trkpt lat="43.31525" lon="5.62867">
        <ele>329</ele>
        <time>2022-03-27T12:55:46Z</time>
      </trkpt>
      <trkpt lat="43.31521" lon="5.62855">
        <ele>327.3</ele>
        <time>2022-03-27T12:55:55Z</time>
      </trkpt>
      <trkpt lat="43.31513" lon="5.62846">
        <ele>326.1</ele>
        <time>2022-03-27T12:56:06Z</time>
      </trkpt>
      <trkpt lat="43.31506" lon="5.62838">
        <ele>324.7</ele>
        <time>2022-03-27T12:56:20Z</time>
      </trkpt>
      <trkpt lat="43.31498" lon="5.62831">
        <ele>322</ele>
        <time>2022-03-27T12:56:55Z</time>
      </trkpt>
      <trkpt lat="43.31503" lon="5.6282">
        <ele>319.9</ele>
        <time>2022-03-27T12:57:11Z</time>
      </trkpt>
      <trkpt lat="43.31512" lon="5.62821">
        <ele>319</ele>
        <time>2022-03-27T12:57:39Z</time>
      </trkpt>
      <trkpt lat="43.31509" lon="5.62808">
        <ele>314.9</ele>
        <time>2022-03-27T12:58:03Z</time>
      </trkpt>
      <trkpt lat="43.31511" lon="5.62795">
        <ele>313.9</ele>
        <time>2022-03-27T12:58:11Z</time>
      </trkpt>
      <trkpt lat="43.31508" lon="5.62784">
        <ele>312.1</ele>
        <time>2022-03-27T12:58:20Z</time>
      </trkpt>
      <trkpt lat="43.31508" lon="5.62771">
        <ele>310.4</ele>
        <time>2022-03-27T12:58:28Z</time>
      </trkpt>
      <trkpt lat="43.31511" lon="5.62758">
        <ele>308.8</ele>
        <time>2022-03-27T12:58:36Z</time>
      </trkpt>
      <trkpt lat="43.3152" lon="5.62754">
        <ele>307.2</ele>
        <time>2022-03-27T12:58:43Z</time>
      </trkpt>
      <trkpt lat="43.31527" lon="5.62743">
        <ele>305.5</ele>
        <time>2022-03-27T12:58:51Z</time>
      </trkpt>
      <trkpt lat="43.3153" lon="5.62732">
        <ele>304.2</ele>
        <time>2022-03-27T12:58:58Z</time>
      </trkpt>
      <trkpt lat="43.31527" lon="5.62719">
        <ele>302.6</ele>
        <time>2022-03-27T12:59:05Z</time>
      </trkpt>
      <trkpt lat="43.31528" lon="5.62706">
        <ele>301.2</ele>
        <time>2022-03-27T12:59:16Z</time>
      </trkpt>
      <trkpt lat="43.31529" lon="5.62693">
        <ele>299.8</ele>
        <time>2022-03-27T12:59:26Z</time>
      </trkpt>
      <trkpt lat="43.31528" lon="5.6268">
        <ele>298.8</ele>
        <time>2022-03-27T12:59:36Z</time>
      </trkpt>
      <trkpt lat="43.31525" lon="5.62668">
        <ele>297.4</ele>
        <time>2022-03-27T12:59:46Z</time>
      </trkpt>
      <trkpt lat="43.31522" lon="5.62656">
        <ele>296.3</ele>
        <time>2022-03-27T12:59:54Z</time>
      </trkpt>
      <trkpt lat="43.31521" lon="5.62643">
        <ele>295.1</ele>
        <time>2022-03-27T13:00:05Z</time>
      </trkpt>
      <trkpt lat="43.3152" lon="5.6263">
        <ele>293.9</ele>
        <time>2022-03-27T13:00:18Z</time>
      </trkpt>
      <trkpt lat="43.31523" lon="5.62618">
        <ele>292.8</ele>
        <time>2022-03-27T13:00:27Z</time>
      </trkpt>
      <trkpt lat="43.31528" lon="5.62607">
        <ele>292.2</ele>
        <time>2022-03-27T13:00:35Z</time>
      </trkpt>
      <trkpt lat="43.31533" lon="5.62596">
        <ele>290.8</ele>
        <time>2022-03-27T13:00:44Z</time>
      </trkpt>
      <trkpt lat="43.31535" lon="5.62583">
        <ele>289.7</ele>
        <time>2022-03-27T13:00:53Z</time>
      </trkpt>
      <trkpt lat="43.31532" lon="5.62571">
        <ele>288.5</ele>
        <time>2022-03-27T13:01:02Z</time>
      </trkpt>
      <trkpt lat="43.31534" lon="5.62557">
        <ele>287.2</ele>
        <time>2022-03-27T13:01:10Z</time>
      </trkpt>
      <trkpt lat="43.31536" lon="5.62545">
        <ele>285.9</ele>
        <time>2022-03-27T13:01:19Z</time>
      </trkpt>
      <trkpt lat="43.31532" lon="5.62533">
        <ele>285.3</ele>
        <time>2022-03-27T13:01:26Z</time>
      </trkpt>
      <trkpt lat="43.31524" lon="5.62526">
        <ele>285.1</ele>
        <time>2022-03-27T13:01:32Z</time>
      </trkpt>
      <trkpt lat="43.31516" lon="5.62521">
        <ele>284</ele>
        <time>2022-03-27T13:01:39Z</time>
      </trkpt>
      <trkpt lat="43.31507" lon="5.62514">
        <ele>283.2</ele>
        <time>2022-03-27T13:01:47Z</time>
      </trkpt>
      <trkpt lat="43.31502" lon="5.62504">
        <ele>281.5</ele>
        <time>2022-03-27T13:01:56Z</time>
      </trkpt>
      <trkpt lat="43.31498" lon="5.62491">
        <ele>279.7</ele>
        <time>2022-03-27T13:02:07Z</time>
      </trkpt>
      <trkpt lat="43.31499" lon="5.62477">
        <ele>278.6</ele>
        <time>2022-03-27T13:02:18Z</time>
      </trkpt>
      <trkpt lat="43.31499" lon="5.62464">
        <ele>277.9</ele>
        <time>2022-03-27T13:02:26Z</time>
      </trkpt>
      <trkpt lat="43.31501" lon="5.62452">
        <ele>276.3</ele>
        <time>2022-03-27T13:02:35Z</time>
      </trkpt>
      <trkpt lat="43.31502" lon="5.62439">
        <ele>274.7</ele>
        <time>2022-03-27T13:02:46Z</time>
      </trkpt>
      <trkpt lat="43.31503" lon="5.62427">
        <ele>273.6</ele>
        <time>2022-03-27T13:02:55Z</time>
      </trkpt>
      <trkpt lat="43.31502" lon="5.62413">
        <ele>271.9</ele>
        <time>2022-03-27T13:03:05Z</time>
      </trkpt>
      <trkpt lat="43.31501" lon="5.624">
        <ele>270.9</ele>
        <time>2022-03-27T13:03:13Z</time>
      </trkpt>
      <trkpt lat="43.31497" lon="5.62388">
        <ele>269.3</ele>
        <time>2022-03-27T13:03:22Z</time>
      </trkpt>
      <trkpt lat="43.31494" lon="5.62375">
        <ele>267.8</ele>
        <time>2022-03-27T13:03:33Z</time>
      </trkpt>
      <trkpt lat="43.31488" lon="5.62366">
        <ele>267</ele>
        <time>2022-03-27T13:03:42Z</time>
      </trkpt>
      <trkpt lat="43.3148" lon="5.62358">
        <ele>266.1</ele>
        <time>2022-03-27T13:03:50Z</time>
      </trkpt>
      <trkpt lat="43.31472" lon="5.62349">
        <ele>265.6</ele>
        <time>2022-03-27T13:03:57Z</time>
      </trkpt>
      <trkpt lat="43.31466" lon="5.62339">
        <ele>264.9</ele>
        <time>2022-03-27T13:04:05Z</time>
      </trkpt>
      <trkpt lat="43.31463" lon="5.62327">
        <ele>264.3</ele>
        <time>2022-03-27T13:04:13Z</time>
      </trkpt>
      <trkpt lat="43.31455" lon="5.6232">
        <ele>263.9</ele>
        <time>2022-03-27T13:04:20Z</time>
      </trkpt>
      <trkpt lat="43.31445" lon="5.62316">
        <ele>263.4</ele>
        <time>2022-03-27T13:04:28Z</time>
      </trkpt>
      <trkpt lat="43.31437" lon="5.62311">
        <ele>262.3</ele>
        <time>2022-03-27T13:04:36Z</time>
      </trkpt>
      <trkpt lat="43.31428" lon="5.62306">
        <ele>261.2</ele>
        <time>2022-03-27T13:04:45Z</time>
      </trkpt>
      <trkpt lat="43.3142" lon="5.623">
        <ele>260.1</ele>
        <time>2022-03-27T13:04:54Z</time>
      </trkpt>
      <trkpt lat="43.31411" lon="5.62294">
        <ele>259.1</ele>
        <time>2022-03-27T13:05:04Z</time>
      </trkpt>
      <trkpt lat="43.31403" lon="5.62289">
        <ele>258.3</ele>
        <time>2022-03-27T13:05:13Z</time>
      </trkpt>
      <trkpt lat="43.31397" lon="5.62277">
        <ele>257.2</ele>
        <time>2022-03-27T13:05:23Z</time>
      </trkpt>
      <trkpt lat="43.31393" lon="5.62266">
        <ele>256.2</ele>
        <time>2022-03-27T13:05:32Z</time>
      </trkpt>
      <trkpt lat="43.31386" lon="5.62257">
        <ele>255.3</ele>
        <time>2022-03-27T13:05:41Z</time>
      </trkpt>
      <trkpt lat="43.3138" lon="5.62247">
        <ele>254.1</ele>
        <time>2022-03-27T13:05:51Z</time>
      </trkpt>
      <trkpt lat="43.31371" lon="5.62243">
        <ele>252.9</ele>
        <time>2022-03-27T13:06:01Z</time>
      </trkpt>
      <trkpt lat="43.31363" lon="5.62236">
        <ele>251.9</ele>
        <time>2022-03-27T13:06:11Z</time>
      </trkpt>
      <trkpt lat="43.31356" lon="5.62227">
        <ele>251.3</ele>
        <time>2022-03-27T13:06:19Z</time>
      </trkpt>
      <trkpt lat="43.31349" lon="5.62218">
        <ele>250.4</ele>
        <time>2022-03-27T13:06:28Z</time>
      </trkpt>
      <trkpt lat="43.31347" lon="5.62206">
        <ele>248.9</ele>
        <time>2022-03-27T13:06:40Z</time>
      </trkpt>
      <trkpt lat="43.31345" lon="5.62193">
        <ele>247.4</ele>
        <time>2022-03-27T13:06:50Z</time>
      </trkpt>
      <trkpt lat="43.31341" lon="5.62181">
        <ele>246.4</ele>
        <time>2022-03-27T13:06:59Z</time>
      </trkpt>
      <trkpt lat="43.31337" lon="5.62169">
        <ele>245.7</ele>
        <time>2022-03-27T13:07:08Z</time>
      </trkpt>
      <trkpt lat="43.31333" lon="5.62157">
        <ele>245.7</ele>
        <time>2022-03-27T13:07:17Z</time>
      </trkpt>
      <trkpt lat="43.31325" lon="5.62149">
        <ele>244.6</ele>
        <time>2022-03-27T13:07:26Z</time>
      </trkpt>
      <trkpt lat="43.31317" lon="5.62142">
        <ele>244</ele>
        <time>2022-03-27T13:07:34Z</time>
      </trkpt>
      <trkpt lat="43.31309" lon="5.62134">
        <ele>243.8</ele>
        <time>2022-03-27T13:07:41Z</time>
      </trkpt>
      <trkpt lat="43.313" lon="5.62126">
        <ele>243.5</ele>
        <time>2022-03-27T13:07:48Z</time>
      </trkpt>
      <trkpt lat="43.31293" lon="5.62118">
        <ele>243.1</ele>
        <time>2022-03-27T13:07:57Z</time>
      </trkpt>
      <trkpt lat="43.31287" lon="5.62109">
        <ele>242.9</ele>
        <time>2022-03-27T13:08:04Z</time>
      </trkpt>
      <trkpt lat="43.31283" lon="5.62096">
        <ele>242.9</ele>
        <time>2022-03-27T13:08:12Z</time>
      </trkpt>
      <trkpt lat="43.31282" lon="5.62083">
        <ele>242.9</ele>
        <time>2022-03-27T13:08:19Z</time>
      </trkpt>
      <trkpt lat="43.31282" lon="5.6207">
        <ele>242.3</ele>
        <time>2022-03-27T13:08:29Z</time>
      </trkpt>
      <trkpt lat="43.31285" lon="5.62057">
        <ele>242.1</ele>
        <time>2022-03-27T13:08:36Z</time>
      </trkpt>
      <trkpt lat="43.31289" lon="5.62044">
        <ele>241.7</ele>
        <time>2022-03-27T13:08:45Z</time>
      </trkpt>
      <trkpt lat="43.31288" lon="5.62031">
        <ele>241</ele>
        <time>2022-03-27T13:08:52Z</time>
      </trkpt>
      <trkpt lat="43.31288" lon="5.62017">
        <ele>240.2</ele>
        <time>2022-03-27T13:09:00Z</time>
      </trkpt>
      <trkpt lat="43.31284" lon="5.62005">
        <ele>240.3</ele>
        <time>2022-03-27T13:09:08Z</time>
      </trkpt>
      <trkpt lat="43.31277" lon="5.61995">
        <ele>241</ele>
        <time>2022-03-27T13:09:16Z</time>
      </trkpt>
      <trkpt lat="43.3127" lon="5.61986">
        <ele>241.8</ele>
        <time>2022-03-27T13:09:25Z</time>
      </trkpt>
      <trkpt lat="43.31266" lon="5.61974">
        <ele>242.7</ele>
        <time>2022-03-27T13:09:34Z</time>
      </trkpt>
      <trkpt lat="43.3126" lon="5.61964">
        <ele>243.9</ele>
        <time>2022-03-27T13:09:46Z</time>
      </trkpt>
      <trkpt lat="43.31252" lon="5.61957">
        <ele>245.6</ele>
        <time>2022-03-27T13:09:55Z</time>
      </trkpt>
      <trkpt lat="43.31246" lon="5.61947">
        <ele>247.3</ele>
        <time>2022-03-27T13:10:05Z</time>
      </trkpt>
      <trkpt lat="43.31239" lon="5.61938">
        <ele>248.9</ele>
        <time>2022-03-27T13:10:17Z</time>
      </trkpt>
      <trkpt lat="43.31231" lon="5.6193">
        <ele>250.4</ele>
        <time>2022-03-27T13:10:28Z</time>
      </trkpt>
      <trkpt lat="43.31222" lon="5.61923">
        <ele>252.1</ele>
        <time>2022-03-27T13:10:38Z</time>
      </trkpt>
      <trkpt lat="43.31213" lon="5.61925">
        <ele>253.3</ele>
        <time>2022-03-27T13:10:52Z</time>
      </trkpt>
      <trkpt lat="43.31204" lon="5.61929">
        <ele>253.6</ele>
        <time>2022-03-27T13:11:05Z</time>
      </trkpt>
      <trkpt lat="43.31195" lon="5.61929">
        <ele>253.1</ele>
        <time>2022-03-27T13:11:22Z</time>
      </trkpt>
      <trkpt lat="43.31197" lon="5.61917">
        <ele>249.7</ele>
        <time>2022-03-27T13:14:53Z</time>
      </trkpt>
      <trkpt lat="43.31199" lon="5.61904">
        <ele>247.9</ele>
        <time>2022-03-27T13:15:06Z</time>
      </trkpt>
      <trkpt lat="43.31204" lon="5.61892">
        <ele>246.6</ele>
        <time>2022-03-27T13:15:19Z</time>
      </trkpt>
      <trkpt lat="43.31208" lon="5.6188">
        <ele>245.8</ele>
        <time>2022-03-27T13:15:28Z</time>
      </trkpt>
      <trkpt lat="43.31213" lon="5.6187">
        <ele>245.1</ele>
        <time>2022-03-27T13:15:36Z</time>
      </trkpt>
      <trkpt lat="43.31219" lon="5.6186">
        <ele>244.8</ele>
        <time>2022-03-27T13:15:44Z</time>
      </trkpt>
      <trkpt lat="43.31222" lon="5.61847">
        <ele>244.7</ele>
        <time>2022-03-27T13:15:52Z</time>
      </trkpt>
      <trkpt lat="43.31226" lon="5.61836">
        <ele>245.3</ele>
        <time>2022-03-27T13:16:01Z</time>
      </trkpt>
      <trkpt lat="43.31229" lon="5.61822">
        <ele>246</ele>
        <time>2022-03-27T13:16:09Z</time>
      </trkpt>
      <trkpt lat="43.31232" lon="5.6181">
        <ele>246.2</ele>
        <time>2022-03-27T13:16:18Z</time>
      </trkpt>
      <trkpt lat="43.31236" lon="5.61798">
        <ele>246.6</ele>
        <time>2022-03-27T13:16:26Z</time>
      </trkpt>
      <trkpt lat="43.31242" lon="5.61788">
        <ele>247.6</ele>
        <time>2022-03-27T13:16:34Z</time>
      </trkpt>
      <trkpt lat="43.31246" lon="5.61777">
        <ele>248.8</ele>
        <time>2022-03-27T13:16:42Z</time>
      </trkpt>
      <trkpt lat="43.3125" lon="5.61764">
        <ele>249.4</ele>
        <time>2022-03-27T13:16:51Z</time>
      </trkpt>
      <trkpt lat="43.31252" lon="5.61752">
        <ele>249.4</ele>
        <time>2022-03-27T13:16:58Z</time>
      </trkpt>
      <trkpt lat="43.31253" lon="5.61739">
        <ele>249</ele>
        <time>2022-03-27T13:17:06Z</time>
      </trkpt>
      <trkpt lat="43.31259" lon="5.61729">
        <ele>248.4</ele>
        <time>2022-03-27T13:17:14Z</time>
      </trkpt>
      <trkpt lat="43.31267" lon="5.61722">
        <ele>248.1</ele>
        <time>2022-03-27T13:17:25Z</time>
      </trkpt>
      <trkpt lat="43.31272" lon="5.61711">
        <ele>248.8</ele>
        <time>2022-03-27T13:17:50Z</time>
      </trkpt>
      <trkpt lat="43.31279" lon="5.61703">
        <ele>249.7</ele>
        <time>2022-03-27T13:17:59Z</time>
      </trkpt>
      <trkpt lat="43.31286" lon="5.61696">
        <ele>251.1</ele>
        <time>2022-03-27T13:18:08Z</time>
      </trkpt>
      <trkpt lat="43.31295" lon="5.61688">
        <ele>253.2</ele>
        <time>2022-03-27T13:18:18Z</time>
      </trkpt>
      <trkpt lat="43.31302" lon="5.6168">
        <ele>254.7</ele>
        <time>2022-03-27T13:18:27Z</time>
      </trkpt>
      <trkpt lat="43.3131" lon="5.61672">
        <ele>256.1</ele>
        <time>2022-03-27T13:18:37Z</time>
      </trkpt>
      <trkpt lat="43.31318" lon="5.61666">
        <ele>257.8</ele>
        <time>2022-03-27T13:18:47Z</time>
      </trkpt>
      <trkpt lat="43.31327" lon="5.61661">
        <ele>259.9</ele>
        <time>2022-03-27T13:19:00Z</time>
      </trkpt>
      <trkpt lat="43.31336" lon="5.61658">
        <ele>261.3</ele>
        <time>2022-03-27T13:19:14Z</time>
      </trkpt>
      <trkpt lat="43.31344" lon="5.61662">
        <ele>260.6</ele>
        <time>2022-03-27T13:20:07Z</time>
      </trkpt>
      <trkpt lat="43.31354" lon="5.61667">
        <ele>261.2</ele>
        <time>2022-03-27T13:20:17Z</time>
      </trkpt>
      <trkpt lat="43.31362" lon="5.61672">
        <ele>261.7</ele>
        <time>2022-03-27T13:20:26Z</time>
      </trkpt>
      <trkpt lat="43.31371" lon="5.61678">
        <ele>262.6</ele>
        <time>2022-03-27T13:20:35Z</time>
      </trkpt>
      <trkpt lat="43.3138" lon="5.61682">
        <ele>263</ele>
        <time>2022-03-27T13:20:43Z</time>
      </trkpt>
      <trkpt lat="43.31389" lon="5.61684">
        <ele>263.7</ele>
        <time>2022-03-27T13:20:51Z</time>
      </trkpt>
      <trkpt lat="43.314" lon="5.61682">
        <ele>264</ele>
        <time>2022-03-27T13:20:59Z</time>
      </trkpt>
      <trkpt lat="43.31408" lon="5.61677">
        <ele>264.5</ele>
        <time>2022-03-27T13:21:06Z</time>
      </trkpt>
      <trkpt lat="43.31417" lon="5.6167">
        <ele>264.5</ele>
        <time>2022-03-27T13:21:15Z</time>
      </trkpt>
      <trkpt lat="43.31425" lon="5.61663">
        <ele>265.2</ele>
        <time>2022-03-27T13:21:23Z</time>
      </trkpt>
      <trkpt lat="43.31434" lon="5.61657">
        <ele>265.6</ele>
        <time>2022-03-27T13:21:32Z</time>
      </trkpt>
      <trkpt lat="43.31443" lon="5.61654">
        <ele>266.1</ele>
        <time>2022-03-27T13:21:40Z</time>
      </trkpt>
      <trkpt lat="43.31452" lon="5.61648">
        <ele>266.8</ele>
        <time>2022-03-27T13:21:48Z</time>
      </trkpt>
      <trkpt lat="43.31459" lon="5.61639">
        <ele>267.1</ele>
        <time>2022-03-27T13:22:01Z</time>
      </trkpt>
      <trkpt lat="43.31465" lon="5.6163">
        <ele>267.6</ele>
        <time>2022-03-27T13:22:10Z</time>
      </trkpt>
      <trkpt lat="43.3147" lon="5.6162">
        <ele>268.7</ele>
        <time>2022-03-27T13:22:19Z</time>
      </trkpt>
      <trkpt lat="43.31477" lon="5.61611">
        <ele>269.7</ele>
        <time>2022-03-27T13:22:29Z</time>
      </trkpt>
      <trkpt lat="43.31486" lon="5.61611">
        <ele>270.3</ele>
        <time>2022-03-27T13:22:40Z</time>
      </trkpt>
      <trkpt lat="43.31495" lon="5.61617">
        <ele>271.4</ele>
        <time>2022-03-27T13:22:53Z</time>
      </trkpt>
      <trkpt lat="43.31501" lon="5.61625">
        <ele>272.6</ele>
        <time>2022-03-27T13:23:04Z</time>
      </trkpt>
      <trkpt lat="43.31508" lon="5.61635">
        <ele>273.1</ele>
        <time>2022-03-27T13:23:15Z</time>
      </trkpt>
      <trkpt lat="43.31514" lon="5.61644">
        <ele>274.3</ele>
        <time>2022-03-27T13:23:27Z</time>
      </trkpt>
      <trkpt lat="43.31519" lon="5.61655">
        <ele>275.3</ele>
        <time>2022-03-27T13:23:38Z</time>
      </trkpt>
      <trkpt lat="43.31524" lon="5.61667">
        <ele>275.8</ele>
        <time>2022-03-27T13:23:49Z</time>
      </trkpt>
      <trkpt lat="43.31529" lon="5.61678">
        <ele>277.2</ele>
        <time>2022-03-27T13:24:04Z</time>
      </trkpt>
      <trkpt lat="43.31532" lon="5.61689">
        <ele>277.7</ele>
        <time>2022-03-27T13:24:15Z</time>
      </trkpt>
      <trkpt lat="43.31536" lon="5.61701">
        <ele>278.6</ele>
        <time>2022-03-27T13:24:24Z</time>
      </trkpt>
      <trkpt lat="43.3154" lon="5.61713">
        <ele>280.4</ele>
        <time>2022-03-27T13:24:35Z</time>
      </trkpt>
      <trkpt lat="43.31544" lon="5.61724">
        <ele>281.8</ele>
        <time>2022-03-27T13:24:47Z</time>
      </trkpt>
      <trkpt lat="43.31551" lon="5.61734">
        <ele>283.5</ele>
        <time>2022-03-27T13:24:58Z</time>
      </trkpt>
      <trkpt lat="43.31556" lon="5.61745">
        <ele>285.3</ele>
        <time>2022-03-27T13:25:09Z</time>
      </trkpt>
      <trkpt lat="43.31564" lon="5.61752">
        <ele>286</ele>
        <time>2022-03-27T13:25:21Z</time>
      </trkpt>
      <trkpt lat="43.31573" lon="5.61754">
        <ele>287.8</ele>
        <time>2022-03-27T13:25:33Z</time>
      </trkpt>
      <trkpt lat="43.31582" lon="5.6175">
        <ele>289.1</ele>
        <time>2022-03-27T13:25:42Z</time>
      </trkpt>
      <trkpt lat="43.31592" lon="5.61751">
        <ele>289.5</ele>
        <time>2022-03-27T13:25:51Z</time>
      </trkpt>
      <trkpt lat="43.31601" lon="5.61754">
        <ele>290.1</ele>
        <time>2022-03-27T13:26:00Z</time>
      </trkpt>
      <trkpt lat="43.3161" lon="5.61757">
        <ele>291.4</ele>
        <time>2022-03-27T13:26:12Z</time>
      </trkpt>
      <trkpt lat="43.31619" lon="5.61761">
        <ele>292.6</ele>
        <time>2022-03-27T13:26:24Z</time>
      </trkpt>
      <trkpt lat="43.31628" lon="5.61767">
        <ele>294.4</ele>
        <time>2022-03-27T13:26:36Z</time>
      </trkpt>
      <trkpt lat="43.31635" lon="5.61776">
        <ele>295.8</ele>
        <time>2022-03-27T13:26:48Z</time>
      </trkpt>
      <trkpt lat="43.31641" lon="5.61787">
        <ele>297.1</ele>
        <time>2022-03-27T13:26:59Z</time>
      </trkpt>
      <trkpt lat="43.31646" lon="5.61797">
        <ele>298.8</ele>
        <time>2022-03-27T13:27:11Z</time>
      </trkpt>
      <trkpt lat="43.31652" lon="5.61807">
        <ele>300.7</ele>
        <time>2022-03-27T13:27:23Z</time>
      </trkpt>
      <trkpt lat="43.31658" lon="5.61817">
        <ele>302.7</ele>
        <time>2022-03-27T13:27:35Z</time>
      </trkpt>
      <trkpt lat="43.31665" lon="5.61826">
        <ele>303.7</ele>
        <time>2022-03-27T13:27:46Z</time>
      </trkpt>
      <trkpt lat="43.31671" lon="5.61835">
        <ele>305.3</ele>
        <time>2022-03-27T13:28:02Z</time>
      </trkpt>
      <trkpt lat="43.31677" lon="5.61845">
        <ele>306.1</ele>
        <time>2022-03-27T13:28:35Z</time>
      </trkpt>
      <trkpt lat="43.31682" lon="5.61856">
        <ele>307.4</ele>
        <time>2022-03-27T13:28:50Z</time>
      </trkpt>
      <trkpt lat="43.31687" lon="5.61866">
        <ele>308.3</ele>
        <time>2022-03-27T13:29:00Z</time>
      </trkpt>
      <trkpt lat="43.31691" lon="5.61877">
        <ele>312</ele>
        <time>2022-03-27T13:29:14Z</time>
      </trkpt>
      <trkpt lat="43.31697" lon="5.61888">
        <ele>313.8</ele>
        <time>2022-03-27T13:29:28Z</time>
      </trkpt>
      <trkpt lat="43.31702" lon="5.61899">
        <ele>314.6</ele>
        <time>2022-03-27T13:29:41Z</time>
      </trkpt>
      <trkpt lat="43.31702" lon="5.61912">
        <ele>316.3</ele>
        <time>2022-03-27T13:29:54Z</time>
      </trkpt>
      <trkpt lat="43.31702" lon="5.61924">
        <ele>319.2</ele>
        <time>2022-03-27T13:30:11Z</time>
      </trkpt>
      <trkpt lat="43.31699" lon="5.61936">
        <ele>321.3</ele>
        <time>2022-03-27T13:30:25Z</time>
      </trkpt>
      <trkpt lat="43.31694" lon="5.61948">
        <ele>321.9</ele>
        <time>2022-03-27T13:30:41Z</time>
      </trkpt>
      <trkpt lat="43.31693" lon="5.6196">
        <ele>322.9</ele>
        <time>2022-03-27T13:30:53Z</time>
      </trkpt>
      <trkpt lat="43.31692" lon="5.61973">
        <ele>324.4</ele>
        <time>2022-03-27T13:31:05Z</time>
      </trkpt>
      <trkpt lat="43.31694" lon="5.61986">
        <ele>325.9</ele>
        <time>2022-03-27T13:31:17Z</time>
      </trkpt>
      <trkpt lat="43.31696" lon="5.61999">
        <ele>327.2</ele>
        <time>2022-03-27T13:31:30Z</time>
      </trkpt>
      <trkpt lat="43.31698" lon="5.62012">
        <ele>328.8</ele>
        <time>2022-03-27T13:31:41Z</time>
      </trkpt>
      <trkpt lat="43.317" lon="5.62024">
        <ele>330.7</ele>
        <time>2022-03-27T13:31:52Z</time>
      </trkpt>
      <trkpt lat="43.317" lon="5.62037">
        <ele>332.3</ele>
        <time>2022-03-27T13:32:05Z</time>
      </trkpt>
      <trkpt lat="43.317" lon="5.6205">
        <ele>334.1</ele>
        <time>2022-03-27T13:32:18Z</time>
      </trkpt>
      <trkpt lat="43.31698" lon="5.62063">
        <ele>336.2</ele>
        <time>2022-03-27T13:32:32Z</time>
      </trkpt>
      <trkpt lat="43.31695" lon="5.62075">
        <ele>338.1</ele>
        <time>2022-03-27T13:32:49Z</time>
      </trkpt>
      <trkpt lat="43.31691" lon="5.62086">
        <ele>341.2</ele>
        <time>2022-03-27T13:33:06Z</time>
      </trkpt>
      <trkpt lat="43.31689" lon="5.62099">
        <ele>344.8</ele>
        <time>2022-03-27T13:33:27Z</time>
      </trkpt>
      <trkpt lat="43.3169" lon="5.62111">
        <ele>347</ele>
        <time>2022-03-27T13:33:42Z</time>
      </trkpt>
      <trkpt lat="43.31693" lon="5.62123">
        <ele>348.9</ele>
        <time>2022-03-27T13:33:55Z</time>
      </trkpt>
      <trkpt lat="43.31692" lon="5.62136">
        <ele>350.6</ele>
        <time>2022-03-27T13:34:06Z</time>
      </trkpt>
      <trkpt lat="43.31687" lon="5.62147">
        <ele>353.4</ele>
        <time>2022-03-27T13:34:19Z</time>
      </trkpt>
      <trkpt lat="43.31679" lon="5.62153">
        <ele>355.8</ele>
        <time>2022-03-27T13:34:33Z</time>
      </trkpt>
      <trkpt lat="43.31669" lon="5.62154">
        <ele>358.3</ele>
        <time>2022-03-27T13:34:48Z</time>
      </trkpt>
      <trkpt lat="43.31661" lon="5.62149">
        <ele>360.3</ele>
        <time>2022-03-27T13:35:01Z</time>
      </trkpt>
      <trkpt lat="43.31652" lon="5.62147">
        <ele>362.8</ele>
        <time>2022-03-27T13:35:14Z</time>
      </trkpt>
      <trkpt lat="43.31642" lon="5.62145">
        <ele>362.6</ele>
        <time>2022-03-27T13:35:25Z</time>
      </trkpt>
      <trkpt lat="43.31635" lon="5.62137">
        <ele>362.4</ele>
        <time>2022-03-27T13:35:34Z</time>
      </trkpt>
      <trkpt lat="43.31626" lon="5.6213">
        <ele>363</ele>
        <time>2022-03-27T13:35:45Z</time>
      </trkpt>
      <trkpt lat="43.31619" lon="5.62122">
        <ele>366.3</ele>
        <time>2022-03-27T13:36:00Z</time>
      </trkpt>
      <trkpt lat="43.31613" lon="5.62112">
        <ele>369.4</ele>
        <time>2022-03-27T13:36:22Z</time>
      </trkpt>
      <trkpt lat="43.31606" lon="5.62104">
        <ele>371</ele>
        <time>2022-03-27T13:36:35Z</time>
      </trkpt>
      <trkpt lat="43.31599" lon="5.62095">
        <ele>372.5</ele>
        <time>2022-03-27T13:36:46Z</time>
      </trkpt>
      <trkpt lat="43.31591" lon="5.62087">
        <ele>373.9</ele>
        <time>2022-03-27T13:36:57Z</time>
      </trkpt>
      <trkpt lat="43.31583" lon="5.6208">
        <ele>373.8</ele>
        <time>2022-03-27T13:37:08Z</time>
      </trkpt>
      <trkpt lat="43.31574" lon="5.62076">
        <ele>372.7</ele>
        <time>2022-03-27T13:37:16Z</time>
      </trkpt>
      <trkpt lat="43.31566" lon="5.62069">
        <ele>372.5</ele>
        <time>2022-03-27T13:37:24Z</time>
      </trkpt>
      <trkpt lat="43.31574" lon="5.62064">
        <ele>376.1</ele>
        <time>2022-03-27T13:37:50Z</time>
      </trkpt>
      <trkpt lat="43.31584" lon="5.62064">
        <ele>378.3</ele>
        <time>2022-03-27T13:38:07Z</time>
      </trkpt>
      <trkpt lat="43.31591" lon="5.62071">
        <ele>377.5</ele>
        <time>2022-03-27T13:39:59Z</time>
      </trkpt>
      <trkpt lat="43.31595" lon="5.62083">
        <ele>377.8</ele>
        <time>2022-03-27T13:40:24Z</time>
      </trkpt>
      <trkpt lat="43.31588" lon="5.62074">
        <ele>377.7</ele>
        <time>2022-03-27T13:41:33Z</time>
      </trkpt>
      <trkpt lat="43.31597" lon="5.62073">
        <ele>378</ele>
        <time>2022-03-27T13:42:26Z</time>
      </trkpt>
      <trkpt lat="43.31591" lon="5.62064">
        <ele>377.3</ele>
        <time>2022-03-27T13:51:59Z</time>
      </trkpt>
      <trkpt lat="43.31581" lon="5.62062">
        <ele>377.4</ele>
        <time>2022-03-27T13:53:09Z</time>
      </trkpt>
      <trkpt lat="43.31572" lon="5.6206">
        <ele>375.8</ele>
        <time>2022-03-27T13:53:30Z</time>
      </trkpt>
      <trkpt lat="43.31566" lon="5.62069">
        <ele>371.9</ele>
        <time>2022-03-27T13:53:54Z</time>
      </trkpt>
      <trkpt lat="43.31574" lon="5.62075">
        <ele>371.1</ele>
        <time>2022-03-27T13:54:04Z</time>
      </trkpt>
      <trkpt lat="43.31582" lon="5.62081">
        <ele>372</ele>
        <time>2022-03-27T13:54:15Z</time>
      </trkpt>
      <trkpt lat="43.3159" lon="5.62088">
        <ele>373.5</ele>
        <time>2022-03-27T13:54:25Z</time>
      </trkpt>
      <trkpt lat="43.31597" lon="5.62097">
        <ele>373.1</ele>
        <time>2022-03-27T13:54:39Z</time>
      </trkpt>
      <trkpt lat="43.31604" lon="5.62105">
        <ele>372.2</ele>
        <time>2022-03-27T13:54:50Z</time>
      </trkpt>
      <trkpt lat="43.3161" lon="5.62114">
        <ele>369.6</ele>
        <time>2022-03-27T13:55:03Z</time>
      </trkpt>
      <trkpt lat="43.31617" lon="5.62123">
        <ele>365.9</ele>
        <time>2022-03-27T13:55:23Z</time>
      </trkpt>
      <trkpt lat="43.31624" lon="5.6213">
        <ele>363.5</ele>
        <time>2022-03-27T13:55:34Z</time>
      </trkpt>
      <trkpt lat="43.31631" lon="5.62138">
        <ele>361.3</ele>
        <time>2022-03-27T13:55:43Z</time>
      </trkpt>
      <trkpt lat="43.31639" lon="5.62147">
        <ele>359.8</ele>
        <time>2022-03-27T13:55:52Z</time>
      </trkpt>
      <trkpt lat="43.31648" lon="5.62149">
        <ele>360.3</ele>
        <time>2022-03-27T13:56:01Z</time>
      </trkpt>
      <trkpt lat="43.31657" lon="5.62153">
        <ele>359.9</ele>
        <time>2022-03-27T13:56:15Z</time>
      </trkpt>
      <trkpt lat="43.31667" lon="5.62154">
        <ele>357.7</ele>
        <time>2022-03-27T13:57:44Z</time>
      </trkpt>
      <trkpt lat="43.31675" lon="5.6216">
        <ele>356</ele>
        <time>2022-03-27T13:57:56Z</time>
      </trkpt>
      <trkpt lat="43.31684" lon="5.62154">
        <ele>353.2</ele>
        <time>2022-03-27T13:58:22Z</time>
      </trkpt>
      <trkpt lat="43.31692" lon="5.6215">
        <ele>350.5</ele>
        <time>2022-03-27T13:58:34Z</time>
      </trkpt>
      <trkpt lat="43.31695" lon="5.62137">
        <ele>348.8</ele>
        <time>2022-03-27T13:58:49Z</time>
      </trkpt>
      <trkpt lat="43.31697" lon="5.62125">
        <ele>346.8</ele>
        <time>2022-03-27T13:59:36Z</time>
      </trkpt>
      <trkpt lat="43.31694" lon="5.62112">
        <ele>344.2</ele>
        <time>2022-03-27T13:59:54Z</time>
      </trkpt>
      <trkpt lat="43.31697" lon="5.621">
        <ele>341.2</ele>
        <time>2022-03-27T14:00:06Z</time>
      </trkpt>
      <trkpt lat="43.31701" lon="5.62089">
        <ele>338</ele>
        <time>2022-03-27T14:00:21Z</time>
      </trkpt>
      <trkpt lat="43.31703" lon="5.62077">
        <ele>335.1</ele>
        <time>2022-03-27T14:00:38Z</time>
      </trkpt>
      <trkpt lat="43.31704" lon="5.62064">
        <ele>332.8</ele>
        <time>2022-03-27T14:00:52Z</time>
      </trkpt>
      <trkpt lat="43.31706" lon="5.62051">
        <ele>330.7</ele>
        <time>2022-03-27T14:01:04Z</time>
      </trkpt>
      <trkpt lat="43.31704" lon="5.62039">
        <ele>328.8</ele>
        <time>2022-03-27T14:01:16Z</time>
      </trkpt>
      <trkpt lat="43.31705" lon="5.62026">
        <ele>326.9</ele>
        <time>2022-03-27T14:01:28Z</time>
      </trkpt>
      <trkpt lat="43.31703" lon="5.62014">
        <ele>325.2</ele>
        <time>2022-03-27T14:01:38Z</time>
      </trkpt>
      <trkpt lat="43.317" lon="5.62002">
        <ele>323.6</ele>
        <time>2022-03-27T14:01:49Z</time>
      </trkpt>
      <trkpt lat="43.31699" lon="5.61989">
        <ele>321.6</ele>
        <time>2022-03-27T14:02:01Z</time>
      </trkpt>
      <trkpt lat="43.31696" lon="5.61976">
        <ele>320.1</ele>
        <time>2022-03-27T14:02:12Z</time>
      </trkpt>
      <trkpt lat="43.31695" lon="5.61964">
        <ele>318.6</ele>
        <time>2022-03-27T14:02:22Z</time>
      </trkpt>
      <trkpt lat="43.31696" lon="5.61951">
        <ele>317.2</ele>
        <time>2022-03-27T14:02:32Z</time>
      </trkpt>
      <trkpt lat="43.317" lon="5.6194">
        <ele>316.1</ele>
        <time>2022-03-27T14:03:46Z</time>
      </trkpt>
      <trkpt lat="43.31707" lon="5.6193">
        <ele>315.1</ele>
        <time>2022-03-27T14:03:55Z</time>
      </trkpt>
      <trkpt lat="43.31707" lon="5.61917">
        <ele>312.7</ele>
        <time>2022-03-27T14:04:06Z</time>
      </trkpt>
      <trkpt lat="43.31707" lon="5.61904">
        <ele>310.2</ele>
        <time>2022-03-27T14:04:18Z</time>
      </trkpt>
      <trkpt lat="43.31703" lon="5.61892">
        <ele>308</ele>
        <time>2022-03-27T14:04:28Z</time>
      </trkpt>
      <trkpt lat="43.31697" lon="5.61882">
        <ele>305.9</ele>
        <time>2022-03-27T14:04:40Z</time>
      </trkpt>
      <trkpt lat="43.31692" lon="5.61871">
        <ele>303.7</ele>
        <time>2022-03-27T14:04:50Z</time>
      </trkpt>
      <trkpt lat="43.31689" lon="5.61859">
        <ele>301.4</ele>
        <time>2022-03-27T14:05:01Z</time>
      </trkpt>
      <trkpt lat="43.31683" lon="5.61848">
        <ele>299.9</ele>
        <time>2022-03-27T14:05:10Z</time>
      </trkpt>
      <trkpt lat="43.31677" lon="5.61838">
        <ele>298.5</ele>
        <time>2022-03-27T14:05:19Z</time>
      </trkpt>
      <trkpt lat="43.3167" lon="5.61829">
        <ele>297.6</ele>
        <time>2022-03-27T14:05:28Z</time>
      </trkpt>
      <trkpt lat="43.31662" lon="5.6182">
        <ele>296.3</ele>
        <time>2022-03-27T14:05:38Z</time>
      </trkpt>
      <trkpt lat="43.31655" lon="5.61812">
        <ele>294.6</ele>
        <time>2022-03-27T14:05:47Z</time>
      </trkpt>
      <trkpt lat="43.3165" lon="5.61802">
        <ele>292.9</ele>
        <time>2022-03-27T14:05:57Z</time>
      </trkpt>
      <trkpt lat="43.31644" lon="5.61792">
        <ele>291</ele>
        <time>2022-03-27T14:06:08Z</time>
      </trkpt>
      <trkpt lat="43.31639" lon="5.61781">
        <ele>289.1</ele>
        <time>2022-03-27T14:06:20Z</time>
      </trkpt>
      <trkpt lat="43.31633" lon="5.6177">
        <ele>287.6</ele>
        <time>2022-03-27T14:06:34Z</time>
      </trkpt>
      <trkpt lat="43.31625" lon="5.61763">
        <ele>285.8</ele>
        <time>2022-03-27T14:06:46Z</time>
      </trkpt>
      <trkpt lat="43.31616" lon="5.61759">
        <ele>284.2</ele>
        <time>2022-03-27T14:06:57Z</time>
      </trkpt>
      <trkpt lat="43.31607" lon="5.61756">
        <ele>283</ele>
        <time>2022-03-27T14:07:09Z</time>
      </trkpt>
      <trkpt lat="43.31598" lon="5.61753">
        <ele>281.8</ele>
        <time>2022-03-27T14:07:19Z</time>
      </trkpt>
      <trkpt lat="43.31589" lon="5.6175">
        <ele>281.1</ele>
        <time>2022-03-27T14:07:29Z</time>
      </trkpt>
      <trkpt lat="43.3158" lon="5.61753">
        <ele>280.7</ele>
        <time>2022-03-27T14:07:39Z</time>
      </trkpt>
      <trkpt lat="43.31571" lon="5.61751">
        <ele>279.5</ele>
        <time>2022-03-27T14:07:51Z</time>
      </trkpt>
      <trkpt lat="43.31562" lon="5.61745">
        <ele>277.8</ele>
        <time>2022-03-27T14:08:02Z</time>
      </trkpt>
      <trkpt lat="43.31556" lon="5.61736">
        <ele>276</ele>
        <time>2022-03-27T14:08:13Z</time>
      </trkpt>
      <trkpt lat="43.3155" lon="5.61727">
        <ele>274.2</ele>
        <time>2022-03-27T14:08:23Z</time>
      </trkpt>
      <trkpt lat="43.31545" lon="5.61716">
        <ele>272.4</ele>
        <time>2022-03-27T14:08:34Z</time>
      </trkpt>
      <trkpt lat="43.3154" lon="5.61705">
        <ele>270.9</ele>
        <time>2022-03-27T14:08:46Z</time>
      </trkpt>
      <trkpt lat="43.31536" lon="5.61693">
        <ele>269.3</ele>
        <time>2022-03-27T14:08:57Z</time>
      </trkpt>
      <trkpt lat="43.31532" lon="5.61681">
        <ele>268.1</ele>
        <time>2022-03-27T14:09:09Z</time>
      </trkpt>
      <trkpt lat="43.31528" lon="5.61669">
        <ele>266.6</ele>
        <time>2022-03-27T14:09:22Z</time>
      </trkpt>
      <trkpt lat="43.31524" lon="5.61657">
        <ele>265.4</ele>
        <time>2022-03-27T14:09:33Z</time>
      </trkpt>
      <trkpt lat="43.3152" lon="5.61646">
        <ele>264</ele>
        <time>2022-03-27T14:09:43Z</time>
      </trkpt>
      <trkpt lat="43.31514" lon="5.61636">
        <ele>263.1</ele>
        <time>2022-03-27T14:09:52Z</time>
      </trkpt>
      <trkpt lat="43.31507" lon="5.61626">
        <ele>262.2</ele>
        <time>2022-03-27T14:10:01Z</time>
      </trkpt>
      <trkpt lat="43.31499" lon="5.61619">
        <ele>261.5</ele>
        <time>2022-03-27T14:10:10Z</time>
      </trkpt>
      <trkpt lat="43.31491" lon="5.61611">
        <ele>260.1</ele>
        <time>2022-03-27T14:10:20Z</time>
      </trkpt>
      <trkpt lat="43.31481" lon="5.61609">
        <ele>259.4</ele>
        <time>2022-03-27T14:10:29Z</time>
      </trkpt>
      <trkpt lat="43.31473" lon="5.61616">
        <ele>258.4</ele>
        <time>2022-03-27T14:10:38Z</time>
      </trkpt>
      <trkpt lat="43.31468" lon="5.61627">
        <ele>257.3</ele>
        <time>2022-03-27T14:10:46Z</time>
      </trkpt>
      <trkpt lat="43.31461" lon="5.61637">
        <ele>256.7</ele>
        <time>2022-03-27T14:10:54Z</time>
      </trkpt>
      <trkpt lat="43.31454" lon="5.61645">
        <ele>256</ele>
        <time>2022-03-27T14:11:02Z</time>
      </trkpt>
      <trkpt lat="43.31445" lon="5.6165">
        <ele>255.4</ele>
        <time>2022-03-27T14:11:10Z</time>
      </trkpt>
      <trkpt lat="43.31436" lon="5.61654">
        <ele>254.5</ele>
        <time>2022-03-27T14:11:19Z</time>
      </trkpt>
      <trkpt lat="43.31427" lon="5.61659">
        <ele>254.1</ele>
        <time>2022-03-27T14:11:27Z</time>
      </trkpt>
      <trkpt lat="43.31419" lon="5.61666">
        <ele>253.7</ele>
        <time>2022-03-27T14:11:35Z</time>
      </trkpt>
      <trkpt lat="43.31411" lon="5.61674">
        <ele>253.2</ele>
        <time>2022-03-27T14:11:43Z</time>
      </trkpt>
      <trkpt lat="43.31403" lon="5.61679">
        <ele>252.5</ele>
        <time>2022-03-27T14:11:51Z</time>
      </trkpt>
      <trkpt lat="43.31393" lon="5.61681">
        <ele>251.9</ele>
        <time>2022-03-27T14:12:00Z</time>
      </trkpt>
      <trkpt lat="43.31383" lon="5.6168">
        <ele>251.9</ele>
        <time>2022-03-27T14:12:09Z</time>
      </trkpt>
      <trkpt lat="43.31375" lon="5.61676">
        <ele>251.5</ele>
        <time>2022-03-27T14:12:17Z</time>
      </trkpt>
      <trkpt lat="43.31366" lon="5.61671">
        <ele>250.7</ele>
        <time>2022-03-27T14:12:25Z</time>
      </trkpt>
      <trkpt lat="43.31358" lon="5.61666">
        <ele>250.2</ele>
        <time>2022-03-27T14:12:32Z</time>
      </trkpt>
      <trkpt lat="43.31349" lon="5.61658">
        <ele>249</ele>
        <time>2022-03-27T14:12:40Z</time>
      </trkpt>
      <trkpt lat="43.31339" lon="5.61654">
        <ele>248.3</ele>
        <time>2022-03-27T14:12:48Z</time>
      </trkpt>
      <trkpt lat="43.3133" lon="5.61655">
        <ele>247</ele>
        <time>2022-03-27T14:12:56Z</time>
      </trkpt>
      <trkpt lat="43.31321" lon="5.61659">
        <ele>245.8</ele>
        <time>2022-03-27T14:13:04Z</time>
      </trkpt>
      <trkpt lat="43.31313" lon="5.61664">
        <ele>244.3</ele>
        <time>2022-03-27T14:13:12Z</time>
      </trkpt>
      <trkpt lat="43.31304" lon="5.61671">
        <ele>243.6</ele>
        <time>2022-03-27T14:13:21Z</time>
      </trkpt>
      <trkpt lat="43.31297" lon="5.61679">
        <ele>241.9</ele>
        <time>2022-03-27T14:13:30Z</time>
      </trkpt>
      <trkpt lat="43.3129" lon="5.61688">
        <ele>240.6</ele>
        <time>2022-03-27T14:13:38Z</time>
      </trkpt>
      <trkpt lat="43.31282" lon="5.61695">
        <ele>239</ele>
        <time>2022-03-27T14:13:46Z</time>
      </trkpt>
      <trkpt lat="43.31275" lon="5.61704">
        <ele>237.1</ele>
        <time>2022-03-27T14:13:54Z</time>
      </trkpt>
      <trkpt lat="43.31268" lon="5.61713">
        <ele>235.2</ele>
        <time>2022-03-27T14:14:03Z</time>
      </trkpt>
      <trkpt lat="43.31259" lon="5.61718">
        <ele>233.9</ele>
        <time>2022-03-27T14:14:11Z</time>
      </trkpt>
      <trkpt lat="43.31257" lon="5.61705">
        <ele>231.8</ele>
        <time>2022-03-27T14:14:23Z</time>
      </trkpt>
      <trkpt lat="43.31264" lon="5.61696">
        <ele>230.4</ele>
        <time>2022-03-27T14:14:32Z</time>
      </trkpt>
      <trkpt lat="43.31271" lon="5.61687">
        <ele>229.2</ele>
        <time>2022-03-27T14:14:40Z</time>
      </trkpt>
      <trkpt lat="43.31272" lon="5.61674">
        <ele>227.5</ele>
        <time>2022-03-27T14:14:50Z</time>
      </trkpt>
      <trkpt lat="43.31263" lon="5.61672">
        <ele>225.8</ele>
        <time>2022-03-27T14:15:01Z</time>
      </trkpt>
      <trkpt lat="43.31254" lon="5.61679">
        <ele>224.1</ele>
        <time>2022-03-27T14:15:11Z</time>
      </trkpt>
      <trkpt lat="43.31245" lon="5.61684">
        <ele>222.4</ele>
        <time>2022-03-27T14:15:23Z</time>
      </trkpt>
      <trkpt lat="43.31235" lon="5.61688">
        <ele>220.6</ele>
        <time>2022-03-27T14:15:32Z</time>
      </trkpt>
      <trkpt lat="43.31226" lon="5.61688">
        <ele>219.5</ele>
        <time>2022-03-27T14:15:42Z</time>
      </trkpt>
      <trkpt lat="43.31224" lon="5.61676">
        <ele>217.8</ele>
        <time>2022-03-27T14:15:51Z</time>
      </trkpt>
      <trkpt lat="43.31228" lon="5.61664">
        <ele>216.1</ele>
        <time>2022-03-27T14:16:02Z</time>
      </trkpt>
      <trkpt lat="43.31232" lon="5.61652">
        <ele>214.7</ele>
        <time>2022-03-27T14:16:13Z</time>
      </trkpt>
      <trkpt lat="43.31237" lon="5.61641">
        <ele>212.8</ele>
        <time>2022-03-27T14:16:27Z</time>
      </trkpt>
      <trkpt lat="43.31242" lon="5.61629">
        <ele>211.7</ele>
        <time>2022-03-27T14:16:38Z</time>
      </trkpt>
      <trkpt lat="43.31246" lon="5.61617">
        <ele>210.7</ele>
        <time>2022-03-27T14:16:47Z</time>
      </trkpt>
      <trkpt lat="43.31251" lon="5.61606">
        <ele>209.5</ele>
        <time>2022-03-27T14:16:56Z</time>
      </trkpt>
      <trkpt lat="43.31254" lon="5.61594">
        <ele>208.5</ele>
        <time>2022-03-27T14:17:05Z</time>
      </trkpt>
      <trkpt lat="43.31259" lon="5.61582">
        <ele>207.3</ele>
        <time>2022-03-27T14:17:15Z</time>
      </trkpt>
      <trkpt lat="43.31264" lon="5.61571">
        <ele>205.8</ele>
        <time>2022-03-27T14:17:24Z</time>
      </trkpt>
      <trkpt lat="43.31271" lon="5.61562">
        <ele>204.1</ele>
        <time>2022-03-27T14:17:33Z</time>
      </trkpt>
      <trkpt lat="43.31278" lon="5.61553">
        <ele>202.7</ele>
        <time>2022-03-27T14:17:42Z</time>
      </trkpt>
      <trkpt lat="43.31285" lon="5.61546">
        <ele>201.3</ele>
        <time>2022-03-27T14:17:50Z</time>
      </trkpt>
      <trkpt lat="43.31293" lon="5.61538">
        <ele>200.1</ele>
        <time>2022-03-27T14:17:58Z</time>
      </trkpt>
      <trkpt lat="43.313" lon="5.61532">
        <ele>199.6</ele>
        <time>2022-03-27T14:18:06Z</time>
      </trkpt>
      <trkpt lat="43.31308" lon="5.61525">
        <ele>198.6</ele>
        <time>2022-03-27T14:18:15Z</time>
      </trkpt>
      <trkpt lat="43.31317" lon="5.61522">
        <ele>197</ele>
        <time>2022-03-27T14:18:47Z</time>
      </trkpt>
      <trkpt lat="43.31326" lon="5.61526">
        <ele>196.5</ele>
        <time>2022-03-27T14:19:00Z</time>
      </trkpt>
      <trkpt lat="43.31336" lon="5.61526">
        <ele>196.1</ele>
        <time>2022-03-27T14:19:09Z</time>
      </trkpt>
      <trkpt lat="43.31343" lon="5.61517">
        <ele>195.1</ele>
        <time>2022-03-27T14:19:18Z</time>
      </trkpt>
      <trkpt lat="43.31344" lon="5.6151">
        <ele>194.4</ele>
        <time>2022-03-27T14:20:44Z</time>
      </trkpt>
    </trkseg>
  </trk>
</gpx>